<?xml version="1.0" encoding="UTF-8" standalone="no" ?>
<gpx xmlns="http://www.topografix.com/GPX/1/1" xmlns:xsi="http://www.w3.org/2001/XMLSchema-instance" xsi:schemaLocation="http://www.topografix.com/GPX/1/1 http://www.topografix.com/GPX/1/1/gpx.xsd" version="1.1" creator="VisuGPX - https://www.visugpx.com">
  <metadata>
    <name>Chalets des prés par Bûche croisée</name>
    <desc><![CDATA[Départ de Notre dame de la Gorge. Montée par l'Anery et la Chenalettaz.
Descente par le pont de Nant Borrant et la voie romaine]]></desc>
  </metadata>
  <trk>
    <name><![CDATA[2022-01-23 16:12:13]]></name>
    <trkseg>
      <trkpt lat="45.79631" lon="6.71803">
        <ele>1193.13</ele>
        <time>2022-01-23T08:02:58Z</time>
      </trkpt>
      <trkpt lat="45.79631" lon="6.71803">
        <ele>1193.61</ele>
        <time>2022-01-23T08:03:23Z</time>
      </trkpt>
      <trkpt lat="45.79631" lon="6.71803">
        <ele>1193.61</ele>
        <time>2022-01-23T08:03:41Z</time>
      </trkpt>
      <trkpt lat="45.79631" lon="6.71803">
        <ele>1193.61</ele>
        <time>2022-01-23T08:04:06Z</time>
      </trkpt>
      <trkpt lat="45.79631" lon="6.71803">
        <ele>1193.13</ele>
        <time>2022-01-23T08:04:22Z</time>
      </trkpt>
      <trkpt lat="45.79631" lon="6.71803">
        <ele>1194.09</ele>
        <time>2022-01-23T08:05:13Z</time>
      </trkpt>
      <trkpt lat="45.79631" lon="6.71803">
        <ele>1194.09</ele>
        <time>2022-01-23T08:06:42Z</time>
      </trkpt>
      <trkpt lat="45.79627" lon="6.71797">
        <ele>1194.09</ele>
        <time>2022-01-23T08:07:07Z</time>
      </trkpt>
      <trkpt lat="45.79629" lon="6.71803">
        <ele>1194.09</ele>
        <time>2022-01-23T08:07:28Z</time>
      </trkpt>
      <trkpt lat="45.79627" lon="6.718">
        <ele>1194.09</ele>
        <time>2022-01-23T08:07:53Z</time>
      </trkpt>
      <trkpt lat="45.79623" lon="6.718">
        <ele>1194.58</ele>
        <time>2022-01-23T08:08:07Z</time>
      </trkpt>
      <trkpt lat="45.79621" lon="6.71802">
        <ele>1194.58</ele>
        <time>2022-01-23T08:08:10Z</time>
      </trkpt>
      <trkpt lat="45.79616" lon="6.71802">
        <ele>1194.58</ele>
        <time>2022-01-23T08:08:15Z</time>
      </trkpt>
      <trkpt lat="45.79608" lon="6.71801">
        <ele>1194.58</ele>
        <time>2022-01-23T08:08:22Z</time>
      </trkpt>
      <trkpt lat="45.79584" lon="6.718">
        <ele>1196.02</ele>
        <time>2022-01-23T08:08:44Z</time>
      </trkpt>
      <trkpt lat="45.79577" lon="6.71815">
        <ele>1195.06</ele>
        <time>2022-01-23T08:09:08Z</time>
      </trkpt>
      <trkpt lat="45.79576" lon="6.71814">
        <ele>1192.17</ele>
        <time>2022-01-23T08:09:35Z</time>
      </trkpt>
      <trkpt lat="45.79576" lon="6.71815">
        <ele>1188.33</ele>
        <time>2022-01-23T08:09:37Z</time>
      </trkpt>
      <trkpt lat="45.79577" lon="6.71814">
        <ele>1191.21</ele>
        <time>2022-01-23T08:09:53Z</time>
      </trkpt>
      <trkpt lat="45.79579" lon="6.71815">
        <ele>1194.58</ele>
        <time>2022-01-23T08:09:58Z</time>
      </trkpt>
      <trkpt lat="45.7958" lon="6.71816">
        <ele>1197.94</ele>
        <time>2022-01-23T08:10:00Z</time>
      </trkpt>
      <trkpt lat="45.7958" lon="6.71816">
        <ele>1198.9</ele>
        <time>2022-01-23T08:10:02Z</time>
      </trkpt>
      <trkpt lat="45.79579" lon="6.71819">
        <ele>1199.38</ele>
        <time>2022-01-23T08:10:17Z</time>
      </trkpt>
      <trkpt lat="45.79574" lon="6.71812">
        <ele>1196.5</ele>
        <time>2022-01-23T08:10:36Z</time>
      </trkpt>
      <trkpt lat="45.79575" lon="6.71811">
        <ele>1196.02</ele>
        <time>2022-01-23T08:10:59Z</time>
      </trkpt>
      <trkpt lat="45.79575" lon="6.71813">
        <ele>1196.5</ele>
        <time>2022-01-23T08:11:42Z</time>
      </trkpt>
      <trkpt lat="45.79575" lon="6.71812">
        <ele>1196.98</ele>
        <time>2022-01-23T08:12:37Z</time>
      </trkpt>
      <trkpt lat="45.79575" lon="6.71811">
        <ele>1196.98</ele>
        <time>2022-01-23T08:13:49Z</time>
      </trkpt>
      <trkpt lat="45.79575" lon="6.71812">
        <ele>1196.98</ele>
        <time>2022-01-23T08:14:56Z</time>
      </trkpt>
      <trkpt lat="45.79576" lon="6.71812">
        <ele>1196.98</ele>
        <time>2022-01-23T08:16:05Z</time>
      </trkpt>
      <trkpt lat="45.79576" lon="6.71813">
        <ele>1196.98</ele>
        <time>2022-01-23T08:16:57Z</time>
      </trkpt>
      <trkpt lat="45.79564" lon="6.7181">
        <ele>1196.98</ele>
        <time>2022-01-23T08:17:31Z</time>
      </trkpt>
      <trkpt lat="45.79531" lon="6.71798">
        <ele>1197.94</ele>
        <time>2022-01-23T08:17:53Z</time>
      </trkpt>
      <trkpt lat="45.79514" lon="6.71793">
        <ele>1198.42</ele>
        <time>2022-01-23T08:18:11Z</time>
      </trkpt>
      <trkpt lat="45.79496" lon="6.71786">
        <ele>1198.9</ele>
        <time>2022-01-23T08:18:29Z</time>
      </trkpt>
      <trkpt lat="45.7948" lon="6.71778">
        <ele>1199.38</ele>
        <time>2022-01-23T08:18:46Z</time>
      </trkpt>
      <trkpt lat="45.79465" lon="6.71763">
        <ele>1200.34</ele>
        <time>2022-01-23T08:19:06Z</time>
      </trkpt>
      <trkpt lat="45.79461" lon="6.71757">
        <ele>1200.82</ele>
        <time>2022-01-23T08:19:11Z</time>
      </trkpt>
      <trkpt lat="45.79456" lon="6.71753">
        <ele>1200.82</ele>
        <time>2022-01-23T08:19:27Z</time>
      </trkpt>
      <trkpt lat="45.79437" lon="6.71765">
        <ele>1201.3</ele>
        <time>2022-01-23T08:19:44Z</time>
      </trkpt>
      <trkpt lat="45.79432" lon="6.71787">
        <ele>1202.27</ele>
        <time>2022-01-23T08:20:02Z</time>
      </trkpt>
      <trkpt lat="45.79432" lon="6.7179">
        <ele>1202.27</ele>
        <time>2022-01-23T08:20:04Z</time>
      </trkpt>
      <trkpt lat="45.79426" lon="6.71807">
        <ele>1200.82</ele>
        <time>2022-01-23T08:20:15Z</time>
      </trkpt>
      <trkpt lat="45.7942" lon="6.71812">
        <ele>1200.82</ele>
        <time>2022-01-23T08:20:21Z</time>
      </trkpt>
      <trkpt lat="45.7941" lon="6.71821">
        <ele>1201.3</ele>
        <time>2022-01-23T08:20:36Z</time>
      </trkpt>
      <trkpt lat="45.79406" lon="6.71824">
        <ele>1201.79</ele>
        <time>2022-01-23T08:20:59Z</time>
      </trkpt>
      <trkpt lat="45.79382" lon="6.71841">
        <ele>1202.75</ele>
        <time>2022-01-23T08:21:15Z</time>
      </trkpt>
      <trkpt lat="45.79362" lon="6.71849">
        <ele>1203.71</ele>
        <time>2022-01-23T08:21:28Z</time>
      </trkpt>
      <trkpt lat="45.79349" lon="6.71843">
        <ele>1204.19</ele>
        <time>2022-01-23T08:21:44Z</time>
      </trkpt>
      <trkpt lat="45.79343" lon="6.71836">
        <ele>1204.19</ele>
        <time>2022-01-23T08:21:52Z</time>
      </trkpt>
      <trkpt lat="45.79329" lon="6.7182">
        <ele>1204.67</ele>
        <time>2022-01-23T08:22:09Z</time>
      </trkpt>
      <trkpt lat="45.79317" lon="6.71807">
        <ele>1205.15</ele>
        <time>2022-01-23T08:22:26Z</time>
      </trkpt>
      <trkpt lat="45.79302" lon="6.71792">
        <ele>1205.63</ele>
        <time>2022-01-23T08:22:47Z</time>
      </trkpt>
      <trkpt lat="45.79287" lon="6.71761">
        <ele>1206.59</ele>
        <time>2022-01-23T08:23:14Z</time>
      </trkpt>
      <trkpt lat="45.79277" lon="6.71745">
        <ele>1207.07</ele>
        <time>2022-01-23T08:23:26Z</time>
      </trkpt>
      <trkpt lat="45.79265" lon="6.7173">
        <ele>1208.03</ele>
        <time>2022-01-23T08:23:42Z</time>
      </trkpt>
      <trkpt lat="45.79247" lon="6.71711">
        <ele>1208.51</ele>
        <time>2022-01-23T08:24:02Z</time>
      </trkpt>
      <trkpt lat="45.79232" lon="6.71699">
        <ele>1209</ele>
        <time>2022-01-23T08:24:22Z</time>
      </trkpt>
      <trkpt lat="45.79217" lon="6.71688">
        <ele>1209.96</ele>
        <time>2022-01-23T08:24:39Z</time>
      </trkpt>
      <trkpt lat="45.79201" lon="6.71664">
        <ele>1209.96</ele>
        <time>2022-01-23T08:24:58Z</time>
      </trkpt>
      <trkpt lat="45.79188" lon="6.71648">
        <ele>1210.44</ele>
        <time>2022-01-23T08:25:16Z</time>
      </trkpt>
      <trkpt lat="45.79183" lon="6.71644">
        <ele>1210.44</ele>
        <time>2022-01-23T08:25:22Z</time>
      </trkpt>
      <trkpt lat="45.79171" lon="6.71623">
        <ele>1211.4</ele>
        <time>2022-01-23T08:25:40Z</time>
      </trkpt>
      <trkpt lat="45.79171" lon="6.71611">
        <ele>1211.88</ele>
        <time>2022-01-23T08:25:51Z</time>
      </trkpt>
      <trkpt lat="45.79178" lon="6.71598">
        <ele>1212.36</ele>
        <time>2022-01-23T08:26:01Z</time>
      </trkpt>
      <trkpt lat="45.79173" lon="6.71576">
        <ele>1212.84</ele>
        <time>2022-01-23T08:26:17Z</time>
      </trkpt>
      <trkpt lat="45.79166" lon="6.71562">
        <ele>1213.8</ele>
        <time>2022-01-23T08:26:30Z</time>
      </trkpt>
      <trkpt lat="45.79161" lon="6.7155">
        <ele>1213.8</ele>
        <time>2022-01-23T08:26:39Z</time>
      </trkpt>
      <trkpt lat="45.79153" lon="6.71538">
        <ele>1214.28</ele>
        <time>2022-01-23T08:26:53Z</time>
      </trkpt>
      <trkpt lat="45.79149" lon="6.71537">
        <ele>1214.28</ele>
        <time>2022-01-23T08:26:55Z</time>
      </trkpt>
      <trkpt lat="45.79129" lon="6.71533">
        <ele>1213.32</ele>
        <time>2022-01-23T08:27:09Z</time>
      </trkpt>
      <trkpt lat="45.79121" lon="6.71533">
        <ele>1213.32</ele>
        <time>2022-01-23T08:27:26Z</time>
      </trkpt>
      <trkpt lat="45.79118" lon="6.71538">
        <ele>1213.8</ele>
        <time>2022-01-23T08:28:11Z</time>
      </trkpt>
      <trkpt lat="45.79115" lon="6.71529">
        <ele>1213.32</ele>
        <time>2022-01-23T08:28:40Z</time>
      </trkpt>
      <trkpt lat="45.79102" lon="6.71505">
        <ele>1213.8</ele>
        <time>2022-01-23T08:28:58Z</time>
      </trkpt>
      <trkpt lat="45.79096" lon="6.71497">
        <ele>1214.28</ele>
        <time>2022-01-23T08:29:18Z</time>
      </trkpt>
      <trkpt lat="45.79096" lon="6.71496">
        <ele>1214.28</ele>
        <time>2022-01-23T08:29:54Z</time>
      </trkpt>
      <trkpt lat="45.79096" lon="6.71496">
        <ele>1213.8</ele>
        <time>2022-01-23T08:30:18Z</time>
      </trkpt>
      <trkpt lat="45.79094" lon="6.71495">
        <ele>1213.8</ele>
        <time>2022-01-23T08:30:53Z</time>
      </trkpt>
      <trkpt lat="45.79081" lon="6.7147">
        <ele>1214.76</ele>
        <time>2022-01-23T08:31:14Z</time>
      </trkpt>
      <trkpt lat="45.79069" lon="6.7145">
        <ele>1216.69</ele>
        <time>2022-01-23T08:31:32Z</time>
      </trkpt>
      <trkpt lat="45.79056" lon="6.71437">
        <ele>1217.17</ele>
        <time>2022-01-23T08:31:47Z</time>
      </trkpt>
      <trkpt lat="45.7904" lon="6.71426">
        <ele>1218.13</ele>
        <time>2022-01-23T08:32:05Z</time>
      </trkpt>
      <trkpt lat="45.79002" lon="6.71403">
        <ele>1220.05</ele>
        <time>2022-01-23T08:32:46Z</time>
      </trkpt>
      <trkpt lat="45.78993" lon="6.71393">
        <ele>1221.01</ele>
        <time>2022-01-23T08:33:01Z</time>
      </trkpt>
      <trkpt lat="45.78984" lon="6.71386">
        <ele>1221.01</ele>
        <time>2022-01-23T08:33:10Z</time>
      </trkpt>
      <trkpt lat="45.78963" lon="6.7137">
        <ele>1221.97</ele>
        <time>2022-01-23T08:33:31Z</time>
      </trkpt>
      <trkpt lat="45.78946" lon="6.7136">
        <ele>1222.93</ele>
        <time>2022-01-23T08:33:49Z</time>
      </trkpt>
      <trkpt lat="45.7892" lon="6.71343">
        <ele>1223.9</ele>
        <time>2022-01-23T08:34:18Z</time>
      </trkpt>
      <trkpt lat="45.78899" lon="6.71333">
        <ele>1226.78</ele>
        <time>2022-01-23T08:34:42Z</time>
      </trkpt>
      <trkpt lat="45.78881" lon="6.7132">
        <ele>1230.14</ele>
        <time>2022-01-23T08:35:07Z</time>
      </trkpt>
      <trkpt lat="45.78861" lon="6.713">
        <ele>1233.03</ele>
        <time>2022-01-23T08:35:34Z</time>
      </trkpt>
      <trkpt lat="45.78854" lon="6.71289">
        <ele>1234.95</ele>
        <time>2022-01-23T08:35:48Z</time>
      </trkpt>
      <trkpt lat="45.78854" lon="6.71287">
        <ele>1235.91</ele>
        <time>2022-01-23T08:36:20Z</time>
      </trkpt>
      <trkpt lat="45.78848" lon="6.71286">
        <ele>1235.43</ele>
        <time>2022-01-23T08:36:28Z</time>
      </trkpt>
      <trkpt lat="45.78836" lon="6.71266">
        <ele>1234.95</ele>
        <time>2022-01-23T08:36:46Z</time>
      </trkpt>
      <trkpt lat="45.78842" lon="6.71252">
        <ele>1237.83</ele>
        <time>2022-01-23T08:37:04Z</time>
      </trkpt>
      <trkpt lat="45.78847" lon="6.71242">
        <ele>1240.24</ele>
        <time>2022-01-23T08:37:22Z</time>
      </trkpt>
      <trkpt lat="45.78852" lon="6.7123">
        <ele>1242.16</ele>
        <time>2022-01-23T08:37:44Z</time>
      </trkpt>
      <trkpt lat="45.78854" lon="6.7122">
        <ele>1243.6</ele>
        <time>2022-01-23T08:38:08Z</time>
      </trkpt>
      <trkpt lat="45.78858" lon="6.71204">
        <ele>1246.49</ele>
        <time>2022-01-23T08:38:38Z</time>
      </trkpt>
      <trkpt lat="45.7886" lon="6.71209">
        <ele>1247.45</ele>
        <time>2022-01-23T08:39:05Z</time>
      </trkpt>
      <trkpt lat="45.78863" lon="6.71209">
        <ele>1248.41</ele>
        <time>2022-01-23T08:39:37Z</time>
      </trkpt>
      <trkpt lat="45.7887" lon="6.71203">
        <ele>1249.37</ele>
        <time>2022-01-23T08:40:11Z</time>
      </trkpt>
      <trkpt lat="45.78865" lon="6.71192">
        <ele>1249.37</ele>
        <time>2022-01-23T08:40:50Z</time>
      </trkpt>
      <trkpt lat="45.78865" lon="6.71203">
        <ele>1249.37</ele>
        <time>2022-01-23T08:41:31Z</time>
      </trkpt>
      <trkpt lat="45.7888" lon="6.71203">
        <ele>1249.37</ele>
        <time>2022-01-23T08:41:55Z</time>
      </trkpt>
      <trkpt lat="45.7888" lon="6.71198">
        <ele>1249.37</ele>
        <time>2022-01-23T08:42:25Z</time>
      </trkpt>
      <trkpt lat="45.78873" lon="6.71178">
        <ele>1249.37</ele>
        <time>2022-01-23T08:42:51Z</time>
      </trkpt>
      <trkpt lat="45.78869" lon="6.71168">
        <ele>1249.37</ele>
        <time>2022-01-23T08:43:20Z</time>
      </trkpt>
      <trkpt lat="45.78868" lon="6.71158">
        <ele>1249.37</ele>
        <time>2022-01-23T08:43:40Z</time>
      </trkpt>
      <trkpt lat="45.78874" lon="6.71152">
        <ele>1251.77</ele>
        <time>2022-01-23T08:43:53Z</time>
      </trkpt>
      <trkpt lat="45.78872" lon="6.71146">
        <ele>1253.7</ele>
        <time>2022-01-23T08:44:11Z</time>
      </trkpt>
      <trkpt lat="45.78866" lon="6.71146">
        <ele>1255.14</ele>
        <time>2022-01-23T08:44:38Z</time>
      </trkpt>
      <trkpt lat="45.78868" lon="6.71148">
        <ele>1255.14</ele>
        <time>2022-01-23T08:45:03Z</time>
      </trkpt>
      <trkpt lat="45.78867" lon="6.71148">
        <ele>1254.66</ele>
        <time>2022-01-23T08:45:40Z</time>
      </trkpt>
      <trkpt lat="45.78867" lon="6.7115">
        <ele>1255.14</ele>
        <time>2022-01-23T08:46:25Z</time>
      </trkpt>
      <trkpt lat="45.78867" lon="6.7115">
        <ele>1255.14</ele>
        <time>2022-01-23T08:47:12Z</time>
      </trkpt>
      <trkpt lat="45.78878" lon="6.71158">
        <ele>1255.14</ele>
        <time>2022-01-23T08:48:02Z</time>
      </trkpt>
      <trkpt lat="45.78877" lon="6.71162">
        <ele>1255.14</ele>
        <time>2022-01-23T08:48:29Z</time>
      </trkpt>
      <trkpt lat="45.78868" lon="6.71151">
        <ele>1255.14</ele>
        <time>2022-01-23T08:49:09Z</time>
      </trkpt>
      <trkpt lat="45.78861" lon="6.71141">
        <ele>1255.14</ele>
        <time>2022-01-23T08:49:51Z</time>
      </trkpt>
      <trkpt lat="45.78862" lon="6.71142">
        <ele>1260.43</ele>
        <time>2022-01-23T08:50:02Z</time>
      </trkpt>
      <trkpt lat="45.78862" lon="6.71142">
        <ele>1259.94</ele>
        <time>2022-01-23T08:50:03Z</time>
      </trkpt>
      <trkpt lat="45.78855" lon="6.71143">
        <ele>1260.91</ele>
        <time>2022-01-23T08:50:38Z</time>
      </trkpt>
      <trkpt lat="45.78848" lon="6.71154">
        <ele>1262.35</ele>
        <time>2022-01-23T08:51:02Z</time>
      </trkpt>
      <trkpt lat="45.78846" lon="6.71153">
        <ele>1265.23</ele>
        <time>2022-01-23T08:51:11Z</time>
      </trkpt>
      <trkpt lat="45.78846" lon="6.71153">
        <ele>1266.19</ele>
        <time>2022-01-23T08:51:13Z</time>
      </trkpt>
      <trkpt lat="45.78843" lon="6.71148">
        <ele>1265.23</ele>
        <time>2022-01-23T08:51:47Z</time>
      </trkpt>
      <trkpt lat="45.78841" lon="6.71153">
        <ele>1268.6</ele>
        <time>2022-01-23T08:52:02Z</time>
      </trkpt>
      <trkpt lat="45.78838" lon="6.7116">
        <ele>1271.48</ele>
        <time>2022-01-23T08:52:18Z</time>
      </trkpt>
      <trkpt lat="45.78836" lon="6.71162">
        <ele>1270.04</ele>
        <time>2022-01-23T08:52:25Z</time>
      </trkpt>
      <trkpt lat="45.78835" lon="6.71161">
        <ele>1273.4</ele>
        <time>2022-01-23T08:52:32Z</time>
      </trkpt>
      <trkpt lat="45.78831" lon="6.71156">
        <ele>1276.29</ele>
        <time>2022-01-23T08:52:48Z</time>
      </trkpt>
      <trkpt lat="45.78829" lon="6.71153">
        <ele>1279.65</ele>
        <time>2022-01-23T08:53:06Z</time>
      </trkpt>
      <trkpt lat="45.78824" lon="6.71146">
        <ele>1281.57</ele>
        <time>2022-01-23T08:53:28Z</time>
      </trkpt>
      <trkpt lat="45.78819" lon="6.71139">
        <ele>1284.94</ele>
        <time>2022-01-23T08:53:50Z</time>
      </trkpt>
      <trkpt lat="45.78816" lon="6.71129">
        <ele>1287.82</ele>
        <time>2022-01-23T08:54:09Z</time>
      </trkpt>
      <trkpt lat="45.78809" lon="6.71123">
        <ele>1290.71</ele>
        <time>2022-01-23T08:54:44Z</time>
      </trkpt>
      <trkpt lat="45.78805" lon="6.71122">
        <ele>1294.07</ele>
        <time>2022-01-23T08:55:00Z</time>
      </trkpt>
      <trkpt lat="45.788" lon="6.71124">
        <ele>1296.96</ele>
        <time>2022-01-23T08:55:22Z</time>
      </trkpt>
      <trkpt lat="45.78798" lon="6.71117">
        <ele>1299.84</ele>
        <time>2022-01-23T08:55:38Z</time>
      </trkpt>
      <trkpt lat="45.78798" lon="6.71111">
        <ele>1303.2</ele>
        <time>2022-01-23T08:55:59Z</time>
      </trkpt>
      <trkpt lat="45.78793" lon="6.711">
        <ele>1306.09</ele>
        <time>2022-01-23T08:56:19Z</time>
      </trkpt>
      <trkpt lat="45.78792" lon="6.71088">
        <ele>1308.97</ele>
        <time>2022-01-23T08:56:47Z</time>
      </trkpt>
      <trkpt lat="45.78793" lon="6.71086">
        <ele>1312.34</ele>
        <time>2022-01-23T08:57:03Z</time>
      </trkpt>
      <trkpt lat="45.78789" lon="6.71082">
        <ele>1315.7</ele>
        <time>2022-01-23T08:57:24Z</time>
      </trkpt>
      <trkpt lat="45.78782" lon="6.71079">
        <ele>1316.66</ele>
        <time>2022-01-23T08:57:50Z</time>
      </trkpt>
      <trkpt lat="45.78781" lon="6.7108">
        <ele>1320.03</ele>
        <time>2022-01-23T08:57:53Z</time>
      </trkpt>
      <trkpt lat="45.7878" lon="6.71073">
        <ele>1322.43</ele>
        <time>2022-01-23T08:58:23Z</time>
      </trkpt>
      <trkpt lat="45.78783" lon="6.71066">
        <ele>1325.31</ele>
        <time>2022-01-23T08:58:49Z</time>
      </trkpt>
      <trkpt lat="45.78786" lon="6.71063">
        <ele>1328.2</ele>
        <time>2022-01-23T08:59:02Z</time>
      </trkpt>
      <trkpt lat="45.78783" lon="6.71062">
        <ele>1330.6</ele>
        <time>2022-01-23T08:59:26Z</time>
      </trkpt>
      <trkpt lat="45.7878" lon="6.71058">
        <ele>1333.49</ele>
        <time>2022-01-23T08:59:50Z</time>
      </trkpt>
      <trkpt lat="45.78776" lon="6.71053">
        <ele>1335.89</ele>
        <time>2022-01-23T09:00:10Z</time>
      </trkpt>
      <trkpt lat="45.78774" lon="6.71048">
        <ele>1336.85</ele>
        <time>2022-01-23T09:00:32Z</time>
      </trkpt>
      <trkpt lat="45.78777" lon="6.71045">
        <ele>1340.22</ele>
        <time>2022-01-23T09:00:44Z</time>
      </trkpt>
      <trkpt lat="45.78771" lon="6.71038">
        <ele>1343.1</ele>
        <time>2022-01-23T09:01:06Z</time>
      </trkpt>
      <trkpt lat="45.78771" lon="6.71038">
        <ele>1343.58</ele>
        <time>2022-01-23T09:01:07Z</time>
      </trkpt>
      <trkpt lat="45.78765" lon="6.71034">
        <ele>1344.54</ele>
        <time>2022-01-23T09:01:28Z</time>
      </trkpt>
      <trkpt lat="45.7876" lon="6.7103">
        <ele>1347.91</ele>
        <time>2022-01-23T09:01:40Z</time>
      </trkpt>
      <trkpt lat="45.78753" lon="6.71025">
        <ele>1350.79</ele>
        <time>2022-01-23T09:02:03Z</time>
      </trkpt>
      <trkpt lat="45.78749" lon="6.71019">
        <ele>1353.67</ele>
        <time>2022-01-23T09:02:24Z</time>
      </trkpt>
      <trkpt lat="45.78746" lon="6.71017">
        <ele>1356.56</ele>
        <time>2022-01-23T09:02:49Z</time>
      </trkpt>
      <trkpt lat="45.78746" lon="6.71012">
        <ele>1359.92</ele>
        <time>2022-01-23T09:03:08Z</time>
      </trkpt>
      <trkpt lat="45.78755" lon="6.71006">
        <ele>1362.81</ele>
        <time>2022-01-23T09:03:31Z</time>
      </trkpt>
      <trkpt lat="45.78762" lon="6.71001">
        <ele>1366.17</ele>
        <time>2022-01-23T09:03:57Z</time>
      </trkpt>
      <trkpt lat="45.78764" lon="6.70997">
        <ele>1368.57</ele>
        <time>2022-01-23T09:04:02Z</time>
      </trkpt>
      <trkpt lat="45.78771" lon="6.70989">
        <ele>1370.02</ele>
        <time>2022-01-23T09:04:29Z</time>
      </trkpt>
      <trkpt lat="45.78772" lon="6.70982">
        <ele>1372.9</ele>
        <time>2022-01-23T09:04:53Z</time>
      </trkpt>
      <trkpt lat="45.78775" lon="6.70976">
        <ele>1376.26</ele>
        <time>2022-01-23T09:05:18Z</time>
      </trkpt>
      <trkpt lat="45.78776" lon="6.70976">
        <ele>1376.26</ele>
        <time>2022-01-23T09:05:19Z</time>
      </trkpt>
      <trkpt lat="45.78773" lon="6.70971">
        <ele>1379.63</ele>
        <time>2022-01-23T09:05:40Z</time>
      </trkpt>
      <trkpt lat="45.78766" lon="6.7097">
        <ele>1380.11</ele>
        <time>2022-01-23T09:06:06Z</time>
      </trkpt>
      <trkpt lat="45.78764" lon="6.70963">
        <ele>1380.11</ele>
        <time>2022-01-23T09:06:22Z</time>
      </trkpt>
      <trkpt lat="45.78764" lon="6.70963">
        <ele>1384.44</ele>
        <time>2022-01-23T09:06:27Z</time>
      </trkpt>
      <trkpt lat="45.7876" lon="6.70965">
        <ele>1381.07</ele>
        <time>2022-01-23T09:06:42Z</time>
      </trkpt>
      <trkpt lat="45.78759" lon="6.70967">
        <ele>1382.99</ele>
        <time>2022-01-23T09:06:51Z</time>
      </trkpt>
      <trkpt lat="45.78759" lon="6.70967">
        <ele>1381.07</ele>
        <time>2022-01-23T09:07:28Z</time>
      </trkpt>
      <trkpt lat="45.78759" lon="6.70967">
        <ele>1382.03</ele>
        <time>2022-01-23T09:08:28Z</time>
      </trkpt>
      <trkpt lat="45.78759" lon="6.70968">
        <ele>1381.55</ele>
        <time>2022-01-23T09:09:12Z</time>
      </trkpt>
      <trkpt lat="45.78759" lon="6.70968">
        <ele>1378.19</ele>
        <time>2022-01-23T09:09:54Z</time>
      </trkpt>
      <trkpt lat="45.78759" lon="6.70968">
        <ele>1382.51</ele>
        <time>2022-01-23T09:09:59Z</time>
      </trkpt>
      <trkpt lat="45.78759" lon="6.70968">
        <ele>1382.03</ele>
        <time>2022-01-23T09:11:20Z</time>
      </trkpt>
      <trkpt lat="45.78758" lon="6.70969">
        <ele>1382.03</ele>
        <time>2022-01-23T09:11:59Z</time>
      </trkpt>
      <trkpt lat="45.78758" lon="6.70969">
        <ele>1382.03</ele>
        <time>2022-01-23T09:12:44Z</time>
      </trkpt>
      <trkpt lat="45.78756" lon="6.70971">
        <ele>1382.03</ele>
        <time>2022-01-23T09:13:18Z</time>
      </trkpt>
      <trkpt lat="45.78757" lon="6.70971">
        <ele>1382.51</ele>
        <time>2022-01-23T09:13:50Z</time>
      </trkpt>
      <trkpt lat="45.78759" lon="6.7097">
        <ele>1382.51</ele>
        <time>2022-01-23T09:14:28Z</time>
      </trkpt>
      <trkpt lat="45.7876" lon="6.7097">
        <ele>1382.51</ele>
        <time>2022-01-23T09:15:13Z</time>
      </trkpt>
      <trkpt lat="45.7876" lon="6.70969">
        <ele>1382.51</ele>
        <time>2022-01-23T09:15:47Z</time>
      </trkpt>
      <trkpt lat="45.78762" lon="6.70968">
        <ele>1382.51</ele>
        <time>2022-01-23T09:16:19Z</time>
      </trkpt>
      <trkpt lat="45.7876" lon="6.70973">
        <ele>1382.51</ele>
        <time>2022-01-23T09:16:59Z</time>
      </trkpt>
      <trkpt lat="45.78761" lon="6.7097">
        <ele>1382.51</ele>
        <time>2022-01-23T09:17:36Z</time>
      </trkpt>
      <trkpt lat="45.78761" lon="6.70966">
        <ele>1382.51</ele>
        <time>2022-01-23T09:18:09Z</time>
      </trkpt>
      <trkpt lat="45.78768" lon="6.70961">
        <ele>1385.4</ele>
        <time>2022-01-23T09:18:31Z</time>
      </trkpt>
      <trkpt lat="45.78775" lon="6.70956">
        <ele>1388.28</ele>
        <time>2022-01-23T09:18:58Z</time>
      </trkpt>
      <trkpt lat="45.7878" lon="6.70951">
        <ele>1391.17</ele>
        <time>2022-01-23T09:19:36Z</time>
      </trkpt>
      <trkpt lat="45.78792" lon="6.70941">
        <ele>1394.53</ele>
        <time>2022-01-23T09:19:59Z</time>
      </trkpt>
      <trkpt lat="45.78798" lon="6.70934">
        <ele>1396.93</ele>
        <time>2022-01-23T09:20:30Z</time>
      </trkpt>
      <trkpt lat="45.78795" lon="6.70933">
        <ele>1398.37</ele>
        <time>2022-01-23T09:20:58Z</time>
      </trkpt>
      <trkpt lat="45.78791" lon="6.70931">
        <ele>1401.74</ele>
        <time>2022-01-23T09:21:26Z</time>
      </trkpt>
      <trkpt lat="45.78791" lon="6.70917">
        <ele>1404.62</ele>
        <time>2022-01-23T09:21:54Z</time>
      </trkpt>
      <trkpt lat="45.7878" lon="6.70912">
        <ele>1407.99</ele>
        <time>2022-01-23T09:22:26Z</time>
      </trkpt>
      <trkpt lat="45.78765" lon="6.7091">
        <ele>1410.87</ele>
        <time>2022-01-23T09:22:51Z</time>
      </trkpt>
      <trkpt lat="45.78756" lon="6.70904">
        <ele>1413.28</ele>
        <time>2022-01-23T09:23:20Z</time>
      </trkpt>
      <trkpt lat="45.78747" lon="6.70901">
        <ele>1415.68</ele>
        <time>2022-01-23T09:23:42Z</time>
      </trkpt>
      <trkpt lat="45.78739" lon="6.70889">
        <ele>1418.56</ele>
        <time>2022-01-23T09:24:07Z</time>
      </trkpt>
      <trkpt lat="45.78732" lon="6.70885">
        <ele>1420</ele>
        <time>2022-01-23T09:24:26Z</time>
      </trkpt>
      <trkpt lat="45.78728" lon="6.70881">
        <ele>1421.93</ele>
        <time>2022-01-23T09:24:45Z</time>
      </trkpt>
      <trkpt lat="45.7872" lon="6.70878">
        <ele>1424.81</ele>
        <time>2022-01-23T09:25:05Z</time>
      </trkpt>
      <trkpt lat="45.78715" lon="6.7087">
        <ele>1427.21</ele>
        <time>2022-01-23T09:25:27Z</time>
      </trkpt>
      <trkpt lat="45.78716" lon="6.70859">
        <ele>1430.1</ele>
        <time>2022-01-23T09:25:52Z</time>
      </trkpt>
      <trkpt lat="45.7871" lon="6.70843">
        <ele>1432.98</ele>
        <time>2022-01-23T09:26:19Z</time>
      </trkpt>
      <trkpt lat="45.78701" lon="6.70833">
        <ele>1436.35</ele>
        <time>2022-01-23T09:26:46Z</time>
      </trkpt>
      <trkpt lat="45.78693" lon="6.70829">
        <ele>1438.75</ele>
        <time>2022-01-23T09:27:18Z</time>
      </trkpt>
      <trkpt lat="45.78691" lon="6.70827">
        <ele>1441.63</ele>
        <time>2022-01-23T09:27:41Z</time>
      </trkpt>
      <trkpt lat="45.78688" lon="6.7084">
        <ele>1445</ele>
        <time>2022-01-23T09:28:06Z</time>
      </trkpt>
      <trkpt lat="45.78677" lon="6.70831">
        <ele>1447.4</ele>
        <time>2022-01-23T09:28:38Z</time>
      </trkpt>
      <trkpt lat="45.78676" lon="6.7083">
        <ele>1447.88</ele>
        <time>2022-01-23T09:28:41Z</time>
      </trkpt>
      <trkpt lat="45.78674" lon="6.70831">
        <ele>1451.25</ele>
        <time>2022-01-23T09:29:08Z</time>
      </trkpt>
      <trkpt lat="45.78668" lon="6.70826">
        <ele>1454.13</ele>
        <time>2022-01-23T09:29:36Z</time>
      </trkpt>
      <trkpt lat="45.78666" lon="6.70823">
        <ele>1457.02</ele>
        <time>2022-01-23T09:30:02Z</time>
      </trkpt>
      <trkpt lat="45.78661" lon="6.70821">
        <ele>1460.38</ele>
        <time>2022-01-23T09:30:28Z</time>
      </trkpt>
      <trkpt lat="45.78652" lon="6.70817">
        <ele>1463.26</ele>
        <time>2022-01-23T09:30:54Z</time>
      </trkpt>
      <trkpt lat="45.7864" lon="6.70809">
        <ele>1466.63</ele>
        <time>2022-01-23T09:31:18Z</time>
      </trkpt>
      <trkpt lat="45.78632" lon="6.70802">
        <ele>1469.51</ele>
        <time>2022-01-23T09:31:43Z</time>
      </trkpt>
      <trkpt lat="45.78628" lon="6.70804">
        <ele>1472.4</ele>
        <time>2022-01-23T09:32:10Z</time>
      </trkpt>
      <trkpt lat="45.78618" lon="6.70802">
        <ele>1475.28</ele>
        <time>2022-01-23T09:32:33Z</time>
      </trkpt>
      <trkpt lat="45.78616" lon="6.70795">
        <ele>1478.65</ele>
        <time>2022-01-23T09:32:55Z</time>
      </trkpt>
      <trkpt lat="45.78616" lon="6.70781">
        <ele>1481.53</ele>
        <time>2022-01-23T09:33:20Z</time>
      </trkpt>
      <trkpt lat="45.78611" lon="6.7078">
        <ele>1484.41</ele>
        <time>2022-01-23T09:33:52Z</time>
      </trkpt>
      <trkpt lat="45.78604" lon="6.70775">
        <ele>1487.3</ele>
        <time>2022-01-23T09:34:27Z</time>
      </trkpt>
      <trkpt lat="45.78599" lon="6.7077">
        <ele>1490.18</ele>
        <time>2022-01-23T09:34:56Z</time>
      </trkpt>
      <trkpt lat="45.78597" lon="6.70751">
        <ele>1493.55</ele>
        <time>2022-01-23T09:35:22Z</time>
      </trkpt>
      <trkpt lat="45.78587" lon="6.7075">
        <ele>1496.43</ele>
        <time>2022-01-23T09:35:55Z</time>
      </trkpt>
      <trkpt lat="45.78582" lon="6.70748">
        <ele>1499.79</ele>
        <time>2022-01-23T09:36:26Z</time>
      </trkpt>
      <trkpt lat="45.78573" lon="6.70746">
        <ele>1502.68</ele>
        <time>2022-01-23T09:36:57Z</time>
      </trkpt>
      <trkpt lat="45.78566" lon="6.70739">
        <ele>1504.6</ele>
        <time>2022-01-23T09:37:22Z</time>
      </trkpt>
      <trkpt lat="45.78558" lon="6.70734">
        <ele>1506.52</ele>
        <time>2022-01-23T09:37:51Z</time>
      </trkpt>
      <trkpt lat="45.78557" lon="6.70724">
        <ele>1509.41</ele>
        <time>2022-01-23T09:38:25Z</time>
      </trkpt>
      <trkpt lat="45.78562" lon="6.70717">
        <ele>1510.37</ele>
        <time>2022-01-23T09:39:01Z</time>
      </trkpt>
      <trkpt lat="45.78565" lon="6.70713">
        <ele>1510.85</ele>
        <time>2022-01-23T09:39:40Z</time>
      </trkpt>
      <trkpt lat="45.78565" lon="6.70707">
        <ele>1511.33</ele>
        <time>2022-01-23T09:40:16Z</time>
      </trkpt>
      <trkpt lat="45.78565" lon="6.70708">
        <ele>1511.33</ele>
        <time>2022-01-23T09:41:36Z</time>
      </trkpt>
      <trkpt lat="45.78572" lon="6.70704">
        <ele>1512.29</ele>
        <time>2022-01-23T09:42:28Z</time>
      </trkpt>
      <trkpt lat="45.78567" lon="6.70697">
        <ele>1515.18</ele>
        <time>2022-01-23T09:42:49Z</time>
      </trkpt>
      <trkpt lat="45.78565" lon="6.70681">
        <ele>1518.06</ele>
        <time>2022-01-23T09:43:10Z</time>
      </trkpt>
      <trkpt lat="45.78562" lon="6.70675">
        <ele>1519.98</ele>
        <time>2022-01-23T09:43:37Z</time>
      </trkpt>
      <trkpt lat="45.78559" lon="6.70668">
        <ele>1521.9</ele>
        <time>2022-01-23T09:44:08Z</time>
      </trkpt>
      <trkpt lat="45.78552" lon="6.70665">
        <ele>1524.79</ele>
        <time>2022-01-23T09:44:24Z</time>
      </trkpt>
      <trkpt lat="45.78553" lon="6.7065">
        <ele>1527.67</ele>
        <time>2022-01-23T09:44:44Z</time>
      </trkpt>
      <trkpt lat="45.78541" lon="6.70647">
        <ele>1531.04</ele>
        <time>2022-01-23T09:45:06Z</time>
      </trkpt>
      <trkpt lat="45.78528" lon="6.7065">
        <ele>1533.92</ele>
        <time>2022-01-23T09:45:26Z</time>
      </trkpt>
      <trkpt lat="45.78519" lon="6.70652">
        <ele>1535.36</ele>
        <time>2022-01-23T09:45:45Z</time>
      </trkpt>
      <trkpt lat="45.78516" lon="6.70648">
        <ele>1535.36</ele>
        <time>2022-01-23T09:46:03Z</time>
      </trkpt>
      <trkpt lat="45.78515" lon="6.70653">
        <ele>1533.44</ele>
        <time>2022-01-23T09:46:18Z</time>
      </trkpt>
      <trkpt lat="45.78511" lon="6.70661">
        <ele>1536.8</ele>
        <time>2022-01-23T09:46:27Z</time>
      </trkpt>
      <trkpt lat="45.78511" lon="6.70663">
        <ele>1539.69</ele>
        <time>2022-01-23T09:46:29Z</time>
      </trkpt>
      <trkpt lat="45.7851" lon="6.70666">
        <ele>1536.8</ele>
        <time>2022-01-23T09:46:34Z</time>
      </trkpt>
      <trkpt lat="45.78508" lon="6.7067">
        <ele>1533.44</ele>
        <time>2022-01-23T09:47:02Z</time>
      </trkpt>
      <trkpt lat="45.78508" lon="6.70671">
        <ele>1535.84</ele>
        <time>2022-01-23T09:47:45Z</time>
      </trkpt>
      <trkpt lat="45.78507" lon="6.70671">
        <ele>1534.4</ele>
        <time>2022-01-23T09:48:36Z</time>
      </trkpt>
      <trkpt lat="45.78507" lon="6.7067">
        <ele>1534.88</ele>
        <time>2022-01-23T09:48:45Z</time>
      </trkpt>
      <trkpt lat="45.78508" lon="6.70667">
        <ele>1534.4</ele>
        <time>2022-01-23T09:50:04Z</time>
      </trkpt>
      <trkpt lat="45.78508" lon="6.70667">
        <ele>1534.4</ele>
        <time>2022-01-23T09:50:52Z</time>
      </trkpt>
      <trkpt lat="45.78513" lon="6.70667">
        <ele>1534.4</ele>
        <time>2022-01-23T09:51:40Z</time>
      </trkpt>
      <trkpt lat="45.78513" lon="6.70664">
        <ele>1534.4</ele>
        <time>2022-01-23T09:52:00Z</time>
      </trkpt>
      <trkpt lat="45.7851" lon="6.70662">
        <ele>1534.4</ele>
        <time>2022-01-23T09:52:16Z</time>
      </trkpt>
      <trkpt lat="45.78507" lon="6.70662">
        <ele>1534.4</ele>
        <time>2022-01-23T09:52:33Z</time>
      </trkpt>
      <trkpt lat="45.78511" lon="6.70666">
        <ele>1536.32</ele>
        <time>2022-01-23T09:53:08Z</time>
      </trkpt>
      <trkpt lat="45.78512" lon="6.70658">
        <ele>1533.44</ele>
        <time>2022-01-23T09:53:34Z</time>
      </trkpt>
      <trkpt lat="45.78518" lon="6.70651">
        <ele>1534.4</ele>
        <time>2022-01-23T09:54:04Z</time>
      </trkpt>
      <trkpt lat="45.78521" lon="6.70657">
        <ele>1534.4</ele>
        <time>2022-01-23T09:54:22Z</time>
      </trkpt>
      <trkpt lat="45.78525" lon="6.70661">
        <ele>1535.36</ele>
        <time>2022-01-23T09:54:51Z</time>
      </trkpt>
      <trkpt lat="45.78525" lon="6.70663">
        <ele>1535.36</ele>
        <time>2022-01-23T09:55:26Z</time>
      </trkpt>
      <trkpt lat="45.78516" lon="6.70656">
        <ele>1534.4</ele>
        <time>2022-01-23T09:55:44Z</time>
      </trkpt>
      <trkpt lat="45.78514" lon="6.70653">
        <ele>1533.92</ele>
        <time>2022-01-23T09:56:05Z</time>
      </trkpt>
      <trkpt lat="45.78514" lon="6.70655">
        <ele>1533.92</ele>
        <time>2022-01-23T09:56:52Z</time>
      </trkpt>
      <trkpt lat="45.78515" lon="6.70655">
        <ele>1534.4</ele>
        <time>2022-01-23T09:57:30Z</time>
      </trkpt>
      <trkpt lat="45.78515" lon="6.70655">
        <ele>1534.4</ele>
        <time>2022-01-23T09:58:13Z</time>
      </trkpt>
      <trkpt lat="45.78514" lon="6.70654">
        <ele>1534.4</ele>
        <time>2022-01-23T09:58:47Z</time>
      </trkpt>
      <trkpt lat="45.78511" lon="6.70644">
        <ele>1534.4</ele>
        <time>2022-01-23T09:59:02Z</time>
      </trkpt>
      <trkpt lat="45.78502" lon="6.70635">
        <ele>1534.4</ele>
        <time>2022-01-23T09:59:20Z</time>
      </trkpt>
      <trkpt lat="45.785" lon="6.70634">
        <ele>1534.4</ele>
        <time>2022-01-23T09:59:54Z</time>
      </trkpt>
      <trkpt lat="45.785" lon="6.70634">
        <ele>1537.77</ele>
        <time>2022-01-23T10:00:11Z</time>
      </trkpt>
      <trkpt lat="45.785" lon="6.70634">
        <ele>1537.77</ele>
        <time>2022-01-23T10:00:12Z</time>
      </trkpt>
      <trkpt lat="45.78495" lon="6.70617">
        <ele>1539.21</ele>
        <time>2022-01-23T10:01:06Z</time>
      </trkpt>
      <trkpt lat="45.78484" lon="6.70599">
        <ele>1542.57</ele>
        <time>2022-01-23T10:01:22Z</time>
      </trkpt>
      <trkpt lat="45.78476" lon="6.70588">
        <ele>1544.5</ele>
        <time>2022-01-23T10:01:42Z</time>
      </trkpt>
      <trkpt lat="45.78475" lon="6.7059">
        <ele>1544.98</ele>
        <time>2022-01-23T10:02:15Z</time>
      </trkpt>
      <trkpt lat="45.78475" lon="6.7059">
        <ele>1544.5</ele>
        <time>2022-01-23T10:03:13Z</time>
      </trkpt>
      <trkpt lat="45.78474" lon="6.70589">
        <ele>1545.46</ele>
        <time>2022-01-23T10:04:10Z</time>
      </trkpt>
      <trkpt lat="45.78466" lon="6.70579">
        <ele>1549.3</ele>
        <time>2022-01-23T10:04:43Z</time>
      </trkpt>
      <trkpt lat="45.78466" lon="6.70579">
        <ele>1549.78</ele>
        <time>2022-01-23T10:04:44Z</time>
      </trkpt>
      <trkpt lat="45.78463" lon="6.70565">
        <ele>1552.67</ele>
        <time>2022-01-23T10:05:33Z</time>
      </trkpt>
      <trkpt lat="45.78448" lon="6.70549">
        <ele>1555.55</ele>
        <time>2022-01-23T10:06:08Z</time>
      </trkpt>
      <trkpt lat="45.78438" lon="6.70554">
        <ele>1556.03</ele>
        <time>2022-01-23T10:06:19Z</time>
      </trkpt>
      <trkpt lat="45.78416" lon="6.70562">
        <ele>1558.43</ele>
        <time>2022-01-23T10:06:55Z</time>
      </trkpt>
      <trkpt lat="45.78394" lon="6.70571">
        <ele>1561.32</ele>
        <time>2022-01-23T10:07:29Z</time>
      </trkpt>
      <trkpt lat="45.7839" lon="6.70551">
        <ele>1562.76</ele>
        <time>2022-01-23T10:08:00Z</time>
      </trkpt>
      <trkpt lat="45.78387" lon="6.70549">
        <ele>1563.72</ele>
        <time>2022-01-23T10:08:42Z</time>
      </trkpt>
      <trkpt lat="45.78384" lon="6.70538">
        <ele>1565.16</ele>
        <time>2022-01-23T10:09:13Z</time>
      </trkpt>
      <trkpt lat="45.78378" lon="6.70531">
        <ele>1568.05</ele>
        <time>2022-01-23T10:09:41Z</time>
      </trkpt>
      <trkpt lat="45.78377" lon="6.70534">
        <ele>1567.57</ele>
        <time>2022-01-23T10:10:12Z</time>
      </trkpt>
      <trkpt lat="45.78376" lon="6.70534">
        <ele>1568.05</ele>
        <time>2022-01-23T10:10:49Z</time>
      </trkpt>
      <trkpt lat="45.78376" lon="6.70534">
        <ele>1568.05</ele>
        <time>2022-01-23T10:11:57Z</time>
      </trkpt>
      <trkpt lat="45.78377" lon="6.70534">
        <ele>1568.05</ele>
        <time>2022-01-23T10:12:38Z</time>
      </trkpt>
      <trkpt lat="45.78375" lon="6.70532">
        <ele>1568.05</ele>
        <time>2022-01-23T10:13:04Z</time>
      </trkpt>
      <trkpt lat="45.78371" lon="6.70516">
        <ele>1568.05</ele>
        <time>2022-01-23T10:13:32Z</time>
      </trkpt>
      <trkpt lat="45.78364" lon="6.70515">
        <ele>1573.82</ele>
        <time>2022-01-23T10:13:52Z</time>
      </trkpt>
      <trkpt lat="45.78364" lon="6.70515">
        <ele>1573.33</ele>
        <time>2022-01-23T10:13:53Z</time>
      </trkpt>
      <trkpt lat="45.7835" lon="6.70523">
        <ele>1576.22</ele>
        <time>2022-01-23T10:14:23Z</time>
      </trkpt>
      <trkpt lat="45.78353" lon="6.7052">
        <ele>1578.14</ele>
        <time>2022-01-23T10:14:49Z</time>
      </trkpt>
      <trkpt lat="45.78357" lon="6.70516">
        <ele>1578.62</ele>
        <time>2022-01-23T10:15:18Z</time>
      </trkpt>
      <trkpt lat="45.78357" lon="6.70515">
        <ele>1578.62</ele>
        <time>2022-01-23T10:16:01Z</time>
      </trkpt>
      <trkpt lat="45.78357" lon="6.70497">
        <ele>1581.03</ele>
        <time>2022-01-23T10:16:27Z</time>
      </trkpt>
      <trkpt lat="45.78346" lon="6.70509">
        <ele>1583.43</ele>
        <time>2022-01-23T10:16:53Z</time>
      </trkpt>
      <trkpt lat="45.78347" lon="6.70501">
        <ele>1586.31</ele>
        <time>2022-01-23T10:17:20Z</time>
      </trkpt>
      <trkpt lat="45.78347" lon="6.70491">
        <ele>1587.75</ele>
        <time>2022-01-23T10:17:42Z</time>
      </trkpt>
      <trkpt lat="45.78349" lon="6.70475">
        <ele>1590.64</ele>
        <time>2022-01-23T10:18:08Z</time>
      </trkpt>
      <trkpt lat="45.78341" lon="6.70476">
        <ele>1593.04</ele>
        <time>2022-01-23T10:18:30Z</time>
      </trkpt>
      <trkpt lat="45.78341" lon="6.70476">
        <ele>1594</ele>
        <time>2022-01-23T10:18:56Z</time>
      </trkpt>
      <trkpt lat="45.78341" lon="6.70476">
        <ele>1593.52</ele>
        <time>2022-01-23T10:19:54Z</time>
      </trkpt>
      <trkpt lat="45.78341" lon="6.70476">
        <ele>1594.48</ele>
        <time>2022-01-23T10:20:28Z</time>
      </trkpt>
      <trkpt lat="45.78342" lon="6.70468">
        <ele>1593.52</ele>
        <time>2022-01-23T10:21:06Z</time>
      </trkpt>
      <trkpt lat="45.78339" lon="6.7045">
        <ele>1593.52</ele>
        <time>2022-01-23T10:21:30Z</time>
      </trkpt>
      <trkpt lat="45.78331" lon="6.70444">
        <ele>1593.52</ele>
        <time>2022-01-23T10:21:49Z</time>
      </trkpt>
      <trkpt lat="45.78326" lon="6.70447">
        <ele>1602.66</ele>
        <time>2022-01-23T10:22:00Z</time>
      </trkpt>
      <trkpt lat="45.78321" lon="6.7044">
        <ele>1604.1</ele>
        <time>2022-01-23T10:22:23Z</time>
      </trkpt>
      <trkpt lat="45.78323" lon="6.70427">
        <ele>1606.98</ele>
        <time>2022-01-23T10:22:41Z</time>
      </trkpt>
      <trkpt lat="45.78328" lon="6.7041">
        <ele>1608.42</ele>
        <time>2022-01-23T10:22:59Z</time>
      </trkpt>
      <trkpt lat="45.78336" lon="6.70406">
        <ele>1610.83</ele>
        <time>2022-01-23T10:23:23Z</time>
      </trkpt>
      <trkpt lat="45.78337" lon="6.704">
        <ele>1612.27</ele>
        <time>2022-01-23T10:23:45Z</time>
      </trkpt>
      <trkpt lat="45.78343" lon="6.70394">
        <ele>1614.19</ele>
        <time>2022-01-23T10:24:04Z</time>
      </trkpt>
      <trkpt lat="45.78344" lon="6.70393">
        <ele>1614.67</ele>
        <time>2022-01-23T10:24:23Z</time>
      </trkpt>
      <trkpt lat="45.78344" lon="6.70393">
        <ele>1615.15</ele>
        <time>2022-01-23T10:25:02Z</time>
      </trkpt>
      <trkpt lat="45.78344" lon="6.70393">
        <ele>1614.67</ele>
        <time>2022-01-23T10:25:43Z</time>
      </trkpt>
      <trkpt lat="45.78345" lon="6.70393">
        <ele>1614.67</ele>
        <time>2022-01-23T10:26:29Z</time>
      </trkpt>
      <trkpt lat="45.78345" lon="6.70392">
        <ele>1614.67</ele>
        <time>2022-01-23T10:27:03Z</time>
      </trkpt>
      <trkpt lat="45.78354" lon="6.70366">
        <ele>1614.67</ele>
        <time>2022-01-23T10:27:35Z</time>
      </trkpt>
      <trkpt lat="45.78363" lon="6.7035">
        <ele>1622.84</ele>
        <time>2022-01-23T10:28:08Z</time>
      </trkpt>
      <trkpt lat="45.78363" lon="6.7035">
        <ele>1622.84</ele>
        <time>2022-01-23T10:28:09Z</time>
      </trkpt>
      <trkpt lat="45.78364" lon="6.70345">
        <ele>1625.73</ele>
        <time>2022-01-23T10:28:40Z</time>
      </trkpt>
      <trkpt lat="45.78369" lon="6.70341">
        <ele>1628.61</ele>
        <time>2022-01-23T10:29:03Z</time>
      </trkpt>
      <trkpt lat="45.78368" lon="6.70327">
        <ele>1631.49</ele>
        <time>2022-01-23T10:29:34Z</time>
      </trkpt>
      <trkpt lat="45.78357" lon="6.70328">
        <ele>1634.38</ele>
        <time>2022-01-23T10:29:58Z</time>
      </trkpt>
      <trkpt lat="45.78361" lon="6.70317">
        <ele>1636.3</ele>
        <time>2022-01-23T10:30:31Z</time>
      </trkpt>
      <trkpt lat="45.78366" lon="6.70301">
        <ele>1638.7</ele>
        <time>2022-01-23T10:31:08Z</time>
      </trkpt>
      <trkpt lat="45.78372" lon="6.70286">
        <ele>1641.59</ele>
        <time>2022-01-23T10:31:34Z</time>
      </trkpt>
      <trkpt lat="45.78366" lon="6.70281">
        <ele>1644.95</ele>
        <time>2022-01-23T10:31:52Z</time>
      </trkpt>
      <trkpt lat="45.78366" lon="6.70271">
        <ele>1647.84</ele>
        <time>2022-01-23T10:32:14Z</time>
      </trkpt>
      <trkpt lat="45.78373" lon="6.70252">
        <ele>1651.2</ele>
        <time>2022-01-23T10:32:38Z</time>
      </trkpt>
      <trkpt lat="45.78375" lon="6.70237">
        <ele>1654.09</ele>
        <time>2022-01-23T10:33:04Z</time>
      </trkpt>
      <trkpt lat="45.78368" lon="6.70239">
        <ele>1655.53</ele>
        <time>2022-01-23T10:33:23Z</time>
      </trkpt>
      <trkpt lat="45.7836" lon="6.7024">
        <ele>1658.41</ele>
        <time>2022-01-23T10:33:46Z</time>
      </trkpt>
      <trkpt lat="45.78356" lon="6.70226">
        <ele>1661.78</ele>
        <time>2022-01-23T10:34:12Z</time>
      </trkpt>
      <trkpt lat="45.78353" lon="6.70213">
        <ele>1664.66</ele>
        <time>2022-01-23T10:34:43Z</time>
      </trkpt>
      <trkpt lat="45.78351" lon="6.7021">
        <ele>1665.62</ele>
        <time>2022-01-23T10:34:54Z</time>
      </trkpt>
      <trkpt lat="45.78347" lon="6.70195">
        <ele>1668.99</ele>
        <time>2022-01-23T10:35:28Z</time>
      </trkpt>
      <trkpt lat="45.78351" lon="6.70176">
        <ele>1672.35</ele>
        <time>2022-01-23T10:35:50Z</time>
      </trkpt>
      <trkpt lat="45.78349" lon="6.70162">
        <ele>1674.75</ele>
        <time>2022-01-23T10:36:13Z</time>
      </trkpt>
      <trkpt lat="45.78352" lon="6.70148">
        <ele>1678.12</ele>
        <time>2022-01-23T10:36:35Z</time>
      </trkpt>
      <trkpt lat="45.78345" lon="6.70144">
        <ele>1679.56</ele>
        <time>2022-01-23T10:36:56Z</time>
      </trkpt>
      <trkpt lat="45.78345" lon="6.70145">
        <ele>1680.04</ele>
        <time>2022-01-23T10:37:29Z</time>
      </trkpt>
      <trkpt lat="45.78345" lon="6.70145">
        <ele>1677.64</ele>
        <time>2022-01-23T10:38:53Z</time>
      </trkpt>
      <trkpt lat="45.78345" lon="6.70146">
        <ele>1677.64</ele>
        <time>2022-01-23T10:39:43Z</time>
      </trkpt>
      <trkpt lat="45.78345" lon="6.70146">
        <ele>1679.08</ele>
        <time>2022-01-23T10:40:32Z</time>
      </trkpt>
      <trkpt lat="45.78345" lon="6.70146">
        <ele>1679.08</ele>
        <time>2022-01-23T10:41:20Z</time>
      </trkpt>
      <trkpt lat="45.78345" lon="6.70146">
        <ele>1680.04</ele>
        <time>2022-01-23T10:41:54Z</time>
      </trkpt>
      <trkpt lat="45.78343" lon="6.70147">
        <ele>1680.04</ele>
        <time>2022-01-23T10:42:03Z</time>
      </trkpt>
      <trkpt lat="45.78341" lon="6.70149">
        <ele>1680.04</ele>
        <time>2022-01-23T10:42:05Z</time>
      </trkpt>
      <trkpt lat="45.78319" lon="6.70151">
        <ele>1679.56</ele>
        <time>2022-01-23T10:42:25Z</time>
      </trkpt>
      <trkpt lat="45.78303" lon="6.70141">
        <ele>1679.08</ele>
        <time>2022-01-23T10:42:46Z</time>
      </trkpt>
      <trkpt lat="45.78299" lon="6.70136">
        <ele>1679.08</ele>
        <time>2022-01-23T10:42:58Z</time>
      </trkpt>
      <trkpt lat="45.78296" lon="6.7013">
        <ele>1681</ele>
        <time>2022-01-23T10:43:03Z</time>
      </trkpt>
      <trkpt lat="45.7829" lon="6.70115">
        <ele>1677.64</ele>
        <time>2022-01-23T10:43:13Z</time>
      </trkpt>
      <trkpt lat="45.78279" lon="6.70094">
        <ele>1676.2</ele>
        <time>2022-01-23T10:43:29Z</time>
      </trkpt>
      <trkpt lat="45.78255" lon="6.70088">
        <ele>1675.23</ele>
        <time>2022-01-23T10:43:47Z</time>
      </trkpt>
      <trkpt lat="45.78244" lon="6.7009">
        <ele>1674.27</ele>
        <time>2022-01-23T10:44:03Z</time>
      </trkpt>
      <trkpt lat="45.78244" lon="6.70091">
        <ele>1674.75</ele>
        <time>2022-01-23T10:44:37Z</time>
      </trkpt>
      <trkpt lat="45.78244" lon="6.70091">
        <ele>1674.27</ele>
        <time>2022-01-23T10:45:16Z</time>
      </trkpt>
      <trkpt lat="45.78247" lon="6.70094">
        <ele>1674.27</ele>
        <time>2022-01-23T10:45:47Z</time>
      </trkpt>
      <trkpt lat="45.78262" lon="6.7009">
        <ele>1673.79</ele>
        <time>2022-01-23T10:46:04Z</time>
      </trkpt>
      <trkpt lat="45.78264" lon="6.70089">
        <ele>1675.23</ele>
        <time>2022-01-23T10:46:21Z</time>
      </trkpt>
      <trkpt lat="45.78264" lon="6.70088">
        <ele>1676.2</ele>
        <time>2022-01-23T10:46:53Z</time>
      </trkpt>
      <trkpt lat="45.78278" lon="6.701">
        <ele>1677.16</ele>
        <time>2022-01-23T10:47:16Z</time>
      </trkpt>
      <trkpt lat="45.7828" lon="6.70102">
        <ele>1677.64</ele>
        <time>2022-01-23T10:47:19Z</time>
      </trkpt>
      <trkpt lat="45.78293" lon="6.70114">
        <ele>1678.6</ele>
        <time>2022-01-23T10:47:40Z</time>
      </trkpt>
      <trkpt lat="45.78294" lon="6.70116">
        <ele>1679.08</ele>
        <time>2022-01-23T10:48:07Z</time>
      </trkpt>
      <trkpt lat="45.78294" lon="6.70116">
        <ele>1679.08</ele>
        <time>2022-01-23T10:48:45Z</time>
      </trkpt>
      <trkpt lat="45.78294" lon="6.70116">
        <ele>1678.6</ele>
        <time>2022-01-23T10:49:18Z</time>
      </trkpt>
      <trkpt lat="45.78294" lon="6.70116">
        <ele>1678.6</ele>
        <time>2022-01-23T10:49:51Z</time>
      </trkpt>
      <trkpt lat="45.78293" lon="6.70113">
        <ele>1679.08</ele>
        <time>2022-01-23T10:50:26Z</time>
      </trkpt>
      <trkpt lat="45.78282" lon="6.70096">
        <ele>1677.64</ele>
        <time>2022-01-23T10:50:44Z</time>
      </trkpt>
      <trkpt lat="45.78277" lon="6.70094">
        <ele>1677.64</ele>
        <time>2022-01-23T10:50:49Z</time>
      </trkpt>
      <trkpt lat="45.78268" lon="6.70093">
        <ele>1675.72</ele>
        <time>2022-01-23T10:51:05Z</time>
      </trkpt>
      <trkpt lat="45.78266" lon="6.70092">
        <ele>1675.72</ele>
        <time>2022-01-23T10:51:22Z</time>
      </trkpt>
      <trkpt lat="45.78267" lon="6.70092">
        <ele>1675.72</ele>
        <time>2022-01-23T10:51:37Z</time>
      </trkpt>
      <trkpt lat="45.78267" lon="6.70091">
        <ele>1676.2</ele>
        <time>2022-01-23T10:52:08Z</time>
      </trkpt>
      <trkpt lat="45.78268" lon="6.70093">
        <ele>1676.2</ele>
        <time>2022-01-23T10:52:26Z</time>
      </trkpt>
      <trkpt lat="45.78271" lon="6.70098">
        <ele>1675.23</ele>
        <time>2022-01-23T10:52:37Z</time>
      </trkpt>
      <trkpt lat="45.78271" lon="6.7011">
        <ele>1673.79</ele>
        <time>2022-01-23T10:52:47Z</time>
      </trkpt>
      <trkpt lat="45.78272" lon="6.70123">
        <ele>1671.39</ele>
        <time>2022-01-23T10:52:57Z</time>
      </trkpt>
      <trkpt lat="45.78275" lon="6.70132">
        <ele>1670.91</ele>
        <time>2022-01-23T10:53:03Z</time>
      </trkpt>
      <trkpt lat="45.78276" lon="6.70146">
        <ele>1670.43</ele>
        <time>2022-01-23T10:53:17Z</time>
      </trkpt>
      <trkpt lat="45.78276" lon="6.70146">
        <ele>1669.95</ele>
        <time>2022-01-23T10:53:59Z</time>
      </trkpt>
      <trkpt lat="45.78275" lon="6.70146">
        <ele>1670.43</ele>
        <time>2022-01-23T10:54:32Z</time>
      </trkpt>
      <trkpt lat="45.78275" lon="6.70147">
        <ele>1670.43</ele>
        <time>2022-01-23T10:55:11Z</time>
      </trkpt>
      <trkpt lat="45.78275" lon="6.70148">
        <ele>1670.43</ele>
        <time>2022-01-23T10:55:41Z</time>
      </trkpt>
      <trkpt lat="45.78273" lon="6.70153">
        <ele>1670.43</ele>
        <time>2022-01-23T10:55:58Z</time>
      </trkpt>
      <trkpt lat="45.78265" lon="6.7016">
        <ele>1668.99</ele>
        <time>2022-01-23T10:56:18Z</time>
      </trkpt>
      <trkpt lat="45.78262" lon="6.70165">
        <ele>1670.43</ele>
        <time>2022-01-23T10:56:35Z</time>
      </trkpt>
      <trkpt lat="45.78263" lon="6.70168">
        <ele>1670.91</ele>
        <time>2022-01-23T10:56:54Z</time>
      </trkpt>
      <trkpt lat="45.78262" lon="6.70172">
        <ele>1670.91</ele>
        <time>2022-01-23T10:57:11Z</time>
      </trkpt>
      <trkpt lat="45.7826" lon="6.70169">
        <ele>1672.35</ele>
        <time>2022-01-23T10:57:32Z</time>
      </trkpt>
      <trkpt lat="45.78258" lon="6.70172">
        <ele>1673.31</ele>
        <time>2022-01-23T10:57:57Z</time>
      </trkpt>
      <trkpt lat="45.78258" lon="6.70172">
        <ele>1673.79</ele>
        <time>2022-01-23T10:58:18Z</time>
      </trkpt>
      <trkpt lat="45.78255" lon="6.70175">
        <ele>1673.79</ele>
        <time>2022-01-23T10:58:38Z</time>
      </trkpt>
      <trkpt lat="45.7825" lon="6.70182">
        <ele>1676.2</ele>
        <time>2022-01-23T10:58:56Z</time>
      </trkpt>
      <trkpt lat="45.78247" lon="6.70184">
        <ele>1677.64</ele>
        <time>2022-01-23T10:59:12Z</time>
      </trkpt>
      <trkpt lat="45.78244" lon="6.70187">
        <ele>1678.6</ele>
        <time>2022-01-23T10:59:31Z</time>
      </trkpt>
      <trkpt lat="45.78242" lon="6.70189">
        <ele>1679.56</ele>
        <time>2022-01-23T10:59:54Z</time>
      </trkpt>
      <trkpt lat="45.78239" lon="6.7019">
        <ele>1678.12</ele>
        <time>2022-01-23T11:00:16Z</time>
      </trkpt>
      <trkpt lat="45.7823" lon="6.70188">
        <ele>1678.12</ele>
        <time>2022-01-23T11:00:34Z</time>
      </trkpt>
      <trkpt lat="45.78221" lon="6.7019">
        <ele>1678.6</ele>
        <time>2022-01-23T11:01:00Z</time>
      </trkpt>
      <trkpt lat="45.78221" lon="6.70188">
        <ele>1680.04</ele>
        <time>2022-01-23T11:01:27Z</time>
      </trkpt>
      <trkpt lat="45.78216" lon="6.702">
        <ele>1680.52</ele>
        <time>2022-01-23T11:01:41Z</time>
      </trkpt>
      <trkpt lat="45.78212" lon="6.70207">
        <ele>1681</ele>
        <time>2022-01-23T11:01:59Z</time>
      </trkpt>
      <trkpt lat="45.78207" lon="6.70219">
        <ele>1683.89</ele>
        <time>2022-01-23T11:02:21Z</time>
      </trkpt>
      <trkpt lat="45.78205" lon="6.70222">
        <ele>1683.41</ele>
        <time>2022-01-23T11:02:43Z</time>
      </trkpt>
      <trkpt lat="45.78206" lon="6.70224">
        <ele>1683.89</ele>
        <time>2022-01-23T11:03:18Z</time>
      </trkpt>
      <trkpt lat="45.78203" lon="6.70242">
        <ele>1686.77</ele>
        <time>2022-01-23T11:03:44Z</time>
      </trkpt>
      <trkpt lat="45.78202" lon="6.70242">
        <ele>1688.21</ele>
        <time>2022-01-23T11:04:15Z</time>
      </trkpt>
      <trkpt lat="45.78202" lon="6.70248">
        <ele>1688.69</ele>
        <time>2022-01-23T11:04:40Z</time>
      </trkpt>
      <trkpt lat="45.782" lon="6.70252">
        <ele>1691.1</ele>
        <time>2022-01-23T11:05:04Z</time>
      </trkpt>
      <trkpt lat="45.78199" lon="6.70256">
        <ele>1691.58</ele>
        <time>2022-01-23T11:05:31Z</time>
      </trkpt>
      <trkpt lat="45.78199" lon="6.70255">
        <ele>1693.02</ele>
        <time>2022-01-23T11:05:54Z</time>
      </trkpt>
      <trkpt lat="45.78196" lon="6.7026">
        <ele>1694.94</ele>
        <time>2022-01-23T11:06:21Z</time>
      </trkpt>
      <trkpt lat="45.78191" lon="6.70267">
        <ele>1696.38</ele>
        <time>2022-01-23T11:06:48Z</time>
      </trkpt>
      <trkpt lat="45.78189" lon="6.70281">
        <ele>1699.27</ele>
        <time>2022-01-23T11:07:10Z</time>
      </trkpt>
      <trkpt lat="45.78188" lon="6.70284">
        <ele>1700.23</ele>
        <time>2022-01-23T11:07:29Z</time>
      </trkpt>
      <trkpt lat="45.7819" lon="6.70284">
        <ele>1700.23</ele>
        <time>2022-01-23T11:07:59Z</time>
      </trkpt>
      <trkpt lat="45.7819" lon="6.70284">
        <ele>1700.23</ele>
        <time>2022-01-23T11:08:44Z</time>
      </trkpt>
      <trkpt lat="45.78189" lon="6.70286">
        <ele>1700.23</ele>
        <time>2022-01-23T11:09:05Z</time>
      </trkpt>
      <trkpt lat="45.78189" lon="6.70286">
        <ele>1700.23</ele>
        <time>2022-01-23T11:09:45Z</time>
      </trkpt>
      <trkpt lat="45.78189" lon="6.70287">
        <ele>1700.23</ele>
        <time>2022-01-23T11:10:11Z</time>
      </trkpt>
      <trkpt lat="45.78189" lon="6.70287">
        <ele>1700.23</ele>
        <time>2022-01-23T11:10:54Z</time>
      </trkpt>
      <trkpt lat="45.78189" lon="6.70286">
        <ele>1700.23</ele>
        <time>2022-01-23T11:11:36Z</time>
      </trkpt>
      <trkpt lat="45.78183" lon="6.70297">
        <ele>1700.23</ele>
        <time>2022-01-23T11:11:57Z</time>
      </trkpt>
      <trkpt lat="45.78178" lon="6.70305">
        <ele>1699.75</ele>
        <time>2022-01-23T11:12:11Z</time>
      </trkpt>
      <trkpt lat="45.78174" lon="6.70309">
        <ele>1699.75</ele>
        <time>2022-01-23T11:12:17Z</time>
      </trkpt>
      <trkpt lat="45.78161" lon="6.70314">
        <ele>1697.34</ele>
        <time>2022-01-23T11:12:34Z</time>
      </trkpt>
      <trkpt lat="45.78141" lon="6.70326">
        <ele>1696.86</ele>
        <time>2022-01-23T11:12:58Z</time>
      </trkpt>
      <trkpt lat="45.78125" lon="6.70335">
        <ele>1697.83</ele>
        <time>2022-01-23T11:13:25Z</time>
      </trkpt>
      <trkpt lat="45.78117" lon="6.70344">
        <ele>1697.34</ele>
        <time>2022-01-23T11:13:43Z</time>
      </trkpt>
      <trkpt lat="45.78108" lon="6.70349">
        <ele>1695.42</ele>
        <time>2022-01-23T11:13:55Z</time>
      </trkpt>
      <trkpt lat="45.78092" lon="6.70356">
        <ele>1695.42</ele>
        <time>2022-01-23T11:14:12Z</time>
      </trkpt>
      <trkpt lat="45.78082" lon="6.70357">
        <ele>1696.38</ele>
        <time>2022-01-23T11:14:32Z</time>
      </trkpt>
      <trkpt lat="45.78081" lon="6.70358">
        <ele>1696.86</ele>
        <time>2022-01-23T11:14:58Z</time>
      </trkpt>
      <trkpt lat="45.78081" lon="6.70358">
        <ele>1696.38</ele>
        <time>2022-01-23T11:15:21Z</time>
      </trkpt>
      <trkpt lat="45.78081" lon="6.70358">
        <ele>1696.38</ele>
        <time>2022-01-23T11:15:37Z</time>
      </trkpt>
      <trkpt lat="45.78075" lon="6.70362">
        <ele>1696.38</ele>
        <time>2022-01-23T11:15:42Z</time>
      </trkpt>
      <trkpt lat="45.78067" lon="6.70379">
        <ele>1694.94</ele>
        <time>2022-01-23T11:15:59Z</time>
      </trkpt>
      <trkpt lat="45.78068" lon="6.70379">
        <ele>1694.94</ele>
        <time>2022-01-23T11:16:16Z</time>
      </trkpt>
      <trkpt lat="45.78068" lon="6.70379">
        <ele>1695.42</ele>
        <time>2022-01-23T11:16:55Z</time>
      </trkpt>
      <trkpt lat="45.78066" lon="6.70384">
        <ele>1695.42</ele>
        <time>2022-01-23T11:17:28Z</time>
      </trkpt>
      <trkpt lat="45.78065" lon="6.70392">
        <ele>1695.42</ele>
        <time>2022-01-23T11:17:32Z</time>
      </trkpt>
      <trkpt lat="45.78058" lon="6.70403">
        <ele>1695.42</ele>
        <time>2022-01-23T11:17:47Z</time>
      </trkpt>
      <trkpt lat="45.78051" lon="6.70403">
        <ele>1696.86</ele>
        <time>2022-01-23T11:18:12Z</time>
      </trkpt>
      <trkpt lat="45.78048" lon="6.70404">
        <ele>1696.86</ele>
        <time>2022-01-23T11:18:15Z</time>
      </trkpt>
      <trkpt lat="45.78036" lon="6.70407">
        <ele>1695.9</ele>
        <time>2022-01-23T11:18:33Z</time>
      </trkpt>
      <trkpt lat="45.78031" lon="6.70409">
        <ele>1693.98</ele>
        <time>2022-01-23T11:18:49Z</time>
      </trkpt>
      <trkpt lat="45.78026" lon="6.70411">
        <ele>1694.46</ele>
        <time>2022-01-23T11:19:05Z</time>
      </trkpt>
      <trkpt lat="45.78018" lon="6.70415">
        <ele>1694.46</ele>
        <time>2022-01-23T11:19:26Z</time>
      </trkpt>
      <trkpt lat="45.78016" lon="6.70417">
        <ele>1694.94</ele>
        <time>2022-01-23T11:19:48Z</time>
      </trkpt>
      <trkpt lat="45.78008" lon="6.70422">
        <ele>1694.94</ele>
        <time>2022-01-23T11:20:15Z</time>
      </trkpt>
      <trkpt lat="45.78002" lon="6.70431">
        <ele>1694.94</ele>
        <time>2022-01-23T11:20:29Z</time>
      </trkpt>
      <trkpt lat="45.77998" lon="6.70434">
        <ele>1693.5</ele>
        <time>2022-01-23T11:20:43Z</time>
      </trkpt>
      <trkpt lat="45.77996" lon="6.70436">
        <ele>1692.06</ele>
        <time>2022-01-23T11:21:01Z</time>
      </trkpt>
      <trkpt lat="45.77996" lon="6.70436">
        <ele>1692.06</ele>
        <time>2022-01-23T11:21:02Z</time>
      </trkpt>
      <trkpt lat="45.77996" lon="6.70436">
        <ele>1694.94</ele>
        <time>2022-01-23T11:21:07Z</time>
      </trkpt>
      <trkpt lat="45.77996" lon="6.70437">
        <ele>1693.98</ele>
        <time>2022-01-23T11:21:42Z</time>
      </trkpt>
      <trkpt lat="45.7799" lon="6.70436">
        <ele>1694.46</ele>
        <time>2022-01-23T11:22:08Z</time>
      </trkpt>
      <trkpt lat="45.77987" lon="6.70438">
        <ele>1695.42</ele>
        <time>2022-01-23T11:22:28Z</time>
      </trkpt>
      <trkpt lat="45.77988" lon="6.70434">
        <ele>1695.9</ele>
        <time>2022-01-23T11:22:56Z</time>
      </trkpt>
      <trkpt lat="45.77982" lon="6.70437">
        <ele>1697.34</ele>
        <time>2022-01-23T11:23:16Z</time>
      </trkpt>
      <trkpt lat="45.77981" lon="6.70437">
        <ele>1698.31</ele>
        <time>2022-01-23T11:23:44Z</time>
      </trkpt>
      <trkpt lat="45.77981" lon="6.70437">
        <ele>1697.83</ele>
        <time>2022-01-23T11:24:09Z</time>
      </trkpt>
      <trkpt lat="45.7798" lon="6.70438">
        <ele>1698.31</ele>
        <time>2022-01-23T11:24:20Z</time>
      </trkpt>
      <trkpt lat="45.77976" lon="6.7044">
        <ele>1698.31</ele>
        <time>2022-01-23T11:24:25Z</time>
      </trkpt>
      <trkpt lat="45.77969" lon="6.70448">
        <ele>1696.38</ele>
        <time>2022-01-23T11:24:41Z</time>
      </trkpt>
      <trkpt lat="45.77968" lon="6.7045">
        <ele>1697.34</ele>
        <time>2022-01-23T11:24:57Z</time>
      </trkpt>
      <trkpt lat="45.77965" lon="6.70453">
        <ele>1697.83</ele>
        <time>2022-01-23T11:25:15Z</time>
      </trkpt>
      <trkpt lat="45.77955" lon="6.70454">
        <ele>1700.23</ele>
        <time>2022-01-23T11:25:39Z</time>
      </trkpt>
      <trkpt lat="45.77955" lon="6.70454">
        <ele>1700.71</ele>
        <time>2022-01-23T11:26:06Z</time>
      </trkpt>
      <trkpt lat="45.77955" lon="6.70455">
        <ele>1700.71</ele>
        <time>2022-01-23T11:26:39Z</time>
      </trkpt>
      <trkpt lat="45.77955" lon="6.70455">
        <ele>1701.19</ele>
        <time>2022-01-23T11:27:23Z</time>
      </trkpt>
      <trkpt lat="45.77955" lon="6.70456">
        <ele>1700.71</ele>
        <time>2022-01-23T11:27:57Z</time>
      </trkpt>
      <trkpt lat="45.77948" lon="6.70458">
        <ele>1700.71</ele>
        <time>2022-01-23T11:28:34Z</time>
      </trkpt>
      <trkpt lat="45.77945" lon="6.70471">
        <ele>1700.71</ele>
        <time>2022-01-23T11:28:54Z</time>
      </trkpt>
      <trkpt lat="45.77942" lon="6.70475">
        <ele>1700.71</ele>
        <time>2022-01-23T11:29:14Z</time>
      </trkpt>
      <trkpt lat="45.77942" lon="6.70486">
        <ele>1705.04</ele>
        <time>2022-01-23T11:29:40Z</time>
      </trkpt>
      <trkpt lat="45.77942" lon="6.70487">
        <ele>1705.04</ele>
        <time>2022-01-23T11:29:41Z</time>
      </trkpt>
      <trkpt lat="45.77938" lon="6.70499">
        <ele>1707.44</ele>
        <time>2022-01-23T11:30:04Z</time>
      </trkpt>
      <trkpt lat="45.77932" lon="6.705">
        <ele>1709.84</ele>
        <time>2022-01-23T11:30:39Z</time>
      </trkpt>
      <trkpt lat="45.77932" lon="6.70501">
        <ele>1709.36</ele>
        <time>2022-01-23T11:31:14Z</time>
      </trkpt>
      <trkpt lat="45.77931" lon="6.70501">
        <ele>1709.36</ele>
        <time>2022-01-23T11:31:36Z</time>
      </trkpt>
      <trkpt lat="45.77931" lon="6.70502">
        <ele>1709.36</ele>
        <time>2022-01-23T11:32:05Z</time>
      </trkpt>
      <trkpt lat="45.77925" lon="6.70506">
        <ele>1709.36</ele>
        <time>2022-01-23T11:32:30Z</time>
      </trkpt>
      <trkpt lat="45.77918" lon="6.70514">
        <ele>1709.36</ele>
        <time>2022-01-23T11:32:45Z</time>
      </trkpt>
      <trkpt lat="45.77906" lon="6.70521">
        <ele>1709.36</ele>
        <time>2022-01-23T11:33:03Z</time>
      </trkpt>
      <trkpt lat="45.77901" lon="6.70532">
        <ele>1709.36</ele>
        <time>2022-01-23T11:33:25Z</time>
      </trkpt>
      <trkpt lat="45.77899" lon="6.70539">
        <ele>1714.65</ele>
        <time>2022-01-23T11:33:44Z</time>
      </trkpt>
      <trkpt lat="45.77899" lon="6.70539">
        <ele>1714.65</ele>
        <time>2022-01-23T11:33:45Z</time>
      </trkpt>
      <trkpt lat="45.77899" lon="6.7054">
        <ele>1715.13</ele>
        <time>2022-01-23T11:34:11Z</time>
      </trkpt>
      <trkpt lat="45.77901" lon="6.70545">
        <ele>1715.61</ele>
        <time>2022-01-23T11:34:25Z</time>
      </trkpt>
      <trkpt lat="45.77902" lon="6.70545">
        <ele>1715.61</ele>
        <time>2022-01-23T11:34:58Z</time>
      </trkpt>
      <trkpt lat="45.77902" lon="6.70545">
        <ele>1716.09</ele>
        <time>2022-01-23T11:35:48Z</time>
      </trkpt>
      <trkpt lat="45.77902" lon="6.70545">
        <ele>1716.09</ele>
        <time>2022-01-23T11:36:29Z</time>
      </trkpt>
      <trkpt lat="45.77902" lon="6.70545">
        <ele>1716.09</ele>
        <time>2022-01-23T11:37:09Z</time>
      </trkpt>
      <trkpt lat="45.77899" lon="6.70545">
        <ele>1716.09</ele>
        <time>2022-01-23T11:37:23Z</time>
      </trkpt>
      <trkpt lat="45.77891" lon="6.70552">
        <ele>1715.13</ele>
        <time>2022-01-23T11:37:35Z</time>
      </trkpt>
      <trkpt lat="45.77886" lon="6.70555">
        <ele>1714.65</ele>
        <time>2022-01-23T11:37:41Z</time>
      </trkpt>
      <trkpt lat="45.77878" lon="6.70559">
        <ele>1713.21</ele>
        <time>2022-01-23T11:37:57Z</time>
      </trkpt>
      <trkpt lat="45.77872" lon="6.70563">
        <ele>1713.21</ele>
        <time>2022-01-23T11:38:16Z</time>
      </trkpt>
      <trkpt lat="45.7786" lon="6.70571">
        <ele>1711.76</ele>
        <time>2022-01-23T11:38:28Z</time>
      </trkpt>
      <trkpt lat="45.77855" lon="6.70573">
        <ele>1711.28</ele>
        <time>2022-01-23T11:38:33Z</time>
      </trkpt>
      <trkpt lat="45.77844" lon="6.70577">
        <ele>1710.8</ele>
        <time>2022-01-23T11:38:51Z</time>
      </trkpt>
      <trkpt lat="45.77838" lon="6.70583">
        <ele>1710.8</ele>
        <time>2022-01-23T11:39:17Z</time>
      </trkpt>
      <trkpt lat="45.77838" lon="6.70583">
        <ele>1710.8</ele>
        <time>2022-01-23T11:39:59Z</time>
      </trkpt>
      <trkpt lat="45.77838" lon="6.70583">
        <ele>1710.8</ele>
        <time>2022-01-23T11:40:32Z</time>
      </trkpt>
      <trkpt lat="45.77828" lon="6.70586">
        <ele>1710.8</ele>
        <time>2022-01-23T11:41:02Z</time>
      </trkpt>
      <trkpt lat="45.77826" lon="6.70586">
        <ele>1710.8</ele>
        <time>2022-01-23T11:41:36Z</time>
      </trkpt>
      <trkpt lat="45.77827" lon="6.70587">
        <ele>1710.8</ele>
        <time>2022-01-23T11:42:10Z</time>
      </trkpt>
      <trkpt lat="45.77828" lon="6.7059">
        <ele>1710.8</ele>
        <time>2022-01-23T11:42:15Z</time>
      </trkpt>
      <trkpt lat="45.77827" lon="6.70598">
        <ele>1710.8</ele>
        <time>2022-01-23T11:42:28Z</time>
      </trkpt>
      <trkpt lat="45.77821" lon="6.70603">
        <ele>1710.8</ele>
        <time>2022-01-23T11:42:41Z</time>
      </trkpt>
      <trkpt lat="45.77816" lon="6.7061">
        <ele>1710.8</ele>
        <time>2022-01-23T11:42:53Z</time>
      </trkpt>
      <trkpt lat="45.77813" lon="6.70612">
        <ele>1707.92</ele>
        <time>2022-01-23T11:42:59Z</time>
      </trkpt>
      <trkpt lat="45.77809" lon="6.70614">
        <ele>1705.52</ele>
        <time>2022-01-23T11:43:23Z</time>
      </trkpt>
      <trkpt lat="45.77806" lon="6.70614">
        <ele>1706</ele>
        <time>2022-01-23T11:43:50Z</time>
      </trkpt>
      <trkpt lat="45.77793" lon="6.70616">
        <ele>1703.59</ele>
        <time>2022-01-23T11:44:09Z</time>
      </trkpt>
      <trkpt lat="45.77782" lon="6.7063">
        <ele>1703.59</ele>
        <time>2022-01-23T11:44:24Z</time>
      </trkpt>
      <trkpt lat="45.77768" lon="6.70638">
        <ele>1706</ele>
        <time>2022-01-23T11:44:46Z</time>
      </trkpt>
      <trkpt lat="45.77763" lon="6.70641">
        <ele>1707.44</ele>
        <time>2022-01-23T11:45:11Z</time>
      </trkpt>
      <trkpt lat="45.77763" lon="6.70641">
        <ele>1708.4</ele>
        <time>2022-01-23T11:45:41Z</time>
      </trkpt>
      <trkpt lat="45.77763" lon="6.70641">
        <ele>1707.92</ele>
        <time>2022-01-23T11:46:10Z</time>
      </trkpt>
      <trkpt lat="45.7775" lon="6.70638">
        <ele>1710.8</ele>
        <time>2022-01-23T11:46:46Z</time>
      </trkpt>
      <trkpt lat="45.7772" lon="6.70665">
        <ele>1714.17</ele>
        <time>2022-01-23T11:47:18Z</time>
      </trkpt>
      <trkpt lat="45.77698" lon="6.70677">
        <ele>1717.05</ele>
        <time>2022-01-23T11:47:49Z</time>
      </trkpt>
      <trkpt lat="45.77697" lon="6.70676">
        <ele>1717.53</ele>
        <time>2022-01-23T11:48:15Z</time>
      </trkpt>
      <trkpt lat="45.77693" lon="6.7068">
        <ele>1718.97</ele>
        <time>2022-01-23T11:48:54Z</time>
      </trkpt>
      <trkpt lat="45.77681" lon="6.70693">
        <ele>1718.97</ele>
        <time>2022-01-23T11:49:24Z</time>
      </trkpt>
      <trkpt lat="45.7768" lon="6.70693">
        <ele>1718.97</ele>
        <time>2022-01-23T11:49:51Z</time>
      </trkpt>
      <trkpt lat="45.77678" lon="6.70682">
        <ele>1720.42</ele>
        <time>2022-01-23T11:50:14Z</time>
      </trkpt>
      <trkpt lat="45.77672" lon="6.70686">
        <ele>1722.82</ele>
        <time>2022-01-23T11:50:36Z</time>
      </trkpt>
      <trkpt lat="45.77672" lon="6.70686">
        <ele>1723.3</ele>
        <time>2022-01-23T11:51:00Z</time>
      </trkpt>
      <trkpt lat="45.77674" lon="6.70687">
        <ele>1723.3</ele>
        <time>2022-01-23T11:51:34Z</time>
      </trkpt>
      <trkpt lat="45.7766" lon="6.70682">
        <ele>1724.26</ele>
        <time>2022-01-23T11:51:50Z</time>
      </trkpt>
      <trkpt lat="45.77653" lon="6.70691">
        <ele>1726.67</ele>
        <time>2022-01-23T11:52:08Z</time>
      </trkpt>
      <trkpt lat="45.77649" lon="6.70694">
        <ele>1728.11</ele>
        <time>2022-01-23T11:52:24Z</time>
      </trkpt>
      <trkpt lat="45.77643" lon="6.70699">
        <ele>1730.51</ele>
        <time>2022-01-23T11:52:40Z</time>
      </trkpt>
      <trkpt lat="45.77641" lon="6.70702">
        <ele>1732.43</ele>
        <time>2022-01-23T11:52:56Z</time>
      </trkpt>
      <trkpt lat="45.77637" lon="6.70704">
        <ele>1733.39</ele>
        <time>2022-01-23T11:53:15Z</time>
      </trkpt>
      <trkpt lat="45.7763" lon="6.70702">
        <ele>1734.84</ele>
        <time>2022-01-23T11:53:31Z</time>
      </trkpt>
      <trkpt lat="45.77626" lon="6.70708">
        <ele>1737.24</ele>
        <time>2022-01-23T11:53:47Z</time>
      </trkpt>
      <trkpt lat="45.77626" lon="6.70708">
        <ele>1738.2</ele>
        <time>2022-01-23T11:54:15Z</time>
      </trkpt>
      <trkpt lat="45.77626" lon="6.70708">
        <ele>1734.84</ele>
        <time>2022-01-23T11:54:38Z</time>
      </trkpt>
      <trkpt lat="45.77626" lon="6.70708">
        <ele>1738.2</ele>
        <time>2022-01-23T11:54:56Z</time>
      </trkpt>
      <trkpt lat="45.77626" lon="6.70708">
        <ele>1738.2</ele>
        <time>2022-01-23T11:55:25Z</time>
      </trkpt>
      <trkpt lat="45.77619" lon="6.70712">
        <ele>1738.2</ele>
        <time>2022-01-23T11:55:52Z</time>
      </trkpt>
      <trkpt lat="45.77606" lon="6.70712">
        <ele>1742.05</ele>
        <time>2022-01-23T11:56:12Z</time>
      </trkpt>
      <trkpt lat="45.77605" lon="6.70712">
        <ele>1742.05</ele>
        <time>2022-01-23T11:56:13Z</time>
      </trkpt>
      <trkpt lat="45.77593" lon="6.70709">
        <ele>1744.93</ele>
        <time>2022-01-23T11:56:35Z</time>
      </trkpt>
      <trkpt lat="45.77581" lon="6.70702">
        <ele>1747.33</ele>
        <time>2022-01-23T11:56:58Z</time>
      </trkpt>
      <trkpt lat="45.77575" lon="6.70698">
        <ele>1749.26</ele>
        <time>2022-01-23T11:57:21Z</time>
      </trkpt>
      <trkpt lat="45.77562" lon="6.70691">
        <ele>1750.7</ele>
        <time>2022-01-23T11:57:43Z</time>
      </trkpt>
      <trkpt lat="45.77553" lon="6.70685">
        <ele>1751.66</ele>
        <time>2022-01-23T11:58:03Z</time>
      </trkpt>
      <trkpt lat="45.7755" lon="6.70683">
        <ele>1751.66</ele>
        <time>2022-01-23T11:58:06Z</time>
      </trkpt>
      <trkpt lat="45.77539" lon="6.70673">
        <ele>1752.62</ele>
        <time>2022-01-23T11:58:24Z</time>
      </trkpt>
      <trkpt lat="45.7753" lon="6.70666">
        <ele>1753.58</ele>
        <time>2022-01-23T11:58:42Z</time>
      </trkpt>
      <trkpt lat="45.77525" lon="6.70663">
        <ele>1755.5</ele>
        <time>2022-01-23T11:59:05Z</time>
      </trkpt>
      <trkpt lat="45.77523" lon="6.70658">
        <ele>1755.99</ele>
        <time>2022-01-23T11:59:22Z</time>
      </trkpt>
      <trkpt lat="45.77522" lon="6.70634">
        <ele>1758.87</ele>
        <time>2022-01-23T11:59:43Z</time>
      </trkpt>
      <trkpt lat="45.77521" lon="6.70621">
        <ele>1761.75</ele>
        <time>2022-01-23T12:00:03Z</time>
      </trkpt>
      <trkpt lat="45.77517" lon="6.70608">
        <ele>1764.64</ele>
        <time>2022-01-23T12:00:27Z</time>
      </trkpt>
      <trkpt lat="45.77518" lon="6.70604">
        <ele>1766.56</ele>
        <time>2022-01-23T12:00:46Z</time>
      </trkpt>
      <trkpt lat="45.77517" lon="6.70594">
        <ele>1768.48</ele>
        <time>2022-01-23T12:01:08Z</time>
      </trkpt>
      <trkpt lat="45.77513" lon="6.70593">
        <ele>1769.92</ele>
        <time>2022-01-23T12:01:25Z</time>
      </trkpt>
      <trkpt lat="45.77513" lon="6.70592">
        <ele>1770.41</ele>
        <time>2022-01-23T12:02:00Z</time>
      </trkpt>
      <trkpt lat="45.77513" lon="6.70592">
        <ele>1770.41</ele>
        <time>2022-01-23T12:02:50Z</time>
      </trkpt>
      <trkpt lat="45.77514" lon="6.70591">
        <ele>1770.41</ele>
        <time>2022-01-23T12:03:38Z</time>
      </trkpt>
      <trkpt lat="45.77517" lon="6.70591">
        <ele>1770.41</ele>
        <time>2022-01-23T12:04:04Z</time>
      </trkpt>
      <trkpt lat="45.77519" lon="6.70593">
        <ele>1770.41</ele>
        <time>2022-01-23T12:04:17Z</time>
      </trkpt>
      <trkpt lat="45.77523" lon="6.70602">
        <ele>1770.41</ele>
        <time>2022-01-23T12:04:22Z</time>
      </trkpt>
      <trkpt lat="45.77534" lon="6.70618">
        <ele>1765.6</ele>
        <time>2022-01-23T12:04:28Z</time>
      </trkpt>
      <trkpt lat="45.77543" lon="6.70636">
        <ele>1761.75</ele>
        <time>2022-01-23T12:04:34Z</time>
      </trkpt>
      <trkpt lat="45.77548" lon="6.70644">
        <ele>1758.87</ele>
        <time>2022-01-23T12:04:40Z</time>
      </trkpt>
      <trkpt lat="45.77562" lon="6.70669">
        <ele>1755.99</ele>
        <time>2022-01-23T12:04:56Z</time>
      </trkpt>
      <trkpt lat="45.77565" lon="6.70682">
        <ele>1752.62</ele>
        <time>2022-01-23T12:05:05Z</time>
      </trkpt>
      <trkpt lat="45.77566" lon="6.70682">
        <ele>1751.66</ele>
        <time>2022-01-23T12:05:29Z</time>
      </trkpt>
      <trkpt lat="45.77567" lon="6.70682">
        <ele>1751.66</ele>
        <time>2022-01-23T12:06:18Z</time>
      </trkpt>
      <trkpt lat="45.77567" lon="6.70684">
        <ele>1751.66</ele>
        <time>2022-01-23T12:06:46Z</time>
      </trkpt>
      <trkpt lat="45.77568" lon="6.70685">
        <ele>1751.66</ele>
        <time>2022-01-23T12:07:06Z</time>
      </trkpt>
      <trkpt lat="45.77568" lon="6.70684">
        <ele>1750.7</ele>
        <time>2022-01-23T12:07:54Z</time>
      </trkpt>
      <trkpt lat="45.77568" lon="6.70684">
        <ele>1751.18</ele>
        <time>2022-01-23T12:08:24Z</time>
      </trkpt>
      <trkpt lat="45.77568" lon="6.70685">
        <ele>1747.33</ele>
        <time>2022-01-23T12:08:35Z</time>
      </trkpt>
      <trkpt lat="45.77568" lon="6.70684">
        <ele>1740.6</ele>
        <time>2022-01-23T12:08:37Z</time>
      </trkpt>
      <trkpt lat="45.77568" lon="6.70685">
        <ele>1735.8</ele>
        <time>2022-01-23T12:08:39Z</time>
      </trkpt>
      <trkpt lat="45.77568" lon="6.70685">
        <ele>1733.88</ele>
        <time>2022-01-23T12:08:42Z</time>
      </trkpt>
      <trkpt lat="45.77568" lon="6.70684">
        <ele>1743.01</ele>
        <time>2022-01-23T12:08:46Z</time>
      </trkpt>
      <trkpt lat="45.77568" lon="6.70684">
        <ele>1748.29</ele>
        <time>2022-01-23T12:08:47Z</time>
      </trkpt>
      <trkpt lat="45.77568" lon="6.70684">
        <ele>1753.1</ele>
        <time>2022-01-23T12:08:49Z</time>
      </trkpt>
      <trkpt lat="45.77568" lon="6.70685">
        <ele>1750.7</ele>
        <time>2022-01-23T12:09:25Z</time>
      </trkpt>
      <trkpt lat="45.77569" lon="6.70685">
        <ele>1751.18</ele>
        <time>2022-01-23T12:09:49Z</time>
      </trkpt>
      <trkpt lat="45.77568" lon="6.70685">
        <ele>1751.18</ele>
        <time>2022-01-23T12:10:19Z</time>
      </trkpt>
      <trkpt lat="45.77568" lon="6.70687">
        <ele>1751.18</ele>
        <time>2022-01-23T12:10:50Z</time>
      </trkpt>
      <trkpt lat="45.77568" lon="6.70686">
        <ele>1751.18</ele>
        <time>2022-01-23T12:11:43Z</time>
      </trkpt>
      <trkpt lat="45.77568" lon="6.70686">
        <ele>1751.18</ele>
        <time>2022-01-23T12:12:26Z</time>
      </trkpt>
      <trkpt lat="45.77568" lon="6.70687">
        <ele>1751.18</ele>
        <time>2022-01-23T12:13:00Z</time>
      </trkpt>
      <trkpt lat="45.77568" lon="6.70687">
        <ele>1751.18</ele>
        <time>2022-01-23T12:13:43Z</time>
      </trkpt>
      <trkpt lat="45.77568" lon="6.70687">
        <ele>1751.18</ele>
        <time>2022-01-23T12:14:31Z</time>
      </trkpt>
      <trkpt lat="45.77567" lon="6.70686">
        <ele>1751.18</ele>
        <time>2022-01-23T12:15:41Z</time>
      </trkpt>
      <trkpt lat="45.77567" lon="6.70686">
        <ele>1751.18</ele>
        <time>2022-01-23T12:16:47Z</time>
      </trkpt>
      <trkpt lat="45.77567" lon="6.70686">
        <ele>1751.18</ele>
        <time>2022-01-23T12:17:18Z</time>
      </trkpt>
      <trkpt lat="45.77567" lon="6.70685">
        <ele>1751.18</ele>
        <time>2022-01-23T12:17:57Z</time>
      </trkpt>
      <trkpt lat="45.77567" lon="6.70685">
        <ele>1751.18</ele>
        <time>2022-01-23T12:18:55Z</time>
      </trkpt>
      <trkpt lat="45.77567" lon="6.70685">
        <ele>1751.18</ele>
        <time>2022-01-23T12:19:57Z</time>
      </trkpt>
      <trkpt lat="45.77567" lon="6.70685">
        <ele>1751.18</ele>
        <time>2022-01-23T12:20:56Z</time>
      </trkpt>
      <trkpt lat="45.77567" lon="6.70685">
        <ele>1751.18</ele>
        <time>2022-01-23T12:21:47Z</time>
      </trkpt>
      <trkpt lat="45.77567" lon="6.70685">
        <ele>1751.18</ele>
        <time>2022-01-23T12:22:51Z</time>
      </trkpt>
      <trkpt lat="45.77567" lon="6.70685">
        <ele>1751.18</ele>
        <time>2022-01-23T12:24:02Z</time>
      </trkpt>
      <trkpt lat="45.77566" lon="6.70685">
        <ele>1751.18</ele>
        <time>2022-01-23T12:24:52Z</time>
      </trkpt>
      <trkpt lat="45.77566" lon="6.70685">
        <ele>1751.18</ele>
        <time>2022-01-23T12:26:02Z</time>
      </trkpt>
      <trkpt lat="45.77566" lon="6.70685">
        <ele>1751.18</ele>
        <time>2022-01-23T12:27:06Z</time>
      </trkpt>
      <trkpt lat="45.77566" lon="6.70685">
        <ele>1751.18</ele>
        <time>2022-01-23T12:28:15Z</time>
      </trkpt>
      <trkpt lat="45.77566" lon="6.70685">
        <ele>1751.18</ele>
        <time>2022-01-23T12:29:10Z</time>
      </trkpt>
      <trkpt lat="45.77566" lon="6.70685">
        <ele>1751.18</ele>
        <time>2022-01-23T12:30:17Z</time>
      </trkpt>
      <trkpt lat="45.77566" lon="6.70685">
        <ele>1751.18</ele>
        <time>2022-01-23T12:30:55Z</time>
      </trkpt>
      <trkpt lat="45.77566" lon="6.70686">
        <ele>1751.18</ele>
        <time>2022-01-23T12:31:23Z</time>
      </trkpt>
      <trkpt lat="45.77566" lon="6.70686">
        <ele>1751.18</ele>
        <time>2022-01-23T12:31:54Z</time>
      </trkpt>
      <trkpt lat="45.77566" lon="6.70686">
        <ele>1751.18</ele>
        <time>2022-01-23T12:32:38Z</time>
      </trkpt>
      <trkpt lat="45.77566" lon="6.70686">
        <ele>1751.18</ele>
        <time>2022-01-23T12:33:18Z</time>
      </trkpt>
      <trkpt lat="45.77566" lon="6.70687">
        <ele>1751.18</ele>
        <time>2022-01-23T12:34:10Z</time>
      </trkpt>
      <trkpt lat="45.77566" lon="6.70686">
        <ele>1751.18</ele>
        <time>2022-01-23T12:34:46Z</time>
      </trkpt>
      <trkpt lat="45.77568" lon="6.70684">
        <ele>1751.18</ele>
        <time>2022-01-23T12:35:15Z</time>
      </trkpt>
      <trkpt lat="45.77571" lon="6.70685">
        <ele>1751.18</ele>
        <time>2022-01-23T12:35:52Z</time>
      </trkpt>
      <trkpt lat="45.7757" lon="6.70684">
        <ele>1751.18</ele>
        <time>2022-01-23T12:36:21Z</time>
      </trkpt>
      <trkpt lat="45.77567" lon="6.70676">
        <ele>1751.18</ele>
        <time>2022-01-23T12:36:38Z</time>
      </trkpt>
      <trkpt lat="45.7756" lon="6.70658">
        <ele>1751.18</ele>
        <time>2022-01-23T12:36:59Z</time>
      </trkpt>
      <trkpt lat="45.77551" lon="6.70642">
        <ele>1751.18</ele>
        <time>2022-01-23T12:37:19Z</time>
      </trkpt>
      <trkpt lat="45.77543" lon="6.70628">
        <ele>1751.18</ele>
        <time>2022-01-23T12:37:38Z</time>
      </trkpt>
      <trkpt lat="45.77543" lon="6.70627">
        <ele>1757.43</ele>
        <time>2022-01-23T12:37:39Z</time>
      </trkpt>
      <trkpt lat="45.77542" lon="6.70625">
        <ele>1758.39</ele>
        <time>2022-01-23T12:37:41Z</time>
      </trkpt>
      <trkpt lat="45.77538" lon="6.70618">
        <ele>1759.35</ele>
        <time>2022-01-23T12:37:56Z</time>
      </trkpt>
      <trkpt lat="45.77526" lon="6.70616">
        <ele>1761.75</ele>
        <time>2022-01-23T12:38:15Z</time>
      </trkpt>
      <trkpt lat="45.77517" lon="6.7061">
        <ele>1764.64</ele>
        <time>2022-01-23T12:38:38Z</time>
      </trkpt>
      <trkpt lat="45.77515" lon="6.70597">
        <ele>1766.56</ele>
        <time>2022-01-23T12:38:58Z</time>
      </trkpt>
      <trkpt lat="45.77509" lon="6.70596">
        <ele>1768.96</ele>
        <time>2022-01-23T12:39:16Z</time>
      </trkpt>
      <trkpt lat="45.77504" lon="6.70592">
        <ele>1771.37</ele>
        <time>2022-01-23T12:39:37Z</time>
      </trkpt>
      <trkpt lat="45.77503" lon="6.70585">
        <ele>1773.77</ele>
        <time>2022-01-23T12:39:58Z</time>
      </trkpt>
      <trkpt lat="45.77497" lon="6.70585">
        <ele>1775.69</ele>
        <time>2022-01-23T12:40:23Z</time>
      </trkpt>
      <trkpt lat="45.77494" lon="6.7058">
        <ele>1777.61</ele>
        <time>2022-01-23T12:40:42Z</time>
      </trkpt>
      <trkpt lat="45.77493" lon="6.70576">
        <ele>1778.58</ele>
        <time>2022-01-23T12:41:02Z</time>
      </trkpt>
      <trkpt lat="45.77493" lon="6.70573">
        <ele>1780.02</ele>
        <time>2022-01-23T12:41:23Z</time>
      </trkpt>
      <trkpt lat="45.77491" lon="6.70569">
        <ele>1781.94</ele>
        <time>2022-01-23T12:41:38Z</time>
      </trkpt>
      <trkpt lat="45.77487" lon="6.70566">
        <ele>1783.38</ele>
        <time>2022-01-23T12:41:57Z</time>
      </trkpt>
      <trkpt lat="45.77483" lon="6.7057">
        <ele>1785.31</ele>
        <time>2022-01-23T12:42:16Z</time>
      </trkpt>
      <trkpt lat="45.77477" lon="6.70573">
        <ele>1787.23</ele>
        <time>2022-01-23T12:42:36Z</time>
      </trkpt>
      <trkpt lat="45.77472" lon="6.70569">
        <ele>1790.11</ele>
        <time>2022-01-23T12:42:55Z</time>
      </trkpt>
      <trkpt lat="45.7747" lon="6.70566">
        <ele>1792.03</ele>
        <time>2022-01-23T12:43:15Z</time>
      </trkpt>
      <trkpt lat="45.77465" lon="6.70563">
        <ele>1793.96</ele>
        <time>2022-01-23T12:43:32Z</time>
      </trkpt>
      <trkpt lat="45.77465" lon="6.70557">
        <ele>1794.92</ele>
        <time>2022-01-23T12:43:53Z</time>
      </trkpt>
      <trkpt lat="45.77461" lon="6.70555">
        <ele>1796.84</ele>
        <time>2022-01-23T12:44:10Z</time>
      </trkpt>
      <trkpt lat="45.77458" lon="6.70555">
        <ele>1797.8</ele>
        <time>2022-01-23T12:44:30Z</time>
      </trkpt>
      <trkpt lat="45.77455" lon="6.70553">
        <ele>1798.76</ele>
        <time>2022-01-23T12:44:58Z</time>
      </trkpt>
      <trkpt lat="45.77448" lon="6.7055">
        <ele>1801.17</ele>
        <time>2022-01-23T12:45:15Z</time>
      </trkpt>
      <trkpt lat="45.77447" lon="6.70549">
        <ele>1802.61</ele>
        <time>2022-01-23T12:45:38Z</time>
      </trkpt>
      <trkpt lat="45.77447" lon="6.70549">
        <ele>1803.09</ele>
        <time>2022-01-23T12:46:26Z</time>
      </trkpt>
      <trkpt lat="45.77447" lon="6.70548">
        <ele>1803.09</ele>
        <time>2022-01-23T12:47:00Z</time>
      </trkpt>
      <trkpt lat="45.77448" lon="6.70548">
        <ele>1803.09</ele>
        <time>2022-01-23T12:47:24Z</time>
      </trkpt>
      <trkpt lat="45.77445" lon="6.70548">
        <ele>1803.09</ele>
        <time>2022-01-23T12:48:09Z</time>
      </trkpt>
      <trkpt lat="45.77436" lon="6.70549">
        <ele>1803.09</ele>
        <time>2022-01-23T12:48:30Z</time>
      </trkpt>
      <trkpt lat="45.77433" lon="6.70553">
        <ele>1803.09</ele>
        <time>2022-01-23T12:48:45Z</time>
      </trkpt>
      <trkpt lat="45.77431" lon="6.70555">
        <ele>1805.49</ele>
        <time>2022-01-23T12:48:51Z</time>
      </trkpt>
      <trkpt lat="45.77428" lon="6.70557">
        <ele>1807.42</ele>
        <time>2022-01-23T12:49:15Z</time>
      </trkpt>
      <trkpt lat="45.77421" lon="6.70561">
        <ele>1807.9</ele>
        <time>2022-01-23T12:49:33Z</time>
      </trkpt>
      <trkpt lat="45.77416" lon="6.70564">
        <ele>1808.86</ele>
        <time>2022-01-23T12:49:46Z</time>
      </trkpt>
      <trkpt lat="45.77411" lon="6.70565">
        <ele>1810.3</ele>
        <time>2022-01-23T12:50:03Z</time>
      </trkpt>
      <trkpt lat="45.77406" lon="6.70566">
        <ele>1811.74</ele>
        <time>2022-01-23T12:50:21Z</time>
      </trkpt>
      <trkpt lat="45.77399" lon="6.70572">
        <ele>1812.7</ele>
        <time>2022-01-23T12:50:42Z</time>
      </trkpt>
      <trkpt lat="45.77393" lon="6.70581">
        <ele>1814.63</ele>
        <time>2022-01-23T12:51:04Z</time>
      </trkpt>
      <trkpt lat="45.77388" lon="6.7059">
        <ele>1815.59</ele>
        <time>2022-01-23T12:51:23Z</time>
      </trkpt>
      <trkpt lat="45.7738" lon="6.70596">
        <ele>1817.99</ele>
        <time>2022-01-23T12:51:41Z</time>
      </trkpt>
      <trkpt lat="45.77378" lon="6.70598">
        <ele>1818.95</ele>
        <time>2022-01-23T12:51:57Z</time>
      </trkpt>
      <trkpt lat="45.77376" lon="6.70602">
        <ele>1819.91</ele>
        <time>2022-01-23T12:52:19Z</time>
      </trkpt>
      <trkpt lat="45.77376" lon="6.70601">
        <ele>1819.91</ele>
        <time>2022-01-23T12:52:52Z</time>
      </trkpt>
      <trkpt lat="45.77375" lon="6.70601">
        <ele>1819.91</ele>
        <time>2022-01-23T12:53:36Z</time>
      </trkpt>
      <trkpt lat="45.77375" lon="6.706">
        <ele>1819.91</ele>
        <time>2022-01-23T12:54:14Z</time>
      </trkpt>
      <trkpt lat="45.77376" lon="6.706">
        <ele>1819.91</ele>
        <time>2022-01-23T12:55:18Z</time>
      </trkpt>
      <trkpt lat="45.77376" lon="6.706">
        <ele>1819.91</ele>
        <time>2022-01-23T12:55:38Z</time>
      </trkpt>
      <trkpt lat="45.77376" lon="6.70601">
        <ele>1819.91</ele>
        <time>2022-01-23T12:56:12Z</time>
      </trkpt>
      <trkpt lat="45.77373" lon="6.70602">
        <ele>1819.91</ele>
        <time>2022-01-23T12:56:38Z</time>
      </trkpt>
      <trkpt lat="45.77372" lon="6.70602">
        <ele>1819.91</ele>
        <time>2022-01-23T12:57:05Z</time>
      </trkpt>
      <trkpt lat="45.7737" lon="6.706">
        <ele>1819.91</ele>
        <time>2022-01-23T12:57:28Z</time>
      </trkpt>
      <trkpt lat="45.77368" lon="6.70595">
        <ele>1819.91</ele>
        <time>2022-01-23T12:57:51Z</time>
      </trkpt>
      <trkpt lat="45.77366" lon="6.7059">
        <ele>1825.2</ele>
        <time>2022-01-23T12:58:00Z</time>
      </trkpt>
      <trkpt lat="45.77366" lon="6.70589">
        <ele>1825.2</ele>
        <time>2022-01-23T12:58:01Z</time>
      </trkpt>
      <trkpt lat="45.77363" lon="6.70591">
        <ele>1827.12</ele>
        <time>2022-01-23T12:58:18Z</time>
      </trkpt>
      <trkpt lat="45.77358" lon="6.70586">
        <ele>1829.53</ele>
        <time>2022-01-23T12:58:41Z</time>
      </trkpt>
      <trkpt lat="45.77354" lon="6.70582">
        <ele>1831.45</ele>
        <time>2022-01-23T12:58:56Z</time>
      </trkpt>
      <trkpt lat="45.77349" lon="6.70586">
        <ele>1833.37</ele>
        <time>2022-01-23T12:59:13Z</time>
      </trkpt>
      <trkpt lat="45.77348" lon="6.70586">
        <ele>1834.33</ele>
        <time>2022-01-23T12:59:37Z</time>
      </trkpt>
      <trkpt lat="45.77345" lon="6.7059">
        <ele>1835.29</ele>
        <time>2022-01-23T12:59:57Z</time>
      </trkpt>
      <trkpt lat="45.77342" lon="6.70585">
        <ele>1836.26</ele>
        <time>2022-01-23T13:00:19Z</time>
      </trkpt>
      <trkpt lat="45.77338" lon="6.70582">
        <ele>1838.18</ele>
        <time>2022-01-23T13:00:37Z</time>
      </trkpt>
      <trkpt lat="45.77338" lon="6.70583">
        <ele>1839.62</ele>
        <time>2022-01-23T13:01:02Z</time>
      </trkpt>
      <trkpt lat="45.77335" lon="6.70582">
        <ele>1840.58</ele>
        <time>2022-01-23T13:01:27Z</time>
      </trkpt>
      <trkpt lat="45.77331" lon="6.70572">
        <ele>1843.47</ele>
        <time>2022-01-23T13:01:50Z</time>
      </trkpt>
      <trkpt lat="45.77327" lon="6.70568">
        <ele>1846.35</ele>
        <time>2022-01-23T13:02:13Z</time>
      </trkpt>
      <trkpt lat="45.77322" lon="6.70572">
        <ele>1848.27</ele>
        <time>2022-01-23T13:02:32Z</time>
      </trkpt>
      <trkpt lat="45.77317" lon="6.70577">
        <ele>1850.19</ele>
        <time>2022-01-23T13:02:51Z</time>
      </trkpt>
      <trkpt lat="45.77316" lon="6.70579">
        <ele>1852.12</ele>
        <time>2022-01-23T13:03:13Z</time>
      </trkpt>
      <trkpt lat="45.77316" lon="6.70579">
        <ele>1852.6</ele>
        <time>2022-01-23T13:03:46Z</time>
      </trkpt>
      <trkpt lat="45.77314" lon="6.70584">
        <ele>1852.12</ele>
        <time>2022-01-23T13:04:17Z</time>
      </trkpt>
      <trkpt lat="45.77314" lon="6.70604">
        <ele>1852.12</ele>
        <time>2022-01-23T13:04:35Z</time>
      </trkpt>
      <trkpt lat="45.77314" lon="6.70621">
        <ele>1852.12</ele>
        <time>2022-01-23T13:04:52Z</time>
      </trkpt>
      <trkpt lat="45.77316" lon="6.70635">
        <ele>1855.96</ele>
        <time>2022-01-23T13:05:07Z</time>
      </trkpt>
      <trkpt lat="45.77316" lon="6.70636">
        <ele>1855.96</ele>
        <time>2022-01-23T13:05:08Z</time>
      </trkpt>
      <trkpt lat="45.77316" lon="6.70648">
        <ele>1857.89</ele>
        <time>2022-01-23T13:05:28Z</time>
      </trkpt>
      <trkpt lat="45.77317" lon="6.70656">
        <ele>1858.85</ele>
        <time>2022-01-23T13:05:45Z</time>
      </trkpt>
      <trkpt lat="45.77318" lon="6.70666">
        <ele>1860.77</ele>
        <time>2022-01-23T13:06:06Z</time>
      </trkpt>
      <trkpt lat="45.77315" lon="6.70673">
        <ele>1862.21</ele>
        <time>2022-01-23T13:06:23Z</time>
      </trkpt>
      <trkpt lat="45.77307" lon="6.70683">
        <ele>1865.58</ele>
        <time>2022-01-23T13:06:44Z</time>
      </trkpt>
      <trkpt lat="45.77301" lon="6.70696">
        <ele>1865.58</ele>
        <time>2022-01-23T13:07:01Z</time>
      </trkpt>
      <trkpt lat="45.773" lon="6.70701">
        <ele>1866.06</ele>
        <time>2022-01-23T13:07:17Z</time>
      </trkpt>
      <trkpt lat="45.773" lon="6.70701">
        <ele>1865.58</ele>
        <time>2022-01-23T13:07:51Z</time>
      </trkpt>
      <trkpt lat="45.773" lon="6.70701">
        <ele>1864.61</ele>
        <time>2022-01-23T13:08:45Z</time>
      </trkpt>
      <trkpt lat="45.773" lon="6.707">
        <ele>1864.61</ele>
        <time>2022-01-23T13:09:14Z</time>
      </trkpt>
      <trkpt lat="45.773" lon="6.707">
        <ele>1865.58</ele>
        <time>2022-01-23T13:10:28Z</time>
      </trkpt>
      <trkpt lat="45.77302" lon="6.70704">
        <ele>1864.61</ele>
        <time>2022-01-23T13:10:57Z</time>
      </trkpt>
      <trkpt lat="45.77301" lon="6.70704">
        <ele>1865.09</ele>
        <time>2022-01-23T13:11:37Z</time>
      </trkpt>
      <trkpt lat="45.77301" lon="6.70704">
        <ele>1865.09</ele>
        <time>2022-01-23T13:12:01Z</time>
      </trkpt>
      <trkpt lat="45.77301" lon="6.70704">
        <ele>1865.09</ele>
        <time>2022-01-23T13:12:54Z</time>
      </trkpt>
      <trkpt lat="45.77301" lon="6.70704">
        <ele>1865.09</ele>
        <time>2022-01-23T13:13:36Z</time>
      </trkpt>
      <trkpt lat="45.77301" lon="6.70705">
        <ele>1865.09</ele>
        <time>2022-01-23T13:14:30Z</time>
      </trkpt>
      <trkpt lat="45.77301" lon="6.70705">
        <ele>1865.09</ele>
        <time>2022-01-23T13:15:15Z</time>
      </trkpt>
      <trkpt lat="45.77301" lon="6.70705">
        <ele>1865.09</ele>
        <time>2022-01-23T13:15:40Z</time>
      </trkpt>
      <trkpt lat="45.77301" lon="6.70705">
        <ele>1865.09</ele>
        <time>2022-01-23T13:16:17Z</time>
      </trkpt>
      <trkpt lat="45.77302" lon="6.70704">
        <ele>1865.09</ele>
        <time>2022-01-23T13:16:52Z</time>
      </trkpt>
      <trkpt lat="45.77302" lon="6.70704">
        <ele>1865.09</ele>
        <time>2022-01-23T13:17:21Z</time>
      </trkpt>
      <trkpt lat="45.77302" lon="6.70704">
        <ele>1865.09</ele>
        <time>2022-01-23T13:17:56Z</time>
      </trkpt>
      <trkpt lat="45.77302" lon="6.70703">
        <ele>1865.09</ele>
        <time>2022-01-23T13:18:20Z</time>
      </trkpt>
      <trkpt lat="45.77301" lon="6.70704">
        <ele>1865.09</ele>
        <time>2022-01-23T13:18:46Z</time>
      </trkpt>
      <trkpt lat="45.77299" lon="6.70714">
        <ele>1865.09</ele>
        <time>2022-01-23T13:18:50Z</time>
      </trkpt>
      <trkpt lat="45.77296" lon="6.70731">
        <ele>1863.17</ele>
        <time>2022-01-23T13:19:03Z</time>
      </trkpt>
      <trkpt lat="45.77296" lon="6.70734">
        <ele>1863.17</ele>
        <time>2022-01-23T13:19:09Z</time>
      </trkpt>
      <trkpt lat="45.77294" lon="6.7074">
        <ele>1863.17</ele>
        <time>2022-01-23T13:19:12Z</time>
      </trkpt>
      <trkpt lat="45.77292" lon="6.70752">
        <ele>1862.21</ele>
        <time>2022-01-23T13:19:16Z</time>
      </trkpt>
      <trkpt lat="45.77291" lon="6.70763">
        <ele>1862.21</ele>
        <time>2022-01-23T13:19:19Z</time>
      </trkpt>
      <trkpt lat="45.77288" lon="6.70789">
        <ele>1857.4</ele>
        <time>2022-01-23T13:19:26Z</time>
      </trkpt>
      <trkpt lat="45.77282" lon="6.70802">
        <ele>1854.04</ele>
        <time>2022-01-23T13:19:31Z</time>
      </trkpt>
      <trkpt lat="45.77279" lon="6.70818">
        <ele>1850.68</ele>
        <time>2022-01-23T13:19:35Z</time>
      </trkpt>
      <trkpt lat="45.77276" lon="6.70828">
        <ele>1846.35</ele>
        <time>2022-01-23T13:19:39Z</time>
      </trkpt>
      <trkpt lat="45.77276" lon="6.70831">
        <ele>1842.98</ele>
        <time>2022-01-23T13:19:43Z</time>
      </trkpt>
      <trkpt lat="45.77276" lon="6.70831">
        <ele>1841.06</ele>
        <time>2022-01-23T13:20:18Z</time>
      </trkpt>
      <trkpt lat="45.77276" lon="6.70831">
        <ele>1842.02</ele>
        <time>2022-01-23T13:21:25Z</time>
      </trkpt>
      <trkpt lat="45.77275" lon="6.70831">
        <ele>1842.02</ele>
        <time>2022-01-23T13:21:26Z</time>
      </trkpt>
      <trkpt lat="45.77265" lon="6.70832">
        <ele>1841.54</ele>
        <time>2022-01-23T13:21:31Z</time>
      </trkpt>
      <trkpt lat="45.77239" lon="6.70829">
        <ele>1839.62</ele>
        <time>2022-01-23T13:21:51Z</time>
      </trkpt>
      <trkpt lat="45.77229" lon="6.70826">
        <ele>1840.1</ele>
        <time>2022-01-23T13:22:06Z</time>
      </trkpt>
      <trkpt lat="45.77227" lon="6.70824">
        <ele>1840.58</ele>
        <time>2022-01-23T13:22:09Z</time>
      </trkpt>
      <trkpt lat="45.77216" lon="6.70818">
        <ele>1839.62</ele>
        <time>2022-01-23T13:22:20Z</time>
      </trkpt>
      <trkpt lat="45.77204" lon="6.70815">
        <ele>1839.14</ele>
        <time>2022-01-23T13:22:32Z</time>
      </trkpt>
      <trkpt lat="45.77203" lon="6.70812">
        <ele>1839.14</ele>
        <time>2022-01-23T13:22:40Z</time>
      </trkpt>
      <trkpt lat="45.77196" lon="6.70793">
        <ele>1837.22</ele>
        <time>2022-01-23T13:22:49Z</time>
      </trkpt>
      <trkpt lat="45.77194" lon="6.7079">
        <ele>1836.74</ele>
        <time>2022-01-23T13:22:59Z</time>
      </trkpt>
      <trkpt lat="45.77186" lon="6.70781">
        <ele>1836.74</ele>
        <time>2022-01-23T13:23:06Z</time>
      </trkpt>
      <trkpt lat="45.77169" lon="6.70767">
        <ele>1835.77</ele>
        <time>2022-01-23T13:23:14Z</time>
      </trkpt>
      <trkpt lat="45.77167" lon="6.70766">
        <ele>1832.41</ele>
        <time>2022-01-23T13:23:20Z</time>
      </trkpt>
      <trkpt lat="45.77166" lon="6.70765">
        <ele>1832.41</ele>
        <time>2022-01-23T13:23:46Z</time>
      </trkpt>
      <trkpt lat="45.77161" lon="6.70764">
        <ele>1832.41</ele>
        <time>2022-01-23T13:23:49Z</time>
      </trkpt>
      <trkpt lat="45.77139" lon="6.70757">
        <ele>1830.97</ele>
        <time>2022-01-23T13:24:03Z</time>
      </trkpt>
      <trkpt lat="45.77135" lon="6.70755">
        <ele>1830.49</ele>
        <time>2022-01-23T13:24:09Z</time>
      </trkpt>
      <trkpt lat="45.77124" lon="6.70751">
        <ele>1830.01</ele>
        <time>2022-01-23T13:24:22Z</time>
      </trkpt>
      <trkpt lat="45.77124" lon="6.70751">
        <ele>1830.01</ele>
        <time>2022-01-23T13:24:34Z</time>
      </trkpt>
      <trkpt lat="45.77122" lon="6.7075">
        <ele>1830.01</ele>
        <time>2022-01-23T13:24:37Z</time>
      </trkpt>
      <trkpt lat="45.77102" lon="6.70737">
        <ele>1827.6</ele>
        <time>2022-01-23T13:24:47Z</time>
      </trkpt>
      <trkpt lat="45.77099" lon="6.70735">
        <ele>1826.64</ele>
        <time>2022-01-23T13:24:51Z</time>
      </trkpt>
      <trkpt lat="45.77094" lon="6.70734">
        <ele>1826.64</ele>
        <time>2022-01-23T13:24:54Z</time>
      </trkpt>
      <trkpt lat="45.77085" lon="6.7073">
        <ele>1825.68</ele>
        <time>2022-01-23T13:24:59Z</time>
      </trkpt>
      <trkpt lat="45.77063" lon="6.70722">
        <ele>1822.8</ele>
        <time>2022-01-23T13:25:10Z</time>
      </trkpt>
      <trkpt lat="45.77048" lon="6.70716">
        <ele>1822.32</ele>
        <time>2022-01-23T13:25:28Z</time>
      </trkpt>
      <trkpt lat="45.77047" lon="6.70715">
        <ele>1822.32</ele>
        <time>2022-01-23T13:25:29Z</time>
      </trkpt>
      <trkpt lat="45.7704" lon="6.70716">
        <ele>1821.84</ele>
        <time>2022-01-23T13:25:33Z</time>
      </trkpt>
      <trkpt lat="45.77027" lon="6.70715">
        <ele>1821.84</ele>
        <time>2022-01-23T13:25:36Z</time>
      </trkpt>
      <trkpt lat="45.77017" lon="6.70726">
        <ele>1818.47</ele>
        <time>2022-01-23T13:25:42Z</time>
      </trkpt>
      <trkpt lat="45.77017" lon="6.70726">
        <ele>1816.55</ele>
        <time>2022-01-23T13:26:06Z</time>
      </trkpt>
      <trkpt lat="45.77018" lon="6.70726">
        <ele>1817.03</ele>
        <time>2022-01-23T13:26:36Z</time>
      </trkpt>
      <trkpt lat="45.77018" lon="6.70725">
        <ele>1817.99</ele>
        <time>2022-01-23T13:27:17Z</time>
      </trkpt>
      <trkpt lat="45.77018" lon="6.70725">
        <ele>1817.99</ele>
        <time>2022-01-23T13:27:48Z</time>
      </trkpt>
      <trkpt lat="45.77018" lon="6.70725">
        <ele>1817.99</ele>
        <time>2022-01-23T13:28:39Z</time>
      </trkpt>
      <trkpt lat="45.77018" lon="6.70725">
        <ele>1817.99</ele>
        <time>2022-01-23T13:29:23Z</time>
      </trkpt>
      <trkpt lat="45.77018" lon="6.70725">
        <ele>1817.99</ele>
        <time>2022-01-23T13:29:47Z</time>
      </trkpt>
      <trkpt lat="45.77018" lon="6.70725">
        <ele>1817.99</ele>
        <time>2022-01-23T13:30:25Z</time>
      </trkpt>
      <trkpt lat="45.77018" lon="6.70724">
        <ele>1817.99</ele>
        <time>2022-01-23T13:31:08Z</time>
      </trkpt>
      <trkpt lat="45.77018" lon="6.70725">
        <ele>1817.99</ele>
        <time>2022-01-23T13:31:48Z</time>
      </trkpt>
      <trkpt lat="45.77018" lon="6.70725">
        <ele>1817.99</ele>
        <time>2022-01-23T13:32:27Z</time>
      </trkpt>
      <trkpt lat="45.77018" lon="6.70726">
        <ele>1817.99</ele>
        <time>2022-01-23T13:32:34Z</time>
      </trkpt>
      <trkpt lat="45.77022" lon="6.70737">
        <ele>1817.99</ele>
        <time>2022-01-23T13:32:38Z</time>
      </trkpt>
      <trkpt lat="45.77025" lon="6.70748">
        <ele>1817.51</ele>
        <time>2022-01-23T13:32:41Z</time>
      </trkpt>
      <trkpt lat="45.77022" lon="6.70755">
        <ele>1816.55</ele>
        <time>2022-01-23T13:32:44Z</time>
      </trkpt>
      <trkpt lat="45.77019" lon="6.70758">
        <ele>1813.18</ele>
        <time>2022-01-23T13:32:52Z</time>
      </trkpt>
      <trkpt lat="45.77017" lon="6.70768">
        <ele>1812.22</ele>
        <time>2022-01-23T13:32:56Z</time>
      </trkpt>
      <trkpt lat="45.77007" lon="6.70781">
        <ele>1808.86</ele>
        <time>2022-01-23T13:33:04Z</time>
      </trkpt>
      <trkpt lat="45.77002" lon="6.7078">
        <ele>1807.9</ele>
        <time>2022-01-23T13:33:09Z</time>
      </trkpt>
      <trkpt lat="45.76997" lon="6.70779">
        <ele>1807.42</ele>
        <time>2022-01-23T13:33:27Z</time>
      </trkpt>
      <trkpt lat="45.76996" lon="6.70777">
        <ele>1807.42</ele>
        <time>2022-01-23T13:33:56Z</time>
      </trkpt>
      <trkpt lat="45.76993" lon="6.70774">
        <ele>1807.42</ele>
        <time>2022-01-23T13:34:16Z</time>
      </trkpt>
      <trkpt lat="45.76993" lon="6.70776">
        <ele>1807.42</ele>
        <time>2022-01-23T13:34:26Z</time>
      </trkpt>
      <trkpt lat="45.77" lon="6.70783">
        <ele>1806.94</ele>
        <time>2022-01-23T13:34:44Z</time>
      </trkpt>
      <trkpt lat="45.77002" lon="6.70785">
        <ele>1807.42</ele>
        <time>2022-01-23T13:34:59Z</time>
      </trkpt>
      <trkpt lat="45.77024" lon="6.70788">
        <ele>1805.97</ele>
        <time>2022-01-23T13:35:16Z</time>
      </trkpt>
      <trkpt lat="45.77036" lon="6.70791">
        <ele>1805.01</ele>
        <time>2022-01-23T13:35:22Z</time>
      </trkpt>
      <trkpt lat="45.77043" lon="6.70816">
        <ele>1803.57</ele>
        <time>2022-01-23T13:35:26Z</time>
      </trkpt>
      <trkpt lat="45.77048" lon="6.70832">
        <ele>1800.21</ele>
        <time>2022-01-23T13:35:30Z</time>
      </trkpt>
      <trkpt lat="45.7705" lon="6.70842">
        <ele>1798.28</ele>
        <time>2022-01-23T13:35:44Z</time>
      </trkpt>
      <trkpt lat="45.77054" lon="6.70869">
        <ele>1797.8</ele>
        <time>2022-01-23T13:36:01Z</time>
      </trkpt>
      <trkpt lat="45.77056" lon="6.70869">
        <ele>1793.48</ele>
        <time>2022-01-23T13:36:10Z</time>
      </trkpt>
      <trkpt lat="45.77056" lon="6.70869">
        <ele>1789.63</ele>
        <time>2022-01-23T13:36:11Z</time>
      </trkpt>
      <trkpt lat="45.77056" lon="6.70869">
        <ele>1784.82</ele>
        <time>2022-01-23T13:36:13Z</time>
      </trkpt>
      <trkpt lat="45.77056" lon="6.7087">
        <ele>1793</ele>
        <time>2022-01-23T13:36:21Z</time>
      </trkpt>
      <trkpt lat="45.77056" lon="6.7087">
        <ele>1798.76</ele>
        <time>2022-01-23T13:36:22Z</time>
      </trkpt>
      <trkpt lat="45.77056" lon="6.7087">
        <ele>1801.65</ele>
        <time>2022-01-23T13:36:23Z</time>
      </trkpt>
      <trkpt lat="45.77056" lon="6.70869">
        <ele>1803.57</ele>
        <time>2022-01-23T13:36:25Z</time>
      </trkpt>
      <trkpt lat="45.77056" lon="6.70868">
        <ele>1800.21</ele>
        <time>2022-01-23T13:36:31Z</time>
      </trkpt>
      <trkpt lat="45.77055" lon="6.70869">
        <ele>1795.88</ele>
        <time>2022-01-23T13:36:43Z</time>
      </trkpt>
      <trkpt lat="45.77055" lon="6.70869">
        <ele>1795.88</ele>
        <time>2022-01-23T13:36:44Z</time>
      </trkpt>
      <trkpt lat="45.77056" lon="6.70869">
        <ele>1798.28</ele>
        <time>2022-01-23T13:36:56Z</time>
      </trkpt>
      <trkpt lat="45.77055" lon="6.70868">
        <ele>1794.92</ele>
        <time>2022-01-23T13:37:02Z</time>
      </trkpt>
      <trkpt lat="45.77055" lon="6.70868">
        <ele>1794.92</ele>
        <time>2022-01-23T13:37:03Z</time>
      </trkpt>
      <trkpt lat="45.77056" lon="6.70868">
        <ele>1799.73</ele>
        <time>2022-01-23T13:37:15Z</time>
      </trkpt>
      <trkpt lat="45.77056" lon="6.70868">
        <ele>1801.17</ele>
        <time>2022-01-23T13:37:18Z</time>
      </trkpt>
      <trkpt lat="45.77055" lon="6.70868">
        <ele>1798.28</ele>
        <time>2022-01-23T13:37:23Z</time>
      </trkpt>
      <trkpt lat="45.77056" lon="6.70868">
        <ele>1796.36</ele>
        <time>2022-01-23T13:37:34Z</time>
      </trkpt>
      <trkpt lat="45.77056" lon="6.70868">
        <ele>1796.84</ele>
        <time>2022-01-23T13:37:39Z</time>
      </trkpt>
      <trkpt lat="45.77056" lon="6.70868">
        <ele>1801.17</ele>
        <time>2022-01-23T13:37:43Z</time>
      </trkpt>
      <trkpt lat="45.77056" lon="6.70868">
        <ele>1799.24</ele>
        <time>2022-01-23T13:37:52Z</time>
      </trkpt>
      <trkpt lat="45.77056" lon="6.70868">
        <ele>1798.76</ele>
        <time>2022-01-23T13:38:23Z</time>
      </trkpt>
      <trkpt lat="45.77057" lon="6.70868">
        <ele>1799.24</ele>
        <time>2022-01-23T13:38:50Z</time>
      </trkpt>
      <trkpt lat="45.77059" lon="6.70866">
        <ele>1798.76</ele>
        <time>2022-01-23T13:39:14Z</time>
      </trkpt>
      <trkpt lat="45.77062" lon="6.70862">
        <ele>1797.32</ele>
        <time>2022-01-23T13:39:31Z</time>
      </trkpt>
      <trkpt lat="45.77062" lon="6.70862">
        <ele>1798.76</ele>
        <time>2022-01-23T13:39:37Z</time>
      </trkpt>
      <trkpt lat="45.77061" lon="6.70863">
        <ele>1798.76</ele>
        <time>2022-01-23T13:40:01Z</time>
      </trkpt>
      <trkpt lat="45.7706" lon="6.7087">
        <ele>1795.88</ele>
        <time>2022-01-23T13:40:23Z</time>
      </trkpt>
      <trkpt lat="45.77057" lon="6.70884">
        <ele>1796.84</ele>
        <time>2022-01-23T13:40:41Z</time>
      </trkpt>
      <trkpt lat="45.77043" lon="6.70901">
        <ele>1796.84</ele>
        <time>2022-01-23T13:41:26Z</time>
      </trkpt>
      <trkpt lat="45.77036" lon="6.70903">
        <ele>1785.31</ele>
        <time>2022-01-23T13:41:41Z</time>
      </trkpt>
      <trkpt lat="45.77036" lon="6.70903">
        <ele>1785.79</ele>
        <time>2022-01-23T13:41:42Z</time>
      </trkpt>
      <trkpt lat="45.77024" lon="6.70895">
        <ele>1783.86</ele>
        <time>2022-01-23T13:42:08Z</time>
      </trkpt>
      <trkpt lat="45.77021" lon="6.70902">
        <ele>1782.42</ele>
        <time>2022-01-23T13:42:23Z</time>
      </trkpt>
      <trkpt lat="45.77017" lon="6.70903">
        <ele>1780.98</ele>
        <time>2022-01-23T13:42:52Z</time>
      </trkpt>
      <trkpt lat="45.77006" lon="6.70905">
        <ele>1778.58</ele>
        <time>2022-01-23T13:43:13Z</time>
      </trkpt>
      <trkpt lat="45.76995" lon="6.70914">
        <ele>1775.69</ele>
        <time>2022-01-23T13:43:36Z</time>
      </trkpt>
      <trkpt lat="45.76987" lon="6.70924">
        <ele>1772.33</ele>
        <time>2022-01-23T13:43:54Z</time>
      </trkpt>
      <trkpt lat="45.76981" lon="6.70923">
        <ele>1769.44</ele>
        <time>2022-01-23T13:44:12Z</time>
      </trkpt>
      <trkpt lat="45.76973" lon="6.70924">
        <ele>1766.56</ele>
        <time>2022-01-23T13:44:38Z</time>
      </trkpt>
      <trkpt lat="45.76962" lon="6.70928">
        <ele>1763.68</ele>
        <time>2022-01-23T13:45:02Z</time>
      </trkpt>
      <trkpt lat="45.76956" lon="6.70927">
        <ele>1762.23</ele>
        <time>2022-01-23T13:45:17Z</time>
      </trkpt>
      <trkpt lat="45.76952" lon="6.70926">
        <ele>1760.31</ele>
        <time>2022-01-23T13:45:45Z</time>
      </trkpt>
      <trkpt lat="45.76953" lon="6.70934">
        <ele>1758.39</ele>
        <time>2022-01-23T13:46:05Z</time>
      </trkpt>
      <trkpt lat="45.7696" lon="6.70944">
        <ele>1755.99</ele>
        <time>2022-01-23T13:46:25Z</time>
      </trkpt>
      <trkpt lat="45.76969" lon="6.70952">
        <ele>1753.1</ele>
        <time>2022-01-23T13:46:43Z</time>
      </trkpt>
      <trkpt lat="45.7698" lon="6.7096">
        <ele>1750.22</ele>
        <time>2022-01-23T13:47:02Z</time>
      </trkpt>
      <trkpt lat="45.76993" lon="6.70966">
        <ele>1747.81</ele>
        <time>2022-01-23T13:47:21Z</time>
      </trkpt>
      <trkpt lat="45.77005" lon="6.70971">
        <ele>1745.41</ele>
        <time>2022-01-23T13:47:37Z</time>
      </trkpt>
      <trkpt lat="45.77005" lon="6.70974">
        <ele>1745.41</ele>
        <time>2022-01-23T13:48:05Z</time>
      </trkpt>
      <trkpt lat="45.77005" lon="6.70974">
        <ele>1744.93</ele>
        <time>2022-01-23T13:48:44Z</time>
      </trkpt>
      <trkpt lat="45.77005" lon="6.70975">
        <ele>1744.93</ele>
        <time>2022-01-23T13:49:22Z</time>
      </trkpt>
      <trkpt lat="45.77005" lon="6.70975">
        <ele>1744.93</ele>
        <time>2022-01-23T13:49:55Z</time>
      </trkpt>
      <trkpt lat="45.77005" lon="6.70975">
        <ele>1744.93</ele>
        <time>2022-01-23T13:50:40Z</time>
      </trkpt>
      <trkpt lat="45.77004" lon="6.70975">
        <ele>1744.93</ele>
        <time>2022-01-23T13:51:20Z</time>
      </trkpt>
      <trkpt lat="45.77004" lon="6.70975">
        <ele>1744.93</ele>
        <time>2022-01-23T13:52:01Z</time>
      </trkpt>
      <trkpt lat="45.77013" lon="6.70979">
        <ele>1744.93</ele>
        <time>2022-01-23T13:52:28Z</time>
      </trkpt>
      <trkpt lat="45.77015" lon="6.70981">
        <ele>1744.45</ele>
        <time>2022-01-23T13:52:30Z</time>
      </trkpt>
      <trkpt lat="45.77027" lon="6.70996">
        <ele>1741.57</ele>
        <time>2022-01-23T13:52:56Z</time>
      </trkpt>
      <trkpt lat="45.77033" lon="6.71001">
        <ele>1738.68</ele>
        <time>2022-01-23T13:53:08Z</time>
      </trkpt>
      <trkpt lat="45.77044" lon="6.71006">
        <ele>1735.8</ele>
        <time>2022-01-23T13:53:21Z</time>
      </trkpt>
      <trkpt lat="45.77051" lon="6.71019">
        <ele>1732.43</ele>
        <time>2022-01-23T13:53:34Z</time>
      </trkpt>
      <trkpt lat="45.77052" lon="6.7103">
        <ele>1729.55</ele>
        <time>2022-01-23T13:53:48Z</time>
      </trkpt>
      <trkpt lat="45.77058" lon="6.71044">
        <ele>1726.18</ele>
        <time>2022-01-23T13:54:03Z</time>
      </trkpt>
      <trkpt lat="45.77063" lon="6.71057">
        <ele>1722.82</ele>
        <time>2022-01-23T13:54:20Z</time>
      </trkpt>
      <trkpt lat="45.77065" lon="6.71061">
        <ele>1719.94</ele>
        <time>2022-01-23T13:54:35Z</time>
      </trkpt>
      <trkpt lat="45.77058" lon="6.71073">
        <ele>1716.57</ele>
        <time>2022-01-23T13:54:49Z</time>
      </trkpt>
      <trkpt lat="45.7705" lon="6.71084">
        <ele>1713.69</ele>
        <time>2022-01-23T13:55:04Z</time>
      </trkpt>
      <trkpt lat="45.77042" lon="6.7109">
        <ele>1710.8</ele>
        <time>2022-01-23T13:55:19Z</time>
      </trkpt>
      <trkpt lat="45.77038" lon="6.71095">
        <ele>1707.44</ele>
        <time>2022-01-23T13:55:32Z</time>
      </trkpt>
      <trkpt lat="45.77039" lon="6.71099">
        <ele>1704.55</ele>
        <time>2022-01-23T13:55:47Z</time>
      </trkpt>
      <trkpt lat="45.77043" lon="6.71115">
        <ele>1701.19</ele>
        <time>2022-01-23T13:56:07Z</time>
      </trkpt>
      <trkpt lat="45.77047" lon="6.71119">
        <ele>1698.31</ele>
        <time>2022-01-23T13:56:20Z</time>
      </trkpt>
      <trkpt lat="45.7706" lon="6.71124">
        <ele>1695.42</ele>
        <time>2022-01-23T13:56:43Z</time>
      </trkpt>
      <trkpt lat="45.7708" lon="6.71126">
        <ele>1691.58</ele>
        <time>2022-01-23T13:57:00Z</time>
      </trkpt>
      <trkpt lat="45.77098" lon="6.71124">
        <ele>1688.69</ele>
        <time>2022-01-23T13:57:27Z</time>
      </trkpt>
      <trkpt lat="45.77104" lon="6.71113">
        <ele>1685.33</ele>
        <time>2022-01-23T13:57:41Z</time>
      </trkpt>
      <trkpt lat="45.77116" lon="6.71107">
        <ele>1682.44</ele>
        <time>2022-01-23T13:58:05Z</time>
      </trkpt>
      <trkpt lat="45.77124" lon="6.71115">
        <ele>1679.56</ele>
        <time>2022-01-23T13:58:20Z</time>
      </trkpt>
      <trkpt lat="45.77128" lon="6.71122">
        <ele>1676.2</ele>
        <time>2022-01-23T13:58:34Z</time>
      </trkpt>
      <trkpt lat="45.77126" lon="6.71138">
        <ele>1672.83</ele>
        <time>2022-01-23T13:58:49Z</time>
      </trkpt>
      <trkpt lat="45.77126" lon="6.71147">
        <ele>1669.95</ele>
        <time>2022-01-23T13:59:01Z</time>
      </trkpt>
      <trkpt lat="45.77127" lon="6.71156">
        <ele>1667.06</ele>
        <time>2022-01-23T13:59:14Z</time>
      </trkpt>
      <trkpt lat="45.77125" lon="6.71165">
        <ele>1663.7</ele>
        <time>2022-01-23T13:59:27Z</time>
      </trkpt>
      <trkpt lat="45.77117" lon="6.71185">
        <ele>1660.81</ele>
        <time>2022-01-23T13:59:47Z</time>
      </trkpt>
      <trkpt lat="45.77117" lon="6.71196">
        <ele>1657.45</ele>
        <time>2022-01-23T14:00:00Z</time>
      </trkpt>
      <trkpt lat="45.77118" lon="6.71202">
        <ele>1654.57</ele>
        <time>2022-01-23T14:00:10Z</time>
      </trkpt>
      <trkpt lat="45.7713" lon="6.71207">
        <ele>1651.2</ele>
        <time>2022-01-23T14:00:26Z</time>
      </trkpt>
      <trkpt lat="45.77136" lon="6.71217">
        <ele>1648.32</ele>
        <time>2022-01-23T14:00:39Z</time>
      </trkpt>
      <trkpt lat="45.77148" lon="6.71227">
        <ele>1644.95</ele>
        <time>2022-01-23T14:00:53Z</time>
      </trkpt>
      <trkpt lat="45.77152" lon="6.71209">
        <ele>1643.03</ele>
        <time>2022-01-23T14:01:17Z</time>
      </trkpt>
      <trkpt lat="45.77152" lon="6.71208">
        <ele>1643.03</ele>
        <time>2022-01-23T14:01:39Z</time>
      </trkpt>
      <trkpt lat="45.7716" lon="6.7122">
        <ele>1641.11</ele>
        <time>2022-01-23T14:01:58Z</time>
      </trkpt>
      <trkpt lat="45.77168" lon="6.71232">
        <ele>1638.22</ele>
        <time>2022-01-23T14:02:17Z</time>
      </trkpt>
      <trkpt lat="45.77173" lon="6.71247">
        <ele>1634.86</ele>
        <time>2022-01-23T14:02:32Z</time>
      </trkpt>
      <trkpt lat="45.77177" lon="6.71258">
        <ele>1631.98</ele>
        <time>2022-01-23T14:02:45Z</time>
      </trkpt>
      <trkpt lat="45.7718" lon="6.71268">
        <ele>1628.61</ele>
        <time>2022-01-23T14:02:58Z</time>
      </trkpt>
      <trkpt lat="45.7718" lon="6.7128">
        <ele>1625.73</ele>
        <time>2022-01-23T14:03:11Z</time>
      </trkpt>
      <trkpt lat="45.7718" lon="6.71293">
        <ele>1622.84</ele>
        <time>2022-01-23T14:03:27Z</time>
      </trkpt>
      <trkpt lat="45.77181" lon="6.71308">
        <ele>1619.96</ele>
        <time>2022-01-23T14:03:42Z</time>
      </trkpt>
      <trkpt lat="45.77182" lon="6.71322">
        <ele>1616.59</ele>
        <time>2022-01-23T14:03:59Z</time>
      </trkpt>
      <trkpt lat="45.77185" lon="6.71332">
        <ele>1613.71</ele>
        <time>2022-01-23T14:04:10Z</time>
      </trkpt>
      <trkpt lat="45.77188" lon="6.71346">
        <ele>1610.35</ele>
        <time>2022-01-23T14:04:22Z</time>
      </trkpt>
      <trkpt lat="45.7719" lon="6.71359">
        <ele>1606.98</ele>
        <time>2022-01-23T14:04:36Z</time>
      </trkpt>
      <trkpt lat="45.7719" lon="6.71361">
        <ele>1606.5</ele>
        <time>2022-01-23T14:05:01Z</time>
      </trkpt>
      <trkpt lat="45.77194" lon="6.71371">
        <ele>1605.06</ele>
        <time>2022-01-23T14:05:17Z</time>
      </trkpt>
      <trkpt lat="45.7719" lon="6.71372">
        <ele>1605.54</ele>
        <time>2022-01-23T14:05:49Z</time>
      </trkpt>
      <trkpt lat="45.7719" lon="6.71372">
        <ele>1600.73</ele>
        <time>2022-01-23T14:05:56Z</time>
      </trkpt>
      <trkpt lat="45.7719" lon="6.71372">
        <ele>1595.45</ele>
        <time>2022-01-23T14:05:58Z</time>
      </trkpt>
      <trkpt lat="45.77189" lon="6.71372">
        <ele>1591.12</ele>
        <time>2022-01-23T14:06:00Z</time>
      </trkpt>
      <trkpt lat="45.7719" lon="6.71373">
        <ele>1594.96</ele>
        <time>2022-01-23T14:06:05Z</time>
      </trkpt>
      <trkpt lat="45.7719" lon="6.71373">
        <ele>1602.17</ele>
        <time>2022-01-23T14:06:06Z</time>
      </trkpt>
      <trkpt lat="45.7719" lon="6.71373">
        <ele>1609.38</ele>
        <time>2022-01-23T14:06:07Z</time>
      </trkpt>
      <trkpt lat="45.7719" lon="6.71374">
        <ele>1613.71</ele>
        <time>2022-01-23T14:06:08Z</time>
      </trkpt>
      <trkpt lat="45.7719" lon="6.71373">
        <ele>1616.59</ele>
        <time>2022-01-23T14:06:10Z</time>
      </trkpt>
      <trkpt lat="45.7719" lon="6.71372">
        <ele>1613.23</ele>
        <time>2022-01-23T14:06:13Z</time>
      </trkpt>
      <trkpt lat="45.7719" lon="6.71372">
        <ele>1609.38</ele>
        <time>2022-01-23T14:06:15Z</time>
      </trkpt>
      <trkpt lat="45.7719" lon="6.71369">
        <ele>1606.98</ele>
        <time>2022-01-23T14:06:19Z</time>
      </trkpt>
      <trkpt lat="45.77191" lon="6.71368">
        <ele>1604.1</ele>
        <time>2022-01-23T14:06:40Z</time>
      </trkpt>
      <trkpt lat="45.77189" lon="6.71372">
        <ele>1604.58</ele>
        <time>2022-01-23T14:07:08Z</time>
      </trkpt>
      <trkpt lat="45.77193" lon="6.71408">
        <ele>1601.69</ele>
        <time>2022-01-23T14:07:16Z</time>
      </trkpt>
      <trkpt lat="45.77194" lon="6.7141">
        <ele>1599.29</ele>
        <time>2022-01-23T14:07:18Z</time>
      </trkpt>
      <trkpt lat="45.77198" lon="6.7142">
        <ele>1597.37</ele>
        <time>2022-01-23T14:07:22Z</time>
      </trkpt>
      <trkpt lat="45.77201" lon="6.71436">
        <ele>1595.93</ele>
        <time>2022-01-23T14:07:25Z</time>
      </trkpt>
      <trkpt lat="45.77205" lon="6.71457">
        <ele>1592.08</ele>
        <time>2022-01-23T14:07:30Z</time>
      </trkpt>
      <trkpt lat="45.77205" lon="6.71459">
        <ele>1588.72</ele>
        <time>2022-01-23T14:07:34Z</time>
      </trkpt>
      <trkpt lat="45.77205" lon="6.71461">
        <ele>1587.75</ele>
        <time>2022-01-23T14:07:36Z</time>
      </trkpt>
      <trkpt lat="45.77214" lon="6.71492">
        <ele>1584.39</ele>
        <time>2022-01-23T14:07:45Z</time>
      </trkpt>
      <trkpt lat="45.77211" lon="6.71498">
        <ele>1581.03</ele>
        <time>2022-01-23T14:07:50Z</time>
      </trkpt>
      <trkpt lat="45.7721" lon="6.71497">
        <ele>1577.66</ele>
        <time>2022-01-23T14:07:52Z</time>
      </trkpt>
      <trkpt lat="45.7721" lon="6.71497">
        <ele>1577.66</ele>
        <time>2022-01-23T14:07:53Z</time>
      </trkpt>
      <trkpt lat="45.77207" lon="6.71499">
        <ele>1581.99</ele>
        <time>2022-01-23T14:07:58Z</time>
      </trkpt>
      <trkpt lat="45.77207" lon="6.71499">
        <ele>1580.06</ele>
        <time>2022-01-23T14:08:05Z</time>
      </trkpt>
      <trkpt lat="45.77214" lon="6.71505">
        <ele>1577.66</ele>
        <time>2022-01-23T14:08:19Z</time>
      </trkpt>
      <trkpt lat="45.77217" lon="6.71507">
        <ele>1577.18</ele>
        <time>2022-01-23T14:08:23Z</time>
      </trkpt>
      <trkpt lat="45.7723" lon="6.71515">
        <ele>1575.26</ele>
        <time>2022-01-23T14:08:34Z</time>
      </trkpt>
      <trkpt lat="45.77239" lon="6.71521">
        <ele>1574.78</ele>
        <time>2022-01-23T14:08:39Z</time>
      </trkpt>
      <trkpt lat="45.77253" lon="6.71555">
        <ele>1571.89</ele>
        <time>2022-01-23T14:08:47Z</time>
      </trkpt>
      <trkpt lat="45.77258" lon="6.71557">
        <ele>1570.93</ele>
        <time>2022-01-23T14:08:48Z</time>
      </trkpt>
      <trkpt lat="45.77263" lon="6.7156">
        <ele>1569.97</ele>
        <time>2022-01-23T14:08:49Z</time>
      </trkpt>
      <trkpt lat="45.77281" lon="6.71568">
        <ele>1565.16</ele>
        <time>2022-01-23T14:08:53Z</time>
      </trkpt>
      <trkpt lat="45.77293" lon="6.71574">
        <ele>1562.28</ele>
        <time>2022-01-23T14:08:59Z</time>
      </trkpt>
      <trkpt lat="45.77312" lon="6.71581">
        <ele>1559.88</ele>
        <time>2022-01-23T14:09:14Z</time>
      </trkpt>
      <trkpt lat="45.77341" lon="6.71592">
        <ele>1557.47</ele>
        <time>2022-01-23T14:09:26Z</time>
      </trkpt>
      <trkpt lat="45.77349" lon="6.71596">
        <ele>1555.55</ele>
        <time>2022-01-23T14:09:38Z</time>
      </trkpt>
      <trkpt lat="45.77354" lon="6.71598">
        <ele>1556.03</ele>
        <time>2022-01-23T14:09:41Z</time>
      </trkpt>
      <trkpt lat="45.77359" lon="6.71598">
        <ele>1556.03</ele>
        <time>2022-01-23T14:09:43Z</time>
      </trkpt>
      <trkpt lat="45.77362" lon="6.71599">
        <ele>1556.03</ele>
        <time>2022-01-23T14:09:44Z</time>
      </trkpt>
      <trkpt lat="45.77364" lon="6.716">
        <ele>1551.71</ele>
        <time>2022-01-23T14:09:53Z</time>
      </trkpt>
      <trkpt lat="45.77364" lon="6.716">
        <ele>1544.01</ele>
        <time>2022-01-23T14:09:54Z</time>
      </trkpt>
      <trkpt lat="45.77364" lon="6.716">
        <ele>1541.13</ele>
        <time>2022-01-23T14:09:55Z</time>
      </trkpt>
      <trkpt lat="45.77365" lon="6.71601">
        <ele>1550.26</ele>
        <time>2022-01-23T14:09:59Z</time>
      </trkpt>
      <trkpt lat="45.77365" lon="6.71601">
        <ele>1557.47</ele>
        <time>2022-01-23T14:10:00Z</time>
      </trkpt>
      <trkpt lat="45.77365" lon="6.71601">
        <ele>1561.8</ele>
        <time>2022-01-23T14:10:01Z</time>
      </trkpt>
      <trkpt lat="45.77365" lon="6.71601">
        <ele>1563.72</ele>
        <time>2022-01-23T14:10:03Z</time>
      </trkpt>
      <trkpt lat="45.77365" lon="6.71601">
        <ele>1560.36</ele>
        <time>2022-01-23T14:10:05Z</time>
      </trkpt>
      <trkpt lat="45.77365" lon="6.71601">
        <ele>1557.47</ele>
        <time>2022-01-23T14:10:09Z</time>
      </trkpt>
      <trkpt lat="45.77365" lon="6.71601">
        <ele>1553.63</ele>
        <time>2022-01-23T14:10:14Z</time>
      </trkpt>
      <trkpt lat="45.77366" lon="6.71602">
        <ele>1554.59</ele>
        <time>2022-01-23T14:10:54Z</time>
      </trkpt>
      <trkpt lat="45.77367" lon="6.71601">
        <ele>1553.63</ele>
        <time>2022-01-23T14:11:13Z</time>
      </trkpt>
      <trkpt lat="45.7737" lon="6.716">
        <ele>1554.11</ele>
        <time>2022-01-23T14:11:18Z</time>
      </trkpt>
      <trkpt lat="45.77373" lon="6.716">
        <ele>1553.63</ele>
        <time>2022-01-23T14:11:19Z</time>
      </trkpt>
      <trkpt lat="45.77375" lon="6.716">
        <ele>1554.11</ele>
        <time>2022-01-23T14:11:20Z</time>
      </trkpt>
      <trkpt lat="45.77379" lon="6.716">
        <ele>1554.11</ele>
        <time>2022-01-23T14:11:21Z</time>
      </trkpt>
      <trkpt lat="45.77382" lon="6.71599">
        <ele>1554.11</ele>
        <time>2022-01-23T14:11:22Z</time>
      </trkpt>
      <trkpt lat="45.77386" lon="6.71598">
        <ele>1554.11</ele>
        <time>2022-01-23T14:11:23Z</time>
      </trkpt>
      <trkpt lat="45.77407" lon="6.71599">
        <ele>1552.19</ele>
        <time>2022-01-23T14:11:29Z</time>
      </trkpt>
      <trkpt lat="45.77422" lon="6.71602">
        <ele>1549.78</ele>
        <time>2022-01-23T14:11:40Z</time>
      </trkpt>
      <trkpt lat="45.77432" lon="6.71598">
        <ele>1547.86</ele>
        <time>2022-01-23T14:12:06Z</time>
      </trkpt>
      <trkpt lat="45.77434" lon="6.71598">
        <ele>1547.86</ele>
        <time>2022-01-23T14:12:07Z</time>
      </trkpt>
      <trkpt lat="45.77435" lon="6.71598">
        <ele>1547.38</ele>
        <time>2022-01-23T14:12:08Z</time>
      </trkpt>
      <trkpt lat="45.77436" lon="6.71599">
        <ele>1547.38</ele>
        <time>2022-01-23T14:12:09Z</time>
      </trkpt>
      <trkpt lat="45.77438" lon="6.71599">
        <ele>1547.38</ele>
        <time>2022-01-23T14:12:10Z</time>
      </trkpt>
      <trkpt lat="45.7744" lon="6.716">
        <ele>1546.9</ele>
        <time>2022-01-23T14:12:11Z</time>
      </trkpt>
      <trkpt lat="45.77441" lon="6.71601">
        <ele>1546.9</ele>
        <time>2022-01-23T14:12:12Z</time>
      </trkpt>
      <trkpt lat="45.77442" lon="6.71601">
        <ele>1546.42</ele>
        <time>2022-01-23T14:12:13Z</time>
      </trkpt>
      <trkpt lat="45.77444" lon="6.71602">
        <ele>1545.94</ele>
        <time>2022-01-23T14:12:14Z</time>
      </trkpt>
      <trkpt lat="45.77466" lon="6.71592">
        <ele>1544.01</ele>
        <time>2022-01-23T14:12:24Z</time>
      </trkpt>
      <trkpt lat="45.77475" lon="6.71591">
        <ele>1542.09</ele>
        <time>2022-01-23T14:12:51Z</time>
      </trkpt>
      <trkpt lat="45.77477" lon="6.71591">
        <ele>1542.09</ele>
        <time>2022-01-23T14:12:52Z</time>
      </trkpt>
      <trkpt lat="45.77479" lon="6.71593">
        <ele>1541.13</ele>
        <time>2022-01-23T14:13:02Z</time>
      </trkpt>
      <trkpt lat="45.77487" lon="6.71594">
        <ele>1537.77</ele>
        <time>2022-01-23T14:13:11Z</time>
      </trkpt>
      <trkpt lat="45.77488" lon="6.71594">
        <ele>1533.44</ele>
        <time>2022-01-23T14:13:13Z</time>
      </trkpt>
      <trkpt lat="45.77489" lon="6.71594">
        <ele>1529.59</ele>
        <time>2022-01-23T14:13:14Z</time>
      </trkpt>
      <trkpt lat="45.77489" lon="6.71594">
        <ele>1524.31</ele>
        <time>2022-01-23T14:13:15Z</time>
      </trkpt>
      <trkpt lat="45.7749" lon="6.71594">
        <ele>1515.66</ele>
        <time>2022-01-23T14:13:16Z</time>
      </trkpt>
      <trkpt lat="45.77491" lon="6.71599">
        <ele>1512.77</ele>
        <time>2022-01-23T14:13:19Z</time>
      </trkpt>
      <trkpt lat="45.77491" lon="6.71599">
        <ele>1516.62</ele>
        <time>2022-01-23T14:13:20Z</time>
      </trkpt>
      <trkpt lat="45.77492" lon="6.71599">
        <ele>1524.79</ele>
        <time>2022-01-23T14:13:21Z</time>
      </trkpt>
      <trkpt lat="45.77494" lon="6.71598">
        <ele>1532</ele>
        <time>2022-01-23T14:13:22Z</time>
      </trkpt>
      <trkpt lat="45.77497" lon="6.71598">
        <ele>1536.8</ele>
        <time>2022-01-23T14:13:23Z</time>
      </trkpt>
      <trkpt lat="45.77499" lon="6.71595">
        <ele>1540.17</ele>
        <time>2022-01-23T14:13:25Z</time>
      </trkpt>
      <trkpt lat="45.77512" lon="6.71589">
        <ele>1537.29</ele>
        <time>2022-01-23T14:13:44Z</time>
      </trkpt>
      <trkpt lat="45.77522" lon="6.71588">
        <ele>1534.4</ele>
        <time>2022-01-23T14:13:59Z</time>
      </trkpt>
      <trkpt lat="45.77534" lon="6.71584">
        <ele>1531.52</ele>
        <time>2022-01-23T14:14:15Z</time>
      </trkpt>
      <trkpt lat="45.77535" lon="6.71585">
        <ele>1531.52</ele>
        <time>2022-01-23T14:14:40Z</time>
      </trkpt>
      <trkpt lat="45.77535" lon="6.71584">
        <ele>1530.08</ele>
        <time>2022-01-23T14:15:38Z</time>
      </trkpt>
      <trkpt lat="45.77536" lon="6.7158">
        <ele>1527.19</ele>
        <time>2022-01-23T14:16:09Z</time>
      </trkpt>
      <trkpt lat="45.77542" lon="6.71571">
        <ele>1524.79</ele>
        <time>2022-01-23T14:16:20Z</time>
      </trkpt>
      <trkpt lat="45.77569" lon="6.71565">
        <ele>1523.83</ele>
        <time>2022-01-23T14:16:27Z</time>
      </trkpt>
      <trkpt lat="45.77585" lon="6.71537">
        <ele>1519.98</ele>
        <time>2022-01-23T14:16:44Z</time>
      </trkpt>
      <trkpt lat="45.77601" lon="6.71516">
        <ele>1517.1</ele>
        <time>2022-01-23T14:17:05Z</time>
      </trkpt>
      <trkpt lat="45.77613" lon="6.71511">
        <ele>1514.21</ele>
        <time>2022-01-23T14:17:21Z</time>
      </trkpt>
      <trkpt lat="45.77632" lon="6.71501">
        <ele>1510.85</ele>
        <time>2022-01-23T14:17:38Z</time>
      </trkpt>
      <trkpt lat="45.77636" lon="6.71499">
        <ele>1510.37</ele>
        <time>2022-01-23T14:17:43Z</time>
      </trkpt>
      <trkpt lat="45.77661" lon="6.71499">
        <ele>1507.97</ele>
        <time>2022-01-23T14:18:04Z</time>
      </trkpt>
      <trkpt lat="45.77667" lon="6.71501">
        <ele>1507</ele>
        <time>2022-01-23T14:18:10Z</time>
      </trkpt>
      <trkpt lat="45.7768" lon="6.71499">
        <ele>1504.12</ele>
        <time>2022-01-23T14:18:28Z</time>
      </trkpt>
      <trkpt lat="45.77694" lon="6.71492">
        <ele>1500.76</ele>
        <time>2022-01-23T14:18:41Z</time>
      </trkpt>
      <trkpt lat="45.77696" lon="6.7149">
        <ele>1500.27</ele>
        <time>2022-01-23T14:18:44Z</time>
      </trkpt>
      <trkpt lat="45.77707" lon="6.71475">
        <ele>1496.91</ele>
        <time>2022-01-23T14:19:00Z</time>
      </trkpt>
      <trkpt lat="45.77723" lon="6.71462">
        <ele>1494.03</ele>
        <time>2022-01-23T14:19:17Z</time>
      </trkpt>
      <trkpt lat="45.77734" lon="6.71452">
        <ele>1490.66</ele>
        <time>2022-01-23T14:19:32Z</time>
      </trkpt>
      <trkpt lat="45.77739" lon="6.71451">
        <ele>1489.7</ele>
        <time>2022-01-23T14:19:40Z</time>
      </trkpt>
      <trkpt lat="45.77753" lon="6.71445">
        <ele>1486.82</ele>
        <time>2022-01-23T14:19:56Z</time>
      </trkpt>
      <trkpt lat="45.77759" lon="6.71445">
        <ele>1484.89</ele>
        <time>2022-01-23T14:20:01Z</time>
      </trkpt>
      <trkpt lat="45.7776" lon="6.71446">
        <ele>1484.41</ele>
        <time>2022-01-23T14:20:02Z</time>
      </trkpt>
      <trkpt lat="45.77769" lon="6.71441">
        <ele>1483.45</ele>
        <time>2022-01-23T14:20:20Z</time>
      </trkpt>
      <trkpt lat="45.77781" lon="6.71435">
        <ele>1480.09</ele>
        <time>2022-01-23T14:20:32Z</time>
      </trkpt>
      <trkpt lat="45.77786" lon="6.71432">
        <ele>1479.61</ele>
        <time>2022-01-23T14:20:37Z</time>
      </trkpt>
      <trkpt lat="45.77811" lon="6.71432">
        <ele>1476.72</ele>
        <time>2022-01-23T14:21:02Z</time>
      </trkpt>
      <trkpt lat="45.77814" lon="6.71437">
        <ele>1476.24</ele>
        <time>2022-01-23T14:21:06Z</time>
      </trkpt>
      <trkpt lat="45.77822" lon="6.71453">
        <ele>1473.36</ele>
        <time>2022-01-23T14:21:18Z</time>
      </trkpt>
      <trkpt lat="45.77829" lon="6.71464">
        <ele>1470.47</ele>
        <time>2022-01-23T14:21:30Z</time>
      </trkpt>
      <trkpt lat="45.77833" lon="6.7147">
        <ele>1469.99</ele>
        <time>2022-01-23T14:21:34Z</time>
      </trkpt>
      <trkpt lat="45.77844" lon="6.71486">
        <ele>1467.59</ele>
        <time>2022-01-23T14:21:53Z</time>
      </trkpt>
      <trkpt lat="45.77846" lon="6.71486">
        <ele>1466.15</ele>
        <time>2022-01-23T14:22:33Z</time>
      </trkpt>
      <trkpt lat="45.77846" lon="6.71488">
        <ele>1459.42</ele>
        <time>2022-01-23T14:23:02Z</time>
      </trkpt>
      <trkpt lat="45.77846" lon="6.71488">
        <ele>1456.05</ele>
        <time>2022-01-23T14:23:04Z</time>
      </trkpt>
      <trkpt lat="45.77846" lon="6.71488">
        <ele>1461.82</ele>
        <time>2022-01-23T14:23:21Z</time>
      </trkpt>
      <trkpt lat="45.77846" lon="6.71488">
        <ele>1465.67</ele>
        <time>2022-01-23T14:23:22Z</time>
      </trkpt>
      <trkpt lat="45.77846" lon="6.71488">
        <ele>1469.03</ele>
        <time>2022-01-23T14:23:24Z</time>
      </trkpt>
      <trkpt lat="45.77846" lon="6.71488">
        <ele>1469.03</ele>
        <time>2022-01-23T14:23:25Z</time>
      </trkpt>
      <trkpt lat="45.77852" lon="6.71486">
        <ele>1468.07</ele>
        <time>2022-01-23T14:23:32Z</time>
      </trkpt>
      <trkpt lat="45.77857" lon="6.71487">
        <ele>1467.59</ele>
        <time>2022-01-23T14:23:34Z</time>
      </trkpt>
      <trkpt lat="45.77859" lon="6.71488">
        <ele>1467.11</ele>
        <time>2022-01-23T14:23:35Z</time>
      </trkpt>
      <trkpt lat="45.77865" lon="6.71491">
        <ele>1463.74</ele>
        <time>2022-01-23T14:23:41Z</time>
      </trkpt>
      <trkpt lat="45.77866" lon="6.71491">
        <ele>1462.78</ele>
        <time>2022-01-23T14:23:43Z</time>
      </trkpt>
      <trkpt lat="45.77867" lon="6.71494">
        <ele>1462.78</ele>
        <time>2022-01-23T14:23:46Z</time>
      </trkpt>
      <trkpt lat="45.77867" lon="6.71496">
        <ele>1462.3</ele>
        <time>2022-01-23T14:23:47Z</time>
      </trkpt>
      <trkpt lat="45.77865" lon="6.71512">
        <ele>1459.9</ele>
        <time>2022-01-23T14:23:57Z</time>
      </trkpt>
      <trkpt lat="45.77865" lon="6.71514">
        <ele>1459.42</ele>
        <time>2022-01-23T14:24:05Z</time>
      </trkpt>
      <trkpt lat="45.77869" lon="6.71534">
        <ele>1457.98</ele>
        <time>2022-01-23T14:24:13Z</time>
      </trkpt>
      <trkpt lat="45.7787" lon="6.71541">
        <ele>1457.02</ele>
        <time>2022-01-23T14:24:15Z</time>
      </trkpt>
      <trkpt lat="45.77874" lon="6.7156">
        <ele>1452.69</ele>
        <time>2022-01-23T14:24:24Z</time>
      </trkpt>
      <trkpt lat="45.77875" lon="6.71562">
        <ele>1451.25</ele>
        <time>2022-01-23T14:24:28Z</time>
      </trkpt>
      <trkpt lat="45.77882" lon="6.71591">
        <ele>1448.36</ele>
        <time>2022-01-23T14:24:38Z</time>
      </trkpt>
      <trkpt lat="45.77896" lon="6.71603">
        <ele>1445.48</ele>
        <time>2022-01-23T14:24:45Z</time>
      </trkpt>
      <trkpt lat="45.77899" lon="6.71604">
        <ele>1442.6</ele>
        <time>2022-01-23T14:24:52Z</time>
      </trkpt>
      <trkpt lat="45.77909" lon="6.7161">
        <ele>1441.63</ele>
        <time>2022-01-23T14:24:57Z</time>
      </trkpt>
      <trkpt lat="45.77914" lon="6.71609">
        <ele>1441.63</ele>
        <time>2022-01-23T14:24:59Z</time>
      </trkpt>
      <trkpt lat="45.77917" lon="6.7161">
        <ele>1440.67</ele>
        <time>2022-01-23T14:25:04Z</time>
      </trkpt>
      <trkpt lat="45.77932" lon="6.71611">
        <ele>1439.71</ele>
        <time>2022-01-23T14:25:10Z</time>
      </trkpt>
      <trkpt lat="45.7795" lon="6.71615">
        <ele>1437.31</ele>
        <time>2022-01-23T14:25:15Z</time>
      </trkpt>
      <trkpt lat="45.77951" lon="6.71615">
        <ele>1436.83</ele>
        <time>2022-01-23T14:25:16Z</time>
      </trkpt>
      <trkpt lat="45.77955" lon="6.71617">
        <ele>1435.39</ele>
        <time>2022-01-23T14:25:25Z</time>
      </trkpt>
      <trkpt lat="45.77961" lon="6.71625">
        <ele>1434.42</ele>
        <time>2022-01-23T14:25:30Z</time>
      </trkpt>
      <trkpt lat="45.77963" lon="6.71624">
        <ele>1433.94</ele>
        <time>2022-01-23T14:25:31Z</time>
      </trkpt>
      <trkpt lat="45.77966" lon="6.71622">
        <ele>1433.46</ele>
        <time>2022-01-23T14:25:32Z</time>
      </trkpt>
      <trkpt lat="45.77975" lon="6.7162">
        <ele>1432.5</ele>
        <time>2022-01-23T14:25:41Z</time>
      </trkpt>
      <trkpt lat="45.77976" lon="6.7162">
        <ele>1432.02</ele>
        <time>2022-01-23T14:25:42Z</time>
      </trkpt>
      <trkpt lat="45.77978" lon="6.7162">
        <ele>1432.02</ele>
        <time>2022-01-23T14:25:43Z</time>
      </trkpt>
      <trkpt lat="45.77981" lon="6.7162">
        <ele>1432.02</ele>
        <time>2022-01-23T14:25:44Z</time>
      </trkpt>
      <trkpt lat="45.77983" lon="6.7162">
        <ele>1432.02</ele>
        <time>2022-01-23T14:25:45Z</time>
      </trkpt>
      <trkpt lat="45.77995" lon="6.71618">
        <ele>1430.58</ele>
        <time>2022-01-23T14:25:55Z</time>
      </trkpt>
      <trkpt lat="45.78001" lon="6.71617">
        <ele>1430.1</ele>
        <time>2022-01-23T14:25:58Z</time>
      </trkpt>
      <trkpt lat="45.78025" lon="6.71612">
        <ele>1428.18</ele>
        <time>2022-01-23T14:26:08Z</time>
      </trkpt>
      <trkpt lat="45.78053" lon="6.71607">
        <ele>1425.77</ele>
        <time>2022-01-23T14:26:25Z</time>
      </trkpt>
      <trkpt lat="45.78064" lon="6.71595">
        <ele>1423.37</ele>
        <time>2022-01-23T14:26:36Z</time>
      </trkpt>
      <trkpt lat="45.78066" lon="6.7159">
        <ele>1423.37</ele>
        <time>2022-01-23T14:26:40Z</time>
      </trkpt>
      <trkpt lat="45.78067" lon="6.71588">
        <ele>1423.37</ele>
        <time>2022-01-23T14:26:41Z</time>
      </trkpt>
      <trkpt lat="45.78067" lon="6.71587">
        <ele>1423.37</ele>
        <time>2022-01-23T14:26:42Z</time>
      </trkpt>
      <trkpt lat="45.78067" lon="6.71584">
        <ele>1422.89</ele>
        <time>2022-01-23T14:26:43Z</time>
      </trkpt>
      <trkpt lat="45.78068" lon="6.71581">
        <ele>1422.89</ele>
        <time>2022-01-23T14:26:44Z</time>
      </trkpt>
      <trkpt lat="45.78078" lon="6.71544">
        <ele>1421.45</ele>
        <time>2022-01-23T14:26:55Z</time>
      </trkpt>
      <trkpt lat="45.78079" lon="6.71531">
        <ele>1420.49</ele>
        <time>2022-01-23T14:27:03Z</time>
      </trkpt>
      <trkpt lat="45.78079" lon="6.71528">
        <ele>1420.49</ele>
        <time>2022-01-23T14:27:04Z</time>
      </trkpt>
      <trkpt lat="45.78078" lon="6.71525">
        <ele>1420</ele>
        <time>2022-01-23T14:27:05Z</time>
      </trkpt>
      <trkpt lat="45.78077" lon="6.71519">
        <ele>1419.52</ele>
        <time>2022-01-23T14:27:17Z</time>
      </trkpt>
      <trkpt lat="45.7808" lon="6.71522">
        <ele>1419.52</ele>
        <time>2022-01-23T14:27:19Z</time>
      </trkpt>
      <trkpt lat="45.78081" lon="6.71523">
        <ele>1419.52</ele>
        <time>2022-01-23T14:27:20Z</time>
      </trkpt>
      <trkpt lat="45.7808" lon="6.71522">
        <ele>1415.68</ele>
        <time>2022-01-23T14:27:28Z</time>
      </trkpt>
      <trkpt lat="45.78079" lon="6.71522">
        <ele>1411.83</ele>
        <time>2022-01-23T14:27:29Z</time>
      </trkpt>
      <trkpt lat="45.78079" lon="6.71522">
        <ele>1407.51</ele>
        <time>2022-01-23T14:27:30Z</time>
      </trkpt>
      <trkpt lat="45.78079" lon="6.71522">
        <ele>1403.66</ele>
        <time>2022-01-23T14:27:32Z</time>
      </trkpt>
      <trkpt lat="45.78079" lon="6.71522">
        <ele>1401.74</ele>
        <time>2022-01-23T14:27:34Z</time>
      </trkpt>
      <trkpt lat="45.78079" lon="6.71522">
        <ele>1404.62</ele>
        <time>2022-01-23T14:27:36Z</time>
      </trkpt>
      <trkpt lat="45.78078" lon="6.71522">
        <ele>1409.91</ele>
        <time>2022-01-23T14:27:37Z</time>
      </trkpt>
      <trkpt lat="45.78079" lon="6.71522">
        <ele>1424.81</ele>
        <time>2022-01-23T14:27:38Z</time>
      </trkpt>
      <trkpt lat="45.78078" lon="6.71521">
        <ele>1427.7</ele>
        <time>2022-01-23T14:27:39Z</time>
      </trkpt>
      <trkpt lat="45.78078" lon="6.7152">
        <ele>1423.85</ele>
        <time>2022-01-23T14:27:47Z</time>
      </trkpt>
      <trkpt lat="45.78078" lon="6.7152">
        <ele>1420.97</ele>
        <time>2022-01-23T14:27:49Z</time>
      </trkpt>
      <trkpt lat="45.78078" lon="6.7152">
        <ele>1420</ele>
        <time>2022-01-23T14:27:51Z</time>
      </trkpt>
      <trkpt lat="45.78078" lon="6.7152">
        <ele>1417.12</ele>
        <time>2022-01-23T14:28:07Z</time>
      </trkpt>
      <trkpt lat="45.78078" lon="6.7152">
        <ele>1420</ele>
        <time>2022-01-23T14:28:26Z</time>
      </trkpt>
      <trkpt lat="45.78079" lon="6.7152">
        <ele>1417.12</ele>
        <time>2022-01-23T14:28:47Z</time>
      </trkpt>
      <trkpt lat="45.78079" lon="6.7152">
        <ele>1420.49</ele>
        <time>2022-01-23T14:29:01Z</time>
      </trkpt>
      <trkpt lat="45.78078" lon="6.7152">
        <ele>1420.49</ele>
        <time>2022-01-23T14:29:02Z</time>
      </trkpt>
      <trkpt lat="45.78078" lon="6.71519">
        <ele>1417.6</ele>
        <time>2022-01-23T14:29:15Z</time>
      </trkpt>
      <trkpt lat="45.78078" lon="6.71519">
        <ele>1418.56</ele>
        <time>2022-01-23T14:29:26Z</time>
      </trkpt>
      <trkpt lat="45.78081" lon="6.71517">
        <ele>1415.2</ele>
        <time>2022-01-23T14:29:43Z</time>
      </trkpt>
      <trkpt lat="45.78087" lon="6.71519">
        <ele>1412.31</ele>
        <time>2022-01-23T14:29:58Z</time>
      </trkpt>
      <trkpt lat="45.78096" lon="6.71522">
        <ele>1408.95</ele>
        <time>2022-01-23T14:30:10Z</time>
      </trkpt>
      <trkpt lat="45.78126" lon="6.71536">
        <ele>1405.58</ele>
        <time>2022-01-23T14:30:24Z</time>
      </trkpt>
      <trkpt lat="45.78145" lon="6.71545">
        <ele>1403.66</ele>
        <time>2022-01-23T14:30:41Z</time>
      </trkpt>
      <trkpt lat="45.78149" lon="6.71555">
        <ele>1403.66</ele>
        <time>2022-01-23T14:30:59Z</time>
      </trkpt>
      <trkpt lat="45.78145" lon="6.71555">
        <ele>1403.66</ele>
        <time>2022-01-23T14:31:06Z</time>
      </trkpt>
      <trkpt lat="45.78153" lon="6.71553">
        <ele>1403.66</ele>
        <time>2022-01-23T14:31:12Z</time>
      </trkpt>
      <trkpt lat="45.78154" lon="6.71553">
        <ele>1403.66</ele>
        <time>2022-01-23T14:31:13Z</time>
      </trkpt>
      <trkpt lat="45.78174" lon="6.71549">
        <ele>1401.74</ele>
        <time>2022-01-23T14:31:33Z</time>
      </trkpt>
      <trkpt lat="45.7819" lon="6.71534">
        <ele>1400.3</ele>
        <time>2022-01-23T14:31:52Z</time>
      </trkpt>
      <trkpt lat="45.78201" lon="6.71529">
        <ele>1397.89</ele>
        <time>2022-01-23T14:32:10Z</time>
      </trkpt>
      <trkpt lat="45.78204" lon="6.71525">
        <ele>1395.01</ele>
        <time>2022-01-23T14:32:22Z</time>
      </trkpt>
      <trkpt lat="45.78218" lon="6.71525">
        <ele>1391.65</ele>
        <time>2022-01-23T14:32:41Z</time>
      </trkpt>
      <trkpt lat="45.78233" lon="6.71521">
        <ele>1388.76</ele>
        <time>2022-01-23T14:33:01Z</time>
      </trkpt>
      <trkpt lat="45.78255" lon="6.71509">
        <ele>1385.88</ele>
        <time>2022-01-23T14:33:19Z</time>
      </trkpt>
      <trkpt lat="45.78259" lon="6.71509">
        <ele>1385.4</ele>
        <time>2022-01-23T14:33:22Z</time>
      </trkpt>
      <trkpt lat="45.78267" lon="6.71509">
        <ele>1384.92</ele>
        <time>2022-01-23T14:33:28Z</time>
      </trkpt>
      <trkpt lat="45.78274" lon="6.71509">
        <ele>1383.96</ele>
        <time>2022-01-23T14:33:35Z</time>
      </trkpt>
      <trkpt lat="45.7829" lon="6.71501">
        <ele>1382.03</ele>
        <time>2022-01-23T14:33:51Z</time>
      </trkpt>
      <trkpt lat="45.78305" lon="6.71482">
        <ele>1379.63</ele>
        <time>2022-01-23T14:34:09Z</time>
      </trkpt>
      <trkpt lat="45.78305" lon="6.7148">
        <ele>1379.63</ele>
        <time>2022-01-23T14:34:10Z</time>
      </trkpt>
      <trkpt lat="45.78311" lon="6.71473">
        <ele>1379.15</ele>
        <time>2022-01-23T14:34:16Z</time>
      </trkpt>
      <trkpt lat="45.78324" lon="6.71456">
        <ele>1378.67</ele>
        <time>2022-01-23T14:34:33Z</time>
      </trkpt>
      <trkpt lat="45.78327" lon="6.71453">
        <ele>1378.67</ele>
        <time>2022-01-23T14:34:36Z</time>
      </trkpt>
      <trkpt lat="45.78332" lon="6.7145">
        <ele>1378.67</ele>
        <time>2022-01-23T14:34:40Z</time>
      </trkpt>
      <trkpt lat="45.78336" lon="6.71428">
        <ele>1378.19</ele>
        <time>2022-01-23T14:34:57Z</time>
      </trkpt>
      <trkpt lat="45.78345" lon="6.71407">
        <ele>1378.19</ele>
        <time>2022-01-23T14:35:12Z</time>
      </trkpt>
      <trkpt lat="45.7835" lon="6.71393">
        <ele>1376.26</ele>
        <time>2022-01-23T14:35:26Z</time>
      </trkpt>
      <trkpt lat="45.78358" lon="6.71365">
        <ele>1373.86</ele>
        <time>2022-01-23T14:35:47Z</time>
      </trkpt>
      <trkpt lat="45.78367" lon="6.71348">
        <ele>1372.42</ele>
        <time>2022-01-23T14:36:02Z</time>
      </trkpt>
      <trkpt lat="45.7837" lon="6.71346">
        <ele>1371.94</ele>
        <time>2022-01-23T14:36:04Z</time>
      </trkpt>
      <trkpt lat="45.78384" lon="6.71328">
        <ele>1369.05</ele>
        <time>2022-01-23T14:36:22Z</time>
      </trkpt>
      <trkpt lat="45.78405" lon="6.71322">
        <ele>1368.09</ele>
        <time>2022-01-23T14:36:39Z</time>
      </trkpt>
      <trkpt lat="45.78429" lon="6.71318">
        <ele>1367.13</ele>
        <time>2022-01-23T14:36:57Z</time>
      </trkpt>
      <trkpt lat="45.78447" lon="6.71299">
        <ele>1365.21</ele>
        <time>2022-01-23T14:37:14Z</time>
      </trkpt>
      <trkpt lat="45.78448" lon="6.71298">
        <ele>1364.73</ele>
        <time>2022-01-23T14:37:15Z</time>
      </trkpt>
      <trkpt lat="45.78459" lon="6.7128">
        <ele>1362.33</ele>
        <time>2022-01-23T14:37:34Z</time>
      </trkpt>
      <trkpt lat="45.78472" lon="6.7128">
        <ele>1358.96</ele>
        <time>2022-01-23T14:37:49Z</time>
      </trkpt>
      <trkpt lat="45.78486" lon="6.71279">
        <ele>1357.52</ele>
        <time>2022-01-23T14:37:59Z</time>
      </trkpt>
      <trkpt lat="45.78496" lon="6.71272">
        <ele>1354.15</ele>
        <time>2022-01-23T14:38:12Z</time>
      </trkpt>
      <trkpt lat="45.7851" lon="6.71276">
        <ele>1352.23</ele>
        <time>2022-01-23T14:38:27Z</time>
      </trkpt>
      <trkpt lat="45.78516" lon="6.71277">
        <ele>1350.31</ele>
        <time>2022-01-23T14:38:33Z</time>
      </trkpt>
      <trkpt lat="45.78534" lon="6.71283">
        <ele>1347.43</ele>
        <time>2022-01-23T14:39:03Z</time>
      </trkpt>
      <trkpt lat="45.78538" lon="6.71283">
        <ele>1346.94</ele>
        <time>2022-01-23T14:39:05Z</time>
      </trkpt>
      <trkpt lat="45.78539" lon="6.71283">
        <ele>1346.46</ele>
        <time>2022-01-23T14:39:07Z</time>
      </trkpt>
      <trkpt lat="45.78554" lon="6.71283">
        <ele>1343.58</ele>
        <time>2022-01-23T14:39:24Z</time>
      </trkpt>
      <trkpt lat="45.78558" lon="6.71284">
        <ele>1343.58</ele>
        <time>2022-01-23T14:39:30Z</time>
      </trkpt>
      <trkpt lat="45.78577" lon="6.71286">
        <ele>1341.18</ele>
        <time>2022-01-23T14:39:48Z</time>
      </trkpt>
      <trkpt lat="45.78583" lon="6.71283">
        <ele>1340.22</ele>
        <time>2022-01-23T14:39:56Z</time>
      </trkpt>
      <trkpt lat="45.78587" lon="6.71281">
        <ele>1339.73</ele>
        <time>2022-01-23T14:39:59Z</time>
      </trkpt>
      <trkpt lat="45.78602" lon="6.71287">
        <ele>1337.81</ele>
        <time>2022-01-23T14:40:14Z</time>
      </trkpt>
      <trkpt lat="45.78613" lon="6.71296">
        <ele>1336.37</ele>
        <time>2022-01-23T14:40:32Z</time>
      </trkpt>
      <trkpt lat="45.78627" lon="6.71301">
        <ele>1334.93</ele>
        <time>2022-01-23T14:40:44Z</time>
      </trkpt>
      <trkpt lat="45.78634" lon="6.71299">
        <ele>1333.97</ele>
        <time>2022-01-23T14:40:48Z</time>
      </trkpt>
      <trkpt lat="45.78652" lon="6.71291">
        <ele>1330.6</ele>
        <time>2022-01-23T14:41:03Z</time>
      </trkpt>
      <trkpt lat="45.78661" lon="6.71296">
        <ele>1328.2</ele>
        <time>2022-01-23T14:41:18Z</time>
      </trkpt>
      <trkpt lat="45.78666" lon="6.71296">
        <ele>1327.72</ele>
        <time>2022-01-23T14:41:21Z</time>
      </trkpt>
      <trkpt lat="45.7868" lon="6.71301">
        <ele>1324.83</ele>
        <time>2022-01-23T14:41:38Z</time>
      </trkpt>
      <trkpt lat="45.78691" lon="6.7131">
        <ele>1321.47</ele>
        <time>2022-01-23T14:41:50Z</time>
      </trkpt>
      <trkpt lat="45.78701" lon="6.71315">
        <ele>1318.1</ele>
        <time>2022-01-23T14:42:02Z</time>
      </trkpt>
      <trkpt lat="45.78715" lon="6.71322">
        <ele>1315.22</ele>
        <time>2022-01-23T14:42:19Z</time>
      </trkpt>
      <trkpt lat="45.78739" lon="6.71325">
        <ele>1312.34</ele>
        <time>2022-01-23T14:42:37Z</time>
      </trkpt>
      <trkpt lat="45.78756" lon="6.71334">
        <ele>1309.93</ele>
        <time>2022-01-23T14:42:57Z</time>
      </trkpt>
      <trkpt lat="45.78768" lon="6.71344">
        <ele>1307.05</ele>
        <time>2022-01-23T14:43:13Z</time>
      </trkpt>
      <trkpt lat="45.78778" lon="6.71348">
        <ele>1306.09</ele>
        <time>2022-01-23T14:43:34Z</time>
      </trkpt>
      <trkpt lat="45.78764" lon="6.71347">
        <ele>1306.57</ele>
        <time>2022-01-23T14:43:59Z</time>
      </trkpt>
      <trkpt lat="45.78763" lon="6.71348">
        <ele>1306.57</ele>
        <time>2022-01-23T14:44:29Z</time>
      </trkpt>
      <trkpt lat="45.78769" lon="6.71365">
        <ele>1305.61</ele>
        <time>2022-01-23T14:45:02Z</time>
      </trkpt>
      <trkpt lat="45.78798" lon="6.71379">
        <ele>1303.69</ele>
        <time>2022-01-23T14:45:29Z</time>
      </trkpt>
      <trkpt lat="45.78812" lon="6.71392">
        <ele>1302.24</ele>
        <time>2022-01-23T14:45:45Z</time>
      </trkpt>
      <trkpt lat="45.78832" lon="6.71404">
        <ele>1299.36</ele>
        <time>2022-01-23T14:46:06Z</time>
      </trkpt>
      <trkpt lat="45.78856" lon="6.71414">
        <ele>1296.48</ele>
        <time>2022-01-23T14:46:25Z</time>
      </trkpt>
      <trkpt lat="45.78872" lon="6.71426">
        <ele>1293.11</ele>
        <time>2022-01-23T14:46:45Z</time>
      </trkpt>
      <trkpt lat="45.78905" lon="6.71439">
        <ele>1290.71</ele>
        <time>2022-01-23T14:47:15Z</time>
      </trkpt>
      <trkpt lat="45.78933" lon="6.71451">
        <ele>1288.3</ele>
        <time>2022-01-23T14:47:46Z</time>
      </trkpt>
      <trkpt lat="45.78951" lon="6.7146">
        <ele>1285.42</ele>
        <time>2022-01-23T14:48:17Z</time>
      </trkpt>
      <trkpt lat="45.78965" lon="6.71459">
        <ele>1282.06</ele>
        <time>2022-01-23T14:48:40Z</time>
      </trkpt>
      <trkpt lat="45.78969" lon="6.71464">
        <ele>1279.17</ele>
        <time>2022-01-23T14:49:06Z</time>
      </trkpt>
      <trkpt lat="45.78981" lon="6.71471">
        <ele>1275.81</ele>
        <time>2022-01-23T14:49:28Z</time>
      </trkpt>
      <trkpt lat="45.78996" lon="6.71478">
        <ele>1273.4</ele>
        <time>2022-01-23T14:50:01Z</time>
      </trkpt>
      <trkpt lat="45.78998" lon="6.71481">
        <ele>1270.52</ele>
        <time>2022-01-23T14:50:31Z</time>
      </trkpt>
      <trkpt lat="45.79003" lon="6.71494">
        <ele>1268.12</ele>
        <time>2022-01-23T14:51:08Z</time>
      </trkpt>
      <trkpt lat="45.79008" lon="6.71494">
        <ele>1265.23</ele>
        <time>2022-01-23T14:51:28Z</time>
      </trkpt>
      <trkpt lat="45.79012" lon="6.71496">
        <ele>1262.35</ele>
        <time>2022-01-23T14:51:35Z</time>
      </trkpt>
      <trkpt lat="45.7902" lon="6.71507">
        <ele>1258.98</ele>
        <time>2022-01-23T14:51:47Z</time>
      </trkpt>
      <trkpt lat="45.79031" lon="6.71524">
        <ele>1256.1</ele>
        <time>2022-01-23T14:52:02Z</time>
      </trkpt>
      <trkpt lat="45.79044" lon="6.71534">
        <ele>1252.74</ele>
        <time>2022-01-23T14:52:16Z</time>
      </trkpt>
      <trkpt lat="45.79059" lon="6.71535">
        <ele>1249.85</ele>
        <time>2022-01-23T14:52:28Z</time>
      </trkpt>
      <trkpt lat="45.79071" lon="6.71549">
        <ele>1246.49</ele>
        <time>2022-01-23T14:52:45Z</time>
      </trkpt>
      <trkpt lat="45.79085" lon="6.71551">
        <ele>1243.6</ele>
        <time>2022-01-23T14:52:59Z</time>
      </trkpt>
      <trkpt lat="45.79101" lon="6.71559">
        <ele>1240.24</ele>
        <time>2022-01-23T14:53:23Z</time>
      </trkpt>
      <trkpt lat="45.79102" lon="6.71569">
        <ele>1237.35</ele>
        <time>2022-01-23T14:53:42Z</time>
      </trkpt>
      <trkpt lat="45.79117" lon="6.71576">
        <ele>1233.99</ele>
        <time>2022-01-23T14:53:57Z</time>
      </trkpt>
      <trkpt lat="45.79126" lon="6.71583">
        <ele>1231.11</ele>
        <time>2022-01-23T14:54:11Z</time>
      </trkpt>
      <trkpt lat="45.79138" lon="6.71582">
        <ele>1228.22</ele>
        <time>2022-01-23T14:54:28Z</time>
      </trkpt>
      <trkpt lat="45.79143" lon="6.71594">
        <ele>1224.86</ele>
        <time>2022-01-23T14:54:40Z</time>
      </trkpt>
      <trkpt lat="45.79144" lon="6.716">
        <ele>1222.93</ele>
        <time>2022-01-23T14:54:51Z</time>
      </trkpt>
      <trkpt lat="45.79146" lon="6.71607">
        <ele>1221.97</ele>
        <time>2022-01-23T14:54:54Z</time>
      </trkpt>
      <trkpt lat="45.79154" lon="6.71618">
        <ele>1220.53</ele>
        <time>2022-01-23T14:55:17Z</time>
      </trkpt>
      <trkpt lat="45.79169" lon="6.71614">
        <ele>1220.05</ele>
        <time>2022-01-23T14:55:35Z</time>
      </trkpt>
      <trkpt lat="45.7917" lon="6.71614">
        <ele>1220.05</ele>
        <time>2022-01-23T14:56:01Z</time>
      </trkpt>
      <trkpt lat="45.79174" lon="6.71612">
        <ele>1221.01</ele>
        <time>2022-01-23T14:56:23Z</time>
      </trkpt>
      <trkpt lat="45.79175" lon="6.71612">
        <ele>1217.17</ele>
        <time>2022-01-23T14:56:28Z</time>
      </trkpt>
      <trkpt lat="45.79176" lon="6.71611">
        <ele>1221.97</ele>
        <time>2022-01-23T14:56:33Z</time>
      </trkpt>
      <trkpt lat="45.79177" lon="6.71611">
        <ele>1220.05</ele>
        <time>2022-01-23T14:57:00Z</time>
      </trkpt>
      <trkpt lat="45.79176" lon="6.71611">
        <ele>1220.05</ele>
        <time>2022-01-23T14:57:24Z</time>
      </trkpt>
      <trkpt lat="45.79176" lon="6.71611">
        <ele>1222.45</ele>
        <time>2022-01-23T14:57:38Z</time>
      </trkpt>
      <trkpt lat="45.79173" lon="6.71612">
        <ele>1220.05</ele>
        <time>2022-01-23T14:57:52Z</time>
      </trkpt>
      <trkpt lat="45.79174" lon="6.71612">
        <ele>1220.05</ele>
        <time>2022-01-23T14:58:15Z</time>
      </trkpt>
      <trkpt lat="45.79173" lon="6.7161">
        <ele>1220.53</ele>
        <time>2022-01-23T14:58:39Z</time>
      </trkpt>
      <trkpt lat="45.79167" lon="6.71612">
        <ele>1220.53</ele>
        <time>2022-01-23T14:59:04Z</time>
      </trkpt>
      <trkpt lat="45.7916" lon="6.71617">
        <ele>1220.53</ele>
        <time>2022-01-23T14:59:37Z</time>
      </trkpt>
      <trkpt lat="45.79164" lon="6.71627">
        <ele>1220.53</ele>
        <time>2022-01-23T15:00:08Z</time>
      </trkpt>
      <trkpt lat="45.79165" lon="6.7163">
        <ele>1220.53</ele>
        <time>2022-01-23T15:00:10Z</time>
      </trkpt>
      <trkpt lat="45.79169" lon="6.71655">
        <ele>1217.65</ele>
        <time>2022-01-23T15:00:20Z</time>
      </trkpt>
      <trkpt lat="45.79182" lon="6.7169">
        <ele>1215.72</ele>
        <time>2022-01-23T15:00:35Z</time>
      </trkpt>
      <trkpt lat="45.79189" lon="6.71697">
        <ele>1215.72</ele>
        <time>2022-01-23T15:00:40Z</time>
      </trkpt>
      <trkpt lat="45.79216" lon="6.7172">
        <ele>1215.24</ele>
        <time>2022-01-23T15:00:55Z</time>
      </trkpt>
      <trkpt lat="45.79223" lon="6.71723">
        <ele>1214.76</ele>
        <time>2022-01-23T15:00:58Z</time>
      </trkpt>
      <trkpt lat="45.79226" lon="6.71725">
        <ele>1214.76</ele>
        <time>2022-01-23T15:00:59Z</time>
      </trkpt>
      <trkpt lat="45.79228" lon="6.71726">
        <ele>1214.76</ele>
        <time>2022-01-23T15:01:00Z</time>
      </trkpt>
      <trkpt lat="45.79246" lon="6.71756">
        <ele>1213.8</ele>
        <time>2022-01-23T15:01:16Z</time>
      </trkpt>
      <trkpt lat="45.79259" lon="6.7177">
        <ele>1213.32</ele>
        <time>2022-01-23T15:01:26Z</time>
      </trkpt>
      <trkpt lat="45.79268" lon="6.71775">
        <ele>1212.84</ele>
        <time>2022-01-23T15:01:30Z</time>
      </trkpt>
      <trkpt lat="45.79297" lon="6.71791">
        <ele>1211.88</ele>
        <time>2022-01-23T15:01:48Z</time>
      </trkpt>
      <trkpt lat="45.79311" lon="6.71808">
        <ele>1211.88</ele>
        <time>2022-01-23T15:02:02Z</time>
      </trkpt>
      <trkpt lat="45.79314" lon="6.71823">
        <ele>1211.4</ele>
        <time>2022-01-23T15:02:09Z</time>
      </trkpt>
      <trkpt lat="45.79319" lon="6.71837">
        <ele>1211.4</ele>
        <time>2022-01-23T15:02:15Z</time>
      </trkpt>
      <trkpt lat="45.79336" lon="6.71852">
        <ele>1210.44</ele>
        <time>2022-01-23T15:02:31Z</time>
      </trkpt>
      <trkpt lat="45.79356" lon="6.71863">
        <ele>1210.44</ele>
        <time>2022-01-23T15:02:43Z</time>
      </trkpt>
      <trkpt lat="45.79366" lon="6.71864">
        <ele>1209.96</ele>
        <time>2022-01-23T15:02:49Z</time>
      </trkpt>
      <trkpt lat="45.79369" lon="6.71862">
        <ele>1209.96</ele>
        <time>2022-01-23T15:02:51Z</time>
      </trkpt>
      <trkpt lat="45.79391" lon="6.71837">
        <ele>1208.51</ele>
        <time>2022-01-23T15:03:07Z</time>
      </trkpt>
      <trkpt lat="45.79416" lon="6.71806">
        <ele>1208.03</ele>
        <time>2022-01-23T15:03:23Z</time>
      </trkpt>
      <trkpt lat="45.79421" lon="6.718">
        <ele>1208.51</ele>
        <time>2022-01-23T15:03:29Z</time>
      </trkpt>
      <trkpt lat="45.7943" lon="6.71779">
        <ele>1209</ele>
        <time>2022-01-23T15:03:43Z</time>
      </trkpt>
      <trkpt lat="45.79443" lon="6.71764">
        <ele>1208.03</ele>
        <time>2022-01-23T15:03:58Z</time>
      </trkpt>
      <trkpt lat="45.79457" lon="6.71784">
        <ele>1207.07</ele>
        <time>2022-01-23T15:04:13Z</time>
      </trkpt>
      <trkpt lat="45.79469" lon="6.71787">
        <ele>1207.07</ele>
        <time>2022-01-23T15:04:27Z</time>
      </trkpt>
      <trkpt lat="45.79487" lon="6.71772">
        <ele>1207.07</ele>
        <time>2022-01-23T15:04:44Z</time>
      </trkpt>
      <trkpt lat="45.79482" lon="6.71752">
        <ele>1207.07</ele>
        <time>2022-01-23T15:05:02Z</time>
      </trkpt>
      <trkpt lat="45.79478" lon="6.71748">
        <ele>1202.27</ele>
        <time>2022-01-23T15:05:11Z</time>
      </trkpt>
      <trkpt lat="45.79478" lon="6.71748">
        <ele>1198.9</ele>
        <time>2022-01-23T15:05:12Z</time>
      </trkpt>
      <trkpt lat="45.79477" lon="6.71747">
        <ele>1196.02</ele>
        <time>2022-01-23T15:05:14Z</time>
      </trkpt>
      <trkpt lat="45.79478" lon="6.71747">
        <ele>1199.38</ele>
        <time>2022-01-23T15:05:19Z</time>
      </trkpt>
      <trkpt lat="45.79478" lon="6.71748">
        <ele>1200.34</ele>
        <time>2022-01-23T15:05:21Z</time>
      </trkpt>
      <trkpt lat="45.79479" lon="6.71752">
        <ele>1205.63</ele>
        <time>2022-01-23T15:05:30Z</time>
      </trkpt>
      <trkpt lat="45.79479" lon="6.71752">
        <ele>1209.48</ele>
        <time>2022-01-23T15:05:31Z</time>
      </trkpt>
      <trkpt lat="45.7948" lon="6.71753">
        <ele>1212.84</ele>
        <time>2022-01-23T15:05:32Z</time>
      </trkpt>
      <trkpt lat="45.7948" lon="6.71752">
        <ele>1216.21</ele>
        <time>2022-01-23T15:05:34Z</time>
      </trkpt>
      <trkpt lat="45.7948" lon="6.71752">
        <ele>1216.21</ele>
        <time>2022-01-23T15:05:35Z</time>
      </trkpt>
      <trkpt lat="45.7948" lon="6.7175">
        <ele>1212.84</ele>
        <time>2022-01-23T15:05:38Z</time>
      </trkpt>
      <trkpt lat="45.79479" lon="6.71747">
        <ele>1211.4</ele>
        <time>2022-01-23T15:05:40Z</time>
      </trkpt>
      <trkpt lat="45.79479" lon="6.71744">
        <ele>1210.44</ele>
        <time>2022-01-23T15:05:42Z</time>
      </trkpt>
      <trkpt lat="45.7948" lon="6.71733">
        <ele>1207.55</ele>
        <time>2022-01-23T15:05:50Z</time>
      </trkpt>
      <trkpt lat="45.79481" lon="6.71729">
        <ele>1207.07</ele>
        <time>2022-01-23T15:06:01Z</time>
      </trkpt>
      <trkpt lat="45.79484" lon="6.71731">
        <ele>1206.59</ele>
        <time>2022-01-23T15:06:17Z</time>
      </trkpt>
      <trkpt lat="45.79476" lon="6.7174">
        <ele>1207.07</ele>
        <time>2022-01-23T15:06:33Z</time>
      </trkpt>
      <trkpt lat="45.79474" lon="6.71738">
        <ele>1207.55</ele>
        <time>2022-01-23T15:06:39Z</time>
      </trkpt>
      <trkpt lat="45.7947" lon="6.71741">
        <ele>1207.55</ele>
        <time>2022-01-23T15:06:42Z</time>
      </trkpt>
      <trkpt lat="45.79468" lon="6.71741">
        <ele>1207.55</ele>
        <time>2022-01-23T15:06:44Z</time>
      </trkpt>
      <trkpt lat="45.79464" lon="6.71742">
        <ele>1208.51</ele>
        <time>2022-01-23T15:07:02Z</time>
      </trkpt>
      <trkpt lat="45.79464" lon="6.71743">
        <ele>1208.03</ele>
        <time>2022-01-23T15:07:31Z</time>
      </trkpt>
      <trkpt lat="45.79464" lon="6.71744">
        <ele>1196.98</ele>
        <time>2022-01-23T15:07:48Z</time>
      </trkpt>
      <trkpt lat="45.79464" lon="6.71744">
        <ele>1196.98</ele>
        <time>2022-01-23T15:07:49Z</time>
      </trkpt>
      <trkpt lat="45.79464" lon="6.71744">
        <ele>1188.33</ele>
        <time>2022-01-23T15:07:50Z</time>
      </trkpt>
      <trkpt lat="45.79464" lon="6.71744">
        <ele>1188.33</ele>
        <time>2022-01-23T15:07:51Z</time>
      </trkpt>
      <trkpt lat="45.79464" lon="6.71745">
        <ele>1185.44</ele>
        <time>2022-01-23T15:07:54Z</time>
      </trkpt>
      <trkpt lat="45.79464" lon="6.71745">
        <ele>1184.96</ele>
        <time>2022-01-23T15:07:55Z</time>
      </trkpt>
      <trkpt lat="45.79465" lon="6.71744">
        <ele>1188.33</ele>
        <time>2022-01-23T15:08:01Z</time>
      </trkpt>
      <trkpt lat="45.79465" lon="6.71744">
        <ele>1197.46</ele>
        <time>2022-01-23T15:08:02Z</time>
      </trkpt>
      <trkpt lat="45.79465" lon="6.71744">
        <ele>1205.15</ele>
        <time>2022-01-23T15:08:03Z</time>
      </trkpt>
      <trkpt lat="45.79465" lon="6.71744">
        <ele>1209</ele>
        <time>2022-01-23T15:08:04Z</time>
      </trkpt>
      <trkpt lat="45.79465" lon="6.71744">
        <ele>1207.07</ele>
        <time>2022-01-23T15:08:24Z</time>
      </trkpt>
      <trkpt lat="45.79465" lon="6.71745">
        <ele>1207.07</ele>
        <time>2022-01-23T15:08:46Z</time>
      </trkpt>
      <trkpt lat="45.79462" lon="6.71749">
        <ele>1207.55</ele>
        <time>2022-01-23T15:09:10Z</time>
      </trkpt>
      <trkpt lat="45.7946" lon="6.71752">
        <ele>1207.55</ele>
        <time>2022-01-23T15:09:13Z</time>
      </trkpt>
      <trkpt lat="45.79457" lon="6.71761">
        <ele>1207.55</ele>
        <time>2022-01-23T15:09:18Z</time>
      </trkpt>
      <trkpt lat="45.79468" lon="6.7178">
        <ele>1207.07</ele>
        <time>2022-01-23T15:09:29Z</time>
      </trkpt>
      <trkpt lat="45.79469" lon="6.71781">
        <ele>1207.07</ele>
        <time>2022-01-23T15:09:30Z</time>
      </trkpt>
      <trkpt lat="45.79471" lon="6.71783">
        <ele>1207.07</ele>
        <time>2022-01-23T15:09:31Z</time>
      </trkpt>
      <trkpt lat="45.79472" lon="6.71785">
        <ele>1207.07</ele>
        <time>2022-01-23T15:09:32Z</time>
      </trkpt>
      <trkpt lat="45.79474" lon="6.71787">
        <ele>1207.07</ele>
        <time>2022-01-23T15:09:33Z</time>
      </trkpt>
      <trkpt lat="45.79475" lon="6.71789">
        <ele>1206.59</ele>
        <time>2022-01-23T15:09:34Z</time>
      </trkpt>
      <trkpt lat="45.79477" lon="6.71791">
        <ele>1206.59</ele>
        <time>2022-01-23T15:09:35Z</time>
      </trkpt>
      <trkpt lat="45.7951" lon="6.7181">
        <ele>1205.63</ele>
        <time>2022-01-23T15:09:52Z</time>
      </trkpt>
      <trkpt lat="45.7953" lon="6.7182">
        <ele>1205.15</ele>
        <time>2022-01-23T15:10:07Z</time>
      </trkpt>
      <trkpt lat="45.79536" lon="6.71823">
        <ele>1206.11</ele>
        <time>2022-01-23T15:10:20Z</time>
      </trkpt>
      <trkpt lat="45.79537" lon="6.71823">
        <ele>1206.11</ele>
        <time>2022-01-23T15:10:21Z</time>
      </trkpt>
      <trkpt lat="45.79539" lon="6.71824">
        <ele>1206.11</ele>
        <time>2022-01-23T15:10:22Z</time>
      </trkpt>
      <trkpt lat="45.7954" lon="6.71825">
        <ele>1206.11</ele>
        <time>2022-01-23T15:10:23Z</time>
      </trkpt>
      <trkpt lat="45.79541" lon="6.71826">
        <ele>1206.11</ele>
        <time>2022-01-23T15:10:24Z</time>
      </trkpt>
      <trkpt lat="45.79565" lon="6.71833">
        <ele>1203.71</ele>
        <time>2022-01-23T15:10:35Z</time>
      </trkpt>
      <trkpt lat="45.79571" lon="6.71831">
        <ele>1199.38</ele>
        <time>2022-01-23T15:10:46Z</time>
      </trkpt>
      <trkpt lat="45.79571" lon="6.7183">
        <ele>1196.02</ele>
        <time>2022-01-23T15:10:48Z</time>
      </trkpt>
      <trkpt lat="45.79571" lon="6.7183">
        <ele>1196.02</ele>
        <time>2022-01-23T15:10:49Z</time>
      </trkpt>
      <trkpt lat="45.79573" lon="6.71828">
        <ele>1200.34</ele>
        <time>2022-01-23T15:11:05Z</time>
      </trkpt>
      <trkpt lat="45.79574" lon="6.71827">
        <ele>1204.19</ele>
        <time>2022-01-23T15:11:07Z</time>
      </trkpt>
      <trkpt lat="45.79575" lon="6.71824">
        <ele>1205.15</ele>
        <time>2022-01-23T15:11:09Z</time>
      </trkpt>
      <trkpt lat="45.79581" lon="6.71818">
        <ele>1204.19</ele>
        <time>2022-01-23T15:11:16Z</time>
      </trkpt>
      <trkpt lat="45.79582" lon="6.71818">
        <ele>1203.71</ele>
        <time>2022-01-23T15:11:17Z</time>
      </trkpt>
      <trkpt lat="45.79584" lon="6.71818">
        <ele>1203.71</ele>
        <time>2022-01-23T15:11:18Z</time>
      </trkpt>
      <trkpt lat="45.79592" lon="6.71818">
        <ele>1203.23</ele>
        <time>2022-01-23T15:11:24Z</time>
      </trkpt>
      <trkpt lat="45.79628" lon="6.71821">
        <ele>1202.27</ele>
        <time>2022-01-23T15:11:50Z</time>
      </trkpt>
      <trkpt lat="45.79629" lon="6.71819">
        <ele>1202.75</ele>
        <time>2022-01-23T15:12:11Z</time>
      </trkpt>
      <trkpt lat="45.79629" lon="6.71819">
        <ele>1202.75</ele>
        <time>2022-01-23T15:12:13Z</time>
      </trkpt>
    </trkseg>
  </trk>
</gpx>